<?xml version="1.0" encoding="UTF-8" standalone="no" ?>
<gpx xmlns="http://www.topografix.com/GPX/1/1" xmlns:xsi="http://www.w3.org/2001/XMLSchema-instance" xsi:schemaLocation="http://www.topografix.com/GPX/1/1 http://www.topografix.com/GPX/1/1/gpx.xsd" version="1.1" creator="VisuGPX - https://www.visugpx.com">
  <metadata>
    <name>bréles lanildut AR</name>
    <desc><![CDATA[longer l'aber Ildut par la rive nord en assurant un demi tour en 8.  le retour sur le même chemin permet d'admirer un paysage qui semble bien différent.]]></desc>
  </metadata>
  <trk>
    <name><![CDATA[Nouvellecourse]]></name>
    <trkseg>
      <trkpt lat="48.47721" lon="-4.71785">
        <ele>0.618042</ele>
        <time>2017-01-08T08:25:08Z</time>
      </trkpt>
      <trkpt lat="48.47731" lon="-4.71789">
        <ele>19.2578125</ele>
      </trkpt>
      <trkpt lat="48.47726" lon="-4.7183">
        <ele>17.12890625</ele>
      </trkpt>
      <trkpt lat="48.47705" lon="-4.71779">
        <ele>16.23046875</ele>
      </trkpt>
      <trkpt lat="48.47684" lon="-4.71775">
        <ele>21.1328125</ele>
      </trkpt>
      <trkpt lat="48.47676" lon="-4.71775">
        <ele>19.95703125</ele>
      </trkpt>
      <trkpt lat="48.47662" lon="-4.71779">
        <ele>19.3125</ele>
      </trkpt>
      <trkpt lat="48.47653" lon="-4.71779">
        <ele>18.734375</ele>
      </trkpt>
      <trkpt lat="48.47647" lon="-4.71781">
        <ele>18.1171875</ele>
      </trkpt>
      <trkpt lat="48.47632" lon="-4.71802">
        <ele>17.2421875</ele>
      </trkpt>
      <trkpt lat="48.47623" lon="-4.71809">
        <ele>16.71875</ele>
      </trkpt>
      <trkpt lat="48.47615" lon="-4.7181">
        <ele>16.015625</ele>
      </trkpt>
      <trkpt lat="48.47581" lon="-4.71807">
        <ele>15.3671875</ele>
      </trkpt>
      <trkpt lat="48.47578" lon="-4.71808">
        <ele>2.5406494</ele>
        <time>2017-01-08T08:25:12Z</time>
      </trkpt>
      <trkpt lat="48.4756" lon="-4.71815">
        <ele>15.10546875</ele>
      </trkpt>
      <trkpt lat="48.47556" lon="-4.7182">
        <ele>14.91796875</ele>
      </trkpt>
      <trkpt lat="48.47555" lon="-4.71825">
        <ele>14.53515625</ele>
      </trkpt>
      <trkpt lat="48.47558" lon="-4.71834">
        <ele>13.609375</ele>
      </trkpt>
      <trkpt lat="48.47559" lon="-4.71838">
        <ele>13.640625</ele>
      </trkpt>
      <trkpt lat="48.4756" lon="-4.71843">
        <ele>13.6171875</ele>
      </trkpt>
      <trkpt lat="48.47561" lon="-4.71847">
        <ele>13.62890625</ele>
      </trkpt>
      <trkpt lat="48.47562" lon="-4.71852">
        <ele>13.83203125</ele>
      </trkpt>
      <trkpt lat="48.47563" lon="-4.71861">
        <ele>14.00390625</ele>
      </trkpt>
      <trkpt lat="48.47564" lon="-4.71871">
        <ele>14.0546875</ele>
      </trkpt>
      <trkpt lat="48.47569" lon="-4.71874">
        <ele>14.27734375</ele>
      </trkpt>
      <trkpt lat="48.4757" lon="-4.71881">
        <ele>14.38671875</ele>
      </trkpt>
      <trkpt lat="48.4757" lon="-4.71883">
        <ele>6.3858643</ele>
        <time>2017-01-08T08:25:18Z</time>
      </trkpt>
      <trkpt lat="48.47572" lon="-4.71889">
        <ele>7.347168</ele>
        <time>2017-01-08T08:25:21Z</time>
      </trkpt>
      <trkpt lat="48.47576" lon="-4.71897">
        <ele>7.8278809</ele>
        <time>2017-01-08T08:25:25Z</time>
      </trkpt>
      <trkpt lat="48.47579" lon="-4.71905">
        <ele>8.3085938</ele>
        <time>2017-01-08T08:25:29Z</time>
      </trkpt>
      <trkpt lat="48.47577" lon="-4.71919">
        <ele>7.347168</ele>
        <time>2017-01-08T08:25:35Z</time>
      </trkpt>
      <trkpt lat="48.47577" lon="-4.71929">
        <ele>7.8278809</ele>
        <time>2017-01-08T08:25:39Z</time>
      </trkpt>
      <trkpt lat="48.47576" lon="-4.71938">
        <ele>6.8664551</ele>
        <time>2017-01-08T08:25:43Z</time>
      </trkpt>
      <trkpt lat="48.47575" lon="-4.71944">
        <ele>7.347168</ele>
        <time>2017-01-08T08:25:46Z</time>
      </trkpt>
      <trkpt lat="48.47575" lon="-4.71953">
        <ele>7.347168</ele>
        <time>2017-01-08T08:25:51Z</time>
      </trkpt>
      <trkpt lat="48.47575" lon="-4.7196">
        <ele>7.8278809</ele>
        <time>2017-01-08T08:25:54Z</time>
      </trkpt>
      <trkpt lat="48.47575" lon="-4.71971">
        <ele>8.7891846</ele>
        <time>2017-01-08T08:25:59Z</time>
      </trkpt>
      <trkpt lat="48.47573" lon="-4.71987">
        <ele>9.7506104</ele>
        <time>2017-01-08T08:26:07Z</time>
      </trkpt>
      <trkpt lat="48.47573" lon="-4.71988">
        <ele>9.7506104</ele>
        <time>2017-01-08T08:26:08Z</time>
      </trkpt>
      <trkpt lat="48.47572" lon="-4.71998">
        <ele>8.3085938</ele>
        <time>2017-01-08T08:26:13Z</time>
      </trkpt>
      <trkpt lat="48.47579" lon="-4.7201">
        <ele>6.3858643</ele>
        <time>2017-01-08T08:26:20Z</time>
      </trkpt>
      <trkpt lat="48.47582" lon="-4.72018">
        <ele>3.5019531</ele>
        <time>2017-01-08T08:26:25Z</time>
      </trkpt>
      <trkpt lat="48.47583" lon="-4.72018">
        <ele>3.982666</ele>
        <time>2017-01-08T08:26:27Z</time>
      </trkpt>
      <trkpt lat="48.47592" lon="-4.72013">
        <ele>6.3858643</ele>
        <time>2017-01-08T08:26:35Z</time>
      </trkpt>
      <trkpt lat="48.47595" lon="-4.7201">
        <ele>6.3858643</ele>
        <time>2017-01-08T08:26:38Z</time>
      </trkpt>
      <trkpt lat="48.47606" lon="-4.72011">
        <ele>7.8278809</ele>
        <time>2017-01-08T08:26:45Z</time>
      </trkpt>
      <trkpt lat="48.47611" lon="-4.72013">
        <ele>9.2698975</ele>
        <time>2017-01-08T08:26:49Z</time>
      </trkpt>
      <trkpt lat="48.47617" lon="-4.72016">
        <ele>9.2698975</ele>
        <time>2017-01-08T08:26:54Z</time>
      </trkpt>
      <trkpt lat="48.47622" lon="-4.72017">
        <ele>10.711792</ele>
        <time>2017-01-08T08:26:59Z</time>
      </trkpt>
      <trkpt lat="48.47623" lon="-4.72017">
        <ele>10.711792</ele>
        <time>2017-01-08T08:27:00Z</time>
      </trkpt>
      <trkpt lat="48.47625" lon="-4.72019">
        <ele>10.711792</ele>
        <time>2017-01-08T08:27:02Z</time>
      </trkpt>
      <trkpt lat="48.47631" lon="-4.72023">
        <ele>11.1925049</ele>
        <time>2017-01-08T08:27:07Z</time>
      </trkpt>
      <trkpt lat="48.47636" lon="-4.72026">
        <ele>11.1925049</ele>
        <time>2017-01-08T08:27:12Z</time>
      </trkpt>
      <trkpt lat="48.47644" lon="-4.72029">
        <ele>13.1151123</ele>
        <time>2017-01-08T08:27:17Z</time>
      </trkpt>
      <trkpt lat="48.47647" lon="-4.7203">
        <ele>13.5958252</ele>
        <time>2017-01-08T08:27:19Z</time>
      </trkpt>
      <trkpt lat="48.47652" lon="-4.72033">
        <ele>15.0377197</ele>
        <time>2017-01-08T08:27:25Z</time>
      </trkpt>
      <trkpt lat="48.47654" lon="-4.72033">
        <ele>15.5184326</ele>
        <time>2017-01-08T08:27:26Z</time>
      </trkpt>
      <trkpt lat="48.47662" lon="-4.72032">
        <ele>17.4411621</ele>
        <time>2017-01-08T08:27:32Z</time>
      </trkpt>
      <trkpt lat="48.47664" lon="-4.72034">
        <ele>18.8830566</ele>
        <time>2017-01-08T08:27:34Z</time>
      </trkpt>
      <trkpt lat="48.47667" lon="-4.72045">
        <ele>18.8830566</ele>
        <time>2017-01-08T08:27:41Z</time>
      </trkpt>
      <trkpt lat="48.47668" lon="-4.72054">
        <ele>19.3637695</ele>
        <time>2017-01-08T08:27:47Z</time>
      </trkpt>
      <trkpt lat="48.47672" lon="-4.72057">
        <ele>19.8443604</ele>
        <time>2017-01-08T08:27:50Z</time>
      </trkpt>
      <trkpt lat="48.47678" lon="-4.7206">
        <ele>20.8056641</ele>
        <time>2017-01-08T08:27:55Z</time>
      </trkpt>
      <trkpt lat="48.47679" lon="-4.72061">
        <ele>20.8056641</ele>
        <time>2017-01-08T08:27:56Z</time>
      </trkpt>
      <trkpt lat="48.47684" lon="-4.72065">
        <ele>21.7669678</ele>
        <time>2017-01-08T08:28:02Z</time>
      </trkpt>
      <trkpt lat="48.47684" lon="-4.72068">
        <ele>22.2475586</ele>
        <time>2017-01-08T08:28:04Z</time>
      </trkpt>
      <trkpt lat="48.4769" lon="-4.7207">
        <ele>21.286377</ele>
        <time>2017-01-08T08:28:07Z</time>
      </trkpt>
      <trkpt lat="48.4769" lon="-4.72084">
        <ele>21.7669678</ele>
        <time>2017-01-08T08:28:14Z</time>
      </trkpt>
      <trkpt lat="48.47691" lon="-4.72087">
        <ele>21.286377</ele>
        <time>2017-01-08T08:28:16Z</time>
      </trkpt>
      <trkpt lat="48.47692" lon="-4.72094">
        <ele>19.8443604</ele>
        <time>2017-01-08T08:28:19Z</time>
      </trkpt>
      <trkpt lat="48.47694" lon="-4.72106">
        <ele>18.4023438</ele>
        <time>2017-01-08T08:28:25Z</time>
      </trkpt>
      <trkpt lat="48.47694" lon="-4.72108">
        <ele>17.9217529</ele>
        <time>2017-01-08T08:28:26Z</time>
      </trkpt>
      <trkpt lat="48.47692" lon="-4.72123">
        <ele>16.9604492</ele>
        <time>2017-01-08T08:28:32Z</time>
      </trkpt>
      <trkpt lat="48.47691" lon="-4.72128">
        <ele>16.4797363</ele>
        <time>2017-01-08T08:28:34Z</time>
      </trkpt>
      <trkpt lat="48.47693" lon="-4.7214">
        <ele>15.5184326</ele>
        <time>2017-01-08T08:28:41Z</time>
      </trkpt>
      <trkpt lat="48.47693" lon="-4.72148">
        <ele>14.5570068</ele>
        <time>2017-01-08T08:28:44Z</time>
      </trkpt>
      <trkpt lat="48.47692" lon="-4.72159">
        <ele>14.5570068</ele>
        <time>2017-01-08T08:28:49Z</time>
      </trkpt>
      <trkpt lat="48.47691" lon="-4.72162">
        <ele>15.0377197</ele>
        <time>2017-01-08T08:28:50Z</time>
      </trkpt>
      <trkpt lat="48.47692" lon="-4.72172">
        <ele>14.5570068</ele>
        <time>2017-01-08T08:28:55Z</time>
      </trkpt>
      <trkpt lat="48.47693" lon="-4.72179">
        <ele>14.076416</ele>
        <time>2017-01-08T08:28:59Z</time>
      </trkpt>
      <trkpt lat="48.47693" lon="-4.72189">
        <ele>12.6343994</ele>
        <time>2017-01-08T08:29:04Z</time>
      </trkpt>
      <trkpt lat="48.47693" lon="-4.72198">
        <ele>10.711792</ele>
        <time>2017-01-08T08:29:09Z</time>
      </trkpt>
      <trkpt lat="48.47692" lon="-4.72205">
        <ele>11.6732178</ele>
        <time>2017-01-08T08:29:12Z</time>
      </trkpt>
      <trkpt lat="48.47694" lon="-4.72216">
        <ele>12.6343994</ele>
        <time>2017-01-08T08:29:18Z</time>
      </trkpt>
      <trkpt lat="48.47696" lon="-4.72221">
        <ele>12.6343994</ele>
        <time>2017-01-08T08:29:21Z</time>
      </trkpt>
      <trkpt lat="48.47698" lon="-4.7223">
        <ele>12.1538086</ele>
        <time>2017-01-08T08:29:25Z</time>
      </trkpt>
      <trkpt lat="48.47697" lon="-4.72236">
        <ele>12.1538086</ele>
        <time>2017-01-08T08:29:28Z</time>
      </trkpt>
      <trkpt lat="48.47698" lon="-4.72242">
        <ele>11.6732178</ele>
        <time>2017-01-08T08:29:31Z</time>
      </trkpt>
      <trkpt lat="48.47697" lon="-4.72255">
        <ele>13.1151123</ele>
        <time>2017-01-08T08:29:37Z</time>
      </trkpt>
      <trkpt lat="48.47698" lon="-4.72256">
        <ele>13.5958252</ele>
        <time>2017-01-08T08:29:38Z</time>
      </trkpt>
      <trkpt lat="48.47702" lon="-4.72266">
        <ele>15.0377197</ele>
        <time>2017-01-08T08:29:43Z</time>
      </trkpt>
      <trkpt lat="48.47705" lon="-4.72273">
        <ele>16.4797363</ele>
        <time>2017-01-08T08:29:48Z</time>
      </trkpt>
      <trkpt lat="48.47707" lon="-4.72287">
        <ele>15.9990234</ele>
        <time>2017-01-08T08:29:56Z</time>
      </trkpt>
      <trkpt lat="48.47708" lon="-4.72295">
        <ele>15.5184326</ele>
        <time>2017-01-08T08:30:01Z</time>
      </trkpt>
      <trkpt lat="48.47708" lon="-4.72303">
        <ele>15.9990234</ele>
        <time>2017-01-08T08:30:08Z</time>
      </trkpt>
      <trkpt lat="48.47707" lon="-4.72308">
        <ele>15.5184326</ele>
        <time>2017-01-08T08:30:11Z</time>
      </trkpt>
      <trkpt lat="48.47701" lon="-4.72312">
        <ele>14.5570068</ele>
        <time>2017-01-08T08:30:15Z</time>
      </trkpt>
      <trkpt lat="48.47693" lon="-4.72317">
        <ele>14.5570068</ele>
        <time>2017-01-08T08:30:20Z</time>
      </trkpt>
      <trkpt lat="48.4768" lon="-4.72321">
        <ele>14.5570068</ele>
        <time>2017-01-08T08:30:27Z</time>
      </trkpt>
      <trkpt lat="48.47668" lon="-4.72325">
        <ele>14.076416</ele>
        <time>2017-01-08T08:30:34Z</time>
      </trkpt>
      <trkpt lat="48.47662" lon="-4.72328">
        <ele>12.1538086</ele>
        <time>2017-01-08T08:30:39Z</time>
      </trkpt>
      <trkpt lat="48.47652" lon="-4.72332">
        <ele>12.1538086</ele>
        <time>2017-01-08T08:30:46Z</time>
      </trkpt>
      <trkpt lat="48.4765" lon="-4.72334">
        <ele>11.1925049</ele>
        <time>2017-01-08T08:30:48Z</time>
      </trkpt>
      <trkpt lat="48.47641" lon="-4.72336">
        <ele>9.7506104</ele>
        <time>2017-01-08T08:30:56Z</time>
      </trkpt>
      <trkpt lat="48.47634" lon="-4.72338">
        <ele>8.3085938</ele>
        <time>2017-01-08T08:31:02Z</time>
      </trkpt>
      <trkpt lat="48.47632" lon="-4.72339">
        <ele>7.8278809</ele>
        <time>2017-01-08T08:31:04Z</time>
      </trkpt>
      <trkpt lat="48.47629" lon="-4.72342">
        <ele>6.3858643</ele>
        <time>2017-01-08T08:31:07Z</time>
      </trkpt>
      <trkpt lat="48.47621" lon="-4.72343">
        <ele>2.0600586</ele>
        <time>2017-01-08T08:31:13Z</time>
      </trkpt>
      <trkpt lat="48.47616" lon="-4.72345">
        <ele>1.0986328</ele>
        <time>2017-01-08T08:31:17Z</time>
      </trkpt>
      <trkpt lat="48.47609" lon="-4.72348">
        <ele>-1.7852783</ele>
        <time>2017-01-08T08:31:22Z</time>
      </trkpt>
      <trkpt lat="48.47602" lon="-4.7235">
        <ele>-4.6693115</ele>
        <time>2017-01-08T08:31:27Z</time>
      </trkpt>
      <trkpt lat="48.47596" lon="-4.72352">
        <ele>-7.0725098</ele>
        <time>2017-01-08T08:31:33Z</time>
      </trkpt>
      <trkpt lat="48.47594" lon="-4.72353">
        <ele>-7.5531006</ele>
        <time>2017-01-08T08:31:34Z</time>
      </trkpt>
      <trkpt lat="48.47589" lon="-4.72353">
        <ele>-7.5531006</ele>
        <time>2017-01-08T08:31:38Z</time>
      </trkpt>
      <trkpt lat="48.47587" lon="-4.72353">
        <ele>-7.0725098</ele>
        <time>2017-01-08T08:31:40Z</time>
      </trkpt>
      <trkpt lat="48.4758" lon="-4.72355">
        <ele>-7.0725098</ele>
        <time>2017-01-08T08:31:44Z</time>
      </trkpt>
      <trkpt lat="48.47575" lon="-4.72357">
        <ele>-8.0339355</ele>
        <time>2017-01-08T08:31:48Z</time>
      </trkpt>
      <trkpt lat="48.47566" lon="-4.72365">
        <ele>-6.5919189</ele>
        <time>2017-01-08T08:31:54Z</time>
      </trkpt>
      <trkpt lat="48.47565" lon="-4.72369">
        <ele>-5.6304932</ele>
        <time>2017-01-08T08:31:57Z</time>
      </trkpt>
      <trkpt lat="48.47564" lon="-4.72377">
        <ele>-1.7852783</ele>
        <time>2017-01-08T08:32:03Z</time>
      </trkpt>
      <trkpt lat="48.47561" lon="-4.72381">
        <ele>0.1374512</ele>
        <time>2017-01-08T08:32:07Z</time>
      </trkpt>
      <trkpt lat="48.47558" lon="-4.72387">
        <ele>0.618042</ele>
        <time>2017-01-08T08:32:11Z</time>
      </trkpt>
      <trkpt lat="48.47555" lon="-4.724">
        <ele>3.5019531</ele>
        <time>2017-01-08T08:32:15Z</time>
      </trkpt>
      <trkpt lat="48.47554" lon="-4.72412">
        <ele>4.9438477</ele>
        <time>2017-01-08T08:32:20Z</time>
      </trkpt>
      <trkpt lat="48.47553" lon="-4.72419">
        <ele>5.4245605</ele>
        <time>2017-01-08T08:32:23Z</time>
      </trkpt>
      <trkpt lat="48.4755" lon="-4.72429">
        <ele>4.9438477</ele>
        <time>2017-01-08T08:32:29Z</time>
      </trkpt>
      <trkpt lat="48.47546" lon="-4.72434">
        <ele>4.9438477</ele>
        <time>2017-01-08T08:32:33Z</time>
      </trkpt>
      <trkpt lat="48.47544" lon="-4.72444">
        <ele>3.982666</ele>
        <time>2017-01-08T08:32:40Z</time>
      </trkpt>
      <trkpt lat="48.47543" lon="-4.72446">
        <ele>3.982666</ele>
        <time>2017-01-08T08:32:41Z</time>
      </trkpt>
      <trkpt lat="48.47543" lon="-4.7245">
        <ele>3.5019531</ele>
        <time>2017-01-08T08:32:43Z</time>
      </trkpt>
      <trkpt lat="48.47544" lon="-4.72454">
        <ele>3.0212402</ele>
        <time>2017-01-08T08:32:45Z</time>
      </trkpt>
      <trkpt lat="48.47551" lon="-4.72459">
        <ele>3.5019531</ele>
        <time>2017-01-08T08:32:52Z</time>
      </trkpt>
      <trkpt lat="48.47557" lon="-4.72461">
        <ele>3.0212402</ele>
        <time>2017-01-08T08:32:57Z</time>
      </trkpt>
      <trkpt lat="48.47561" lon="-4.72463">
        <ele>2.5406494</ele>
        <time>2017-01-08T08:32:59Z</time>
      </trkpt>
      <trkpt lat="48.47571" lon="-4.72464">
        <ele>3.5019531</ele>
        <time>2017-01-08T08:33:06Z</time>
      </trkpt>
      <trkpt lat="48.47579" lon="-4.72465">
        <ele>3.0212402</ele>
        <time>2017-01-08T08:33:12Z</time>
      </trkpt>
      <trkpt lat="48.47581" lon="-4.72465">
        <ele>3.5019531</ele>
        <time>2017-01-08T08:33:14Z</time>
      </trkpt>
      <trkpt lat="48.47585" lon="-4.72464">
        <ele>4.4632568</ele>
        <time>2017-01-08T08:33:17Z</time>
      </trkpt>
      <trkpt lat="48.47592" lon="-4.72469">
        <ele>3.5019531</ele>
        <time>2017-01-08T08:33:24Z</time>
      </trkpt>
      <trkpt lat="48.47597" lon="-4.72474">
        <ele>2.5406494</ele>
        <time>2017-01-08T08:33:28Z</time>
      </trkpt>
      <trkpt lat="48.476" lon="-4.72482">
        <ele>1.5793457</ele>
        <time>2017-01-08T08:33:32Z</time>
      </trkpt>
      <trkpt lat="48.47602" lon="-4.72494">
        <ele>0.618042</ele>
        <time>2017-01-08T08:33:38Z</time>
      </trkpt>
      <trkpt lat="48.47607" lon="-4.72507">
        <ele>-1.3046875</ele>
        <time>2017-01-08T08:33:46Z</time>
      </trkpt>
      <trkpt lat="48.47604" lon="-4.72513">
        <ele>-1.7852783</ele>
        <time>2017-01-08T08:33:52Z</time>
      </trkpt>
      <trkpt lat="48.47602" lon="-4.72515">
        <ele>-1.7852783</ele>
        <time>2017-01-08T08:33:55Z</time>
      </trkpt>
      <trkpt lat="48.47597" lon="-4.72518">
        <ele>0.1374512</ele>
        <time>2017-01-08T08:34:01Z</time>
      </trkpt>
      <trkpt lat="48.47593" lon="-4.7252">
        <ele>1.0986328</ele>
        <time>2017-01-08T08:34:06Z</time>
      </trkpt>
      <trkpt lat="48.47588" lon="-4.72522">
        <ele>1.5793457</ele>
        <time>2017-01-08T08:34:12Z</time>
      </trkpt>
      <trkpt lat="48.47582" lon="-4.72524">
        <ele>1.0986328</ele>
        <time>2017-01-08T08:34:18Z</time>
      </trkpt>
      <trkpt lat="48.4758" lon="-4.72526">
        <ele>1.5793457</ele>
        <time>2017-01-08T08:34:20Z</time>
      </trkpt>
      <trkpt lat="48.47575" lon="-4.72531">
        <ele>3.982666</ele>
        <time>2017-01-08T08:34:25Z</time>
      </trkpt>
      <trkpt lat="48.47573" lon="-4.72532">
        <ele>3.982666</ele>
        <time>2017-01-08T08:34:27Z</time>
      </trkpt>
      <trkpt lat="48.47566" lon="-4.72535">
        <ele>2.5406494</ele>
        <time>2017-01-08T08:34:34Z</time>
      </trkpt>
      <trkpt lat="48.47564" lon="-4.72537">
        <ele>2.0600586</ele>
        <time>2017-01-08T08:34:36Z</time>
      </trkpt>
      <trkpt lat="48.4756" lon="-4.72544">
        <ele>0.618042</ele>
        <time>2017-01-08T08:34:42Z</time>
      </trkpt>
      <trkpt lat="48.47559" lon="-4.72546">
        <ele>0.618042</ele>
        <time>2017-01-08T08:34:44Z</time>
      </trkpt>
      <trkpt lat="48.47559" lon="-4.72557">
        <ele>-1.3046875</ele>
        <time>2017-01-08T08:34:50Z</time>
      </trkpt>
      <trkpt lat="48.47558" lon="-4.7256">
        <ele>-2.2659912</ele>
        <time>2017-01-08T08:34:53Z</time>
      </trkpt>
      <trkpt lat="48.47554" lon="-4.72573">
        <ele>-2.7467041</ele>
        <time>2017-01-08T08:35:00Z</time>
      </trkpt>
      <trkpt lat="48.4755" lon="-4.72579">
        <ele>-2.7467041</ele>
        <time>2017-01-08T08:35:03Z</time>
      </trkpt>
      <trkpt lat="48.47547" lon="-4.72581">
        <ele>-2.7467041</ele>
        <time>2017-01-08T08:35:06Z</time>
      </trkpt>
      <trkpt lat="48.47542" lon="-4.7259">
        <ele>2.5406494</ele>
        <time>2017-01-08T08:35:13Z</time>
      </trkpt>
      <trkpt lat="48.47539" lon="-4.72594">
        <ele>3.0212402</ele>
        <time>2017-01-08T08:35:16Z</time>
      </trkpt>
      <trkpt lat="48.47533" lon="-4.72606">
        <ele>3.5019531</ele>
        <time>2017-01-08T08:35:23Z</time>
      </trkpt>
      <trkpt lat="48.4753" lon="-4.72612">
        <ele>2.5406494</ele>
        <time>2017-01-08T08:35:26Z</time>
      </trkpt>
      <trkpt lat="48.47527" lon="-4.72617">
        <ele>0.618042</ele>
        <time>2017-01-08T08:35:29Z</time>
      </trkpt>
      <trkpt lat="48.47524" lon="-4.72627">
        <ele>-1.7852783</ele>
        <time>2017-01-08T08:35:35Z</time>
      </trkpt>
      <trkpt lat="48.4752" lon="-4.72634">
        <ele>-1.7852783</ele>
        <time>2017-01-08T08:35:39Z</time>
      </trkpt>
      <trkpt lat="48.47518" lon="-4.72643">
        <ele>-3.2272949</ele>
        <time>2017-01-08T08:35:44Z</time>
      </trkpt>
      <trkpt lat="48.47516" lon="-4.72648">
        <ele>-3.7078857</ele>
        <time>2017-01-08T08:35:46Z</time>
      </trkpt>
      <trkpt lat="48.47513" lon="-4.72664">
        <ele>-3.2272949</ele>
        <time>2017-01-08T08:35:53Z</time>
      </trkpt>
      <trkpt lat="48.47515" lon="-4.72681">
        <ele>0.1374512</ele>
        <time>2017-01-08T08:36:00Z</time>
      </trkpt>
      <trkpt lat="48.47516" lon="-4.72694">
        <ele>0.618042</ele>
        <time>2017-01-08T08:36:05Z</time>
      </trkpt>
      <trkpt lat="48.47517" lon="-4.72699">
        <ele>1.5793457</ele>
        <time>2017-01-08T08:36:07Z</time>
      </trkpt>
      <trkpt lat="48.47516" lon="-4.7271">
        <ele>3.0212402</ele>
        <time>2017-01-08T08:36:12Z</time>
      </trkpt>
      <trkpt lat="48.47516" lon="-4.72718">
        <ele>2.5406494</ele>
        <time>2017-01-08T08:36:16Z</time>
      </trkpt>
      <trkpt lat="48.47515" lon="-4.72723">
        <ele>2.5406494</ele>
        <time>2017-01-08T08:36:19Z</time>
      </trkpt>
      <trkpt lat="48.47509" lon="-4.72729">
        <ele>2.0600586</ele>
        <time>2017-01-08T08:36:24Z</time>
      </trkpt>
      <trkpt lat="48.47507" lon="-4.72736">
        <ele>1.5793457</ele>
        <time>2017-01-08T08:36:29Z</time>
      </trkpt>
      <trkpt lat="48.47507" lon="-4.72742">
        <ele>2.5406494</ele>
        <time>2017-01-08T08:36:33Z</time>
      </trkpt>
      <trkpt lat="48.47506" lon="-4.72754">
        <ele>1.5793457</ele>
        <time>2017-01-08T08:36:39Z</time>
      </trkpt>
      <trkpt lat="48.47504" lon="-4.72763">
        <ele>0.618042</ele>
        <time>2017-01-08T08:36:43Z</time>
      </trkpt>
      <trkpt lat="48.47501" lon="-4.72776">
        <ele>0.1374512</ele>
        <time>2017-01-08T08:36:50Z</time>
      </trkpt>
      <trkpt lat="48.47503" lon="-4.72787">
        <ele>-0.8240967</ele>
        <time>2017-01-08T08:36:55Z</time>
      </trkpt>
      <trkpt lat="48.47507" lon="-4.72794">
        <ele>2.5406494</ele>
        <time>2017-01-08T08:37:00Z</time>
      </trkpt>
      <trkpt lat="48.47513" lon="-4.72807">
        <ele>2.5406494</ele>
        <time>2017-01-08T08:37:07Z</time>
      </trkpt>
      <trkpt lat="48.47509" lon="-4.72818">
        <ele>2.0600586</ele>
        <time>2017-01-08T08:37:12Z</time>
      </trkpt>
      <trkpt lat="48.47507" lon="-4.72822">
        <ele>3.0212402</ele>
        <time>2017-01-08T08:37:14Z</time>
      </trkpt>
      <trkpt lat="48.47502" lon="-4.72837">
        <ele>4.4632568</ele>
        <time>2017-01-08T08:37:20Z</time>
      </trkpt>
      <trkpt lat="48.47504" lon="-4.72855">
        <ele>2.0600586</ele>
        <time>2017-01-08T08:37:26Z</time>
      </trkpt>
      <trkpt lat="48.47503" lon="-4.72868">
        <ele>1.5793457</ele>
        <time>2017-01-08T08:37:31Z</time>
      </trkpt>
      <trkpt lat="48.475" lon="-4.72882">
        <ele>1.5793457</ele>
        <time>2017-01-08T08:37:36Z</time>
      </trkpt>
      <trkpt lat="48.47499" lon="-4.72883">
        <ele>1.0986328</ele>
        <time>2017-01-08T08:37:37Z</time>
      </trkpt>
      <trkpt lat="48.47494" lon="-4.72898">
        <ele>-0.8240967</ele>
        <time>2017-01-08T08:37:45Z</time>
      </trkpt>
      <trkpt lat="48.47491" lon="-4.72904">
        <ele>-2.7467041</ele>
        <time>2017-01-08T08:37:49Z</time>
      </trkpt>
      <trkpt lat="48.47486" lon="-4.72918">
        <ele>-4.1885986</ele>
        <time>2017-01-08T08:37:56Z</time>
      </trkpt>
      <trkpt lat="48.47482" lon="-4.72928">
        <ele>-3.7078857</ele>
        <time>2017-01-08T08:37:59Z</time>
      </trkpt>
      <trkpt lat="48.47482" lon="-4.7294">
        <ele>0.1374512</ele>
        <time>2017-01-08T08:38:03Z</time>
      </trkpt>
      <trkpt lat="48.47484" lon="-4.72945">
        <ele>3.982666</ele>
        <time>2017-01-08T08:38:06Z</time>
      </trkpt>
      <trkpt lat="48.47494" lon="-4.72956">
        <ele>7.347168</ele>
        <time>2017-01-08T08:38:12Z</time>
      </trkpt>
      <trkpt lat="48.47496" lon="-4.72959">
        <ele>8.3085938</ele>
        <time>2017-01-08T08:38:14Z</time>
      </trkpt>
      <trkpt lat="48.47502" lon="-4.7296">
        <ele>8.7891846</ele>
        <time>2017-01-08T08:38:18Z</time>
      </trkpt>
      <trkpt lat="48.4751" lon="-4.72959">
        <ele>9.2698975</ele>
        <time>2017-01-08T08:38:22Z</time>
      </trkpt>
      <trkpt lat="48.47515" lon="-4.72964">
        <ele>9.7506104</ele>
        <time>2017-01-08T08:38:27Z</time>
      </trkpt>
      <trkpt lat="48.47515" lon="-4.7297">
        <ele>8.7891846</ele>
        <time>2017-01-08T08:38:30Z</time>
      </trkpt>
      <trkpt lat="48.47514" lon="-4.72978">
        <ele>6.8664551</ele>
        <time>2017-01-08T08:38:33Z</time>
      </trkpt>
      <trkpt lat="48.47514" lon="-4.7299">
        <ele>3.5019531</ele>
        <time>2017-01-08T08:38:38Z</time>
      </trkpt>
      <trkpt lat="48.47513" lon="-4.72999">
        <ele>1.5793457</ele>
        <time>2017-01-08T08:38:43Z</time>
      </trkpt>
      <trkpt lat="48.47512" lon="-4.73004">
        <ele>1.0986328</ele>
        <time>2017-01-08T08:38:45Z</time>
      </trkpt>
      <trkpt lat="48.47505" lon="-4.73017">
        <ele>-0.8240967</ele>
        <time>2017-01-08T08:38:53Z</time>
      </trkpt>
      <trkpt lat="48.47503" lon="-4.7302">
        <ele>-1.7852783</ele>
        <time>2017-01-08T08:38:56Z</time>
      </trkpt>
      <trkpt lat="48.47501" lon="-4.73025">
        <ele>-1.7852783</ele>
        <time>2017-01-08T08:39:00Z</time>
      </trkpt>
      <trkpt lat="48.47502" lon="-4.73036">
        <ele>-1.7852783</ele>
        <time>2017-01-08T08:39:05Z</time>
      </trkpt>
      <trkpt lat="48.47501" lon="-4.73051">
        <ele>-0.3433838</ele>
        <time>2017-01-08T08:39:11Z</time>
      </trkpt>
      <trkpt lat="48.475" lon="-4.73064">
        <ele>2.0600586</ele>
        <time>2017-01-08T08:39:16Z</time>
      </trkpt>
      <trkpt lat="48.47503" lon="-4.73073">
        <ele>2.5406494</ele>
        <time>2017-01-08T08:39:21Z</time>
      </trkpt>
      <trkpt lat="48.47504" lon="-4.7308">
        <ele>3.0212402</ele>
        <time>2017-01-08T08:39:24Z</time>
      </trkpt>
      <trkpt lat="48.47506" lon="-4.73093">
        <ele>3.982666</ele>
        <time>2017-01-08T08:39:30Z</time>
      </trkpt>
      <trkpt lat="48.47505" lon="-4.73097">
        <ele>3.982666</ele>
        <time>2017-01-08T08:39:32Z</time>
      </trkpt>
      <trkpt lat="48.47504" lon="-4.73101">
        <ele>2.0600586</ele>
        <time>2017-01-08T08:39:34Z</time>
      </trkpt>
      <trkpt lat="48.47502" lon="-4.73113">
        <ele>1.0986328</ele>
        <time>2017-01-08T08:39:39Z</time>
      </trkpt>
      <trkpt lat="48.47501" lon="-4.73124">
        <ele>0.618042</ele>
        <time>2017-01-08T08:39:43Z</time>
      </trkpt>
      <trkpt lat="48.475" lon="-4.73129">
        <ele>1.0986328</ele>
        <time>2017-01-08T08:39:45Z</time>
      </trkpt>
      <trkpt lat="48.47497" lon="-4.7314">
        <ele>2.0600586</ele>
        <time>2017-01-08T08:39:51Z</time>
      </trkpt>
      <trkpt lat="48.47494" lon="-4.73143">
        <ele>3.0212402</ele>
        <time>2017-01-08T08:39:53Z</time>
      </trkpt>
      <trkpt lat="48.47489" lon="-4.73147">
        <ele>3.0212402</ele>
        <time>2017-01-08T08:39:57Z</time>
      </trkpt>
      <trkpt lat="48.47484" lon="-4.73155">
        <ele>3.982666</ele>
        <time>2017-01-08T08:40:02Z</time>
      </trkpt>
      <trkpt lat="48.47478" lon="-4.73168">
        <ele>5.4245605</ele>
        <time>2017-01-08T08:40:09Z</time>
      </trkpt>
      <trkpt lat="48.47474" lon="-4.7318">
        <ele>6.3858643</ele>
        <time>2017-01-08T08:40:15Z</time>
      </trkpt>
      <trkpt lat="48.47469" lon="-4.73192">
        <ele>5.4245605</ele>
        <time>2017-01-08T08:40:22Z</time>
      </trkpt>
      <trkpt lat="48.47467" lon="-4.73202">
        <ele>5.4245605</ele>
        <time>2017-01-08T08:40:26Z</time>
      </trkpt>
      <trkpt lat="48.4747" lon="-4.73209">
        <ele>4.9438477</ele>
        <time>2017-01-08T08:40:29Z</time>
      </trkpt>
      <trkpt lat="48.47474" lon="-4.73219">
        <ele>5.9052734</ele>
        <time>2017-01-08T08:40:34Z</time>
      </trkpt>
      <trkpt lat="48.47475" lon="-4.7323">
        <ele>4.9438477</ele>
        <time>2017-01-08T08:40:39Z</time>
      </trkpt>
      <trkpt lat="48.47475" lon="-4.7324">
        <ele>5.4245605</ele>
        <time>2017-01-08T08:40:44Z</time>
      </trkpt>
      <trkpt lat="48.47473" lon="-4.73244">
        <ele>5.4245605</ele>
        <time>2017-01-08T08:40:48Z</time>
      </trkpt>
      <trkpt lat="48.47471" lon="-4.73254">
        <ele>3.982666</ele>
        <time>2017-01-08T08:40:56Z</time>
      </trkpt>
      <trkpt lat="48.47473" lon="-4.73259">
        <ele>2.5406494</ele>
        <time>2017-01-08T08:40:59Z</time>
      </trkpt>
      <trkpt lat="48.47473" lon="-4.7327">
        <ele>1.5793457</ele>
        <time>2017-01-08T08:41:04Z</time>
      </trkpt>
      <trkpt lat="48.47475" lon="-4.73279">
        <ele>-0.3433838</ele>
        <time>2017-01-08T08:41:09Z</time>
      </trkpt>
      <trkpt lat="48.47476" lon="-4.73285">
        <ele>-0.3433838</ele>
        <time>2017-01-08T08:41:12Z</time>
      </trkpt>
      <trkpt lat="48.47477" lon="-4.73289">
        <ele>-0.3433838</ele>
        <time>2017-01-08T08:41:14Z</time>
      </trkpt>
      <trkpt lat="48.47476" lon="-4.733">
        <ele>1.5793457</ele>
        <time>2017-01-08T08:41:18Z</time>
      </trkpt>
      <trkpt lat="48.47476" lon="-4.7331">
        <ele>2.5406494</ele>
        <time>2017-01-08T08:41:22Z</time>
      </trkpt>
      <trkpt lat="48.47476" lon="-4.73321">
        <ele>2.5406494</ele>
        <time>2017-01-08T08:41:28Z</time>
      </trkpt>
      <trkpt lat="48.47471" lon="-4.73334">
        <ele>2.0600586</ele>
        <time>2017-01-08T08:41:34Z</time>
      </trkpt>
      <trkpt lat="48.4747" lon="-4.73336">
        <ele>2.0600586</ele>
        <time>2017-01-08T08:41:35Z</time>
      </trkpt>
      <trkpt lat="48.47466" lon="-4.73344">
        <ele>2.5406494</ele>
        <time>2017-01-08T08:41:39Z</time>
      </trkpt>
      <trkpt lat="48.47461" lon="-4.73356">
        <ele>2.5406494</ele>
        <time>2017-01-08T08:41:45Z</time>
      </trkpt>
      <trkpt lat="48.47455" lon="-4.7337">
        <ele>4.4632568</ele>
        <time>2017-01-08T08:41:52Z</time>
      </trkpt>
      <trkpt lat="48.47454" lon="-4.73374">
        <ele>4.9438477</ele>
        <time>2017-01-08T08:41:54Z</time>
      </trkpt>
      <trkpt lat="48.47447" lon="-4.73381">
        <ele>5.4245605</ele>
        <time>2017-01-08T08:42:00Z</time>
      </trkpt>
      <trkpt lat="48.47443" lon="-4.73384">
        <ele>4.9438477</ele>
        <time>2017-01-08T08:42:03Z</time>
      </trkpt>
      <trkpt lat="48.47437" lon="-4.73392">
        <ele>4.4632568</ele>
        <time>2017-01-08T08:42:08Z</time>
      </trkpt>
      <trkpt lat="48.47431" lon="-4.73405">
        <ele>5.4245605</ele>
        <time>2017-01-08T08:42:15Z</time>
      </trkpt>
      <trkpt lat="48.47426" lon="-4.73412">
        <ele>5.4245605</ele>
        <time>2017-01-08T08:42:19Z</time>
      </trkpt>
      <trkpt lat="48.4742" lon="-4.7342">
        <ele>5.4245605</ele>
        <time>2017-01-08T08:42:25Z</time>
      </trkpt>
      <trkpt lat="48.47419" lon="-4.73422">
        <ele>5.4245605</ele>
        <time>2017-01-08T08:42:26Z</time>
      </trkpt>
      <trkpt lat="48.47417" lon="-4.73425">
        <ele>6.3858643</ele>
        <time>2017-01-08T08:42:30Z</time>
      </trkpt>
      <trkpt lat="48.47413" lon="-4.73431">
        <ele>7.8278809</ele>
        <time>2017-01-08T08:42:37Z</time>
      </trkpt>
      <trkpt lat="48.47413" lon="-4.73439">
        <ele>5.4245605</ele>
        <time>2017-01-08T08:42:43Z</time>
      </trkpt>
      <trkpt lat="48.47414" lon="-4.73447">
        <ele>5.9052734</ele>
        <time>2017-01-08T08:42:47Z</time>
      </trkpt>
      <trkpt lat="48.47412" lon="-4.7346">
        <ele>7.347168</ele>
        <time>2017-01-08T08:42:53Z</time>
      </trkpt>
      <trkpt lat="48.47406" lon="-4.73463">
        <ele>6.3858643</ele>
        <time>2017-01-08T08:42:58Z</time>
      </trkpt>
      <trkpt lat="48.47401" lon="-4.73463">
        <ele>5.9052734</ele>
        <time>2017-01-08T08:43:02Z</time>
      </trkpt>
      <trkpt lat="48.47392" lon="-4.73465">
        <ele>2.5406494</ele>
        <time>2017-01-08T08:43:09Z</time>
      </trkpt>
      <trkpt lat="48.47387" lon="-4.73481">
        <ele>2.0600586</ele>
        <time>2017-01-08T08:43:17Z</time>
      </trkpt>
      <trkpt lat="48.47383" lon="-4.73492">
        <ele>2.0600586</ele>
        <time>2017-01-08T08:43:22Z</time>
      </trkpt>
      <trkpt lat="48.47377" lon="-4.73497">
        <ele>3.982666</ele>
        <time>2017-01-08T08:43:27Z</time>
      </trkpt>
      <trkpt lat="48.47374" lon="-4.73497">
        <ele>4.4632568</ele>
        <time>2017-01-08T08:43:29Z</time>
      </trkpt>
      <trkpt lat="48.47369" lon="-4.73499">
        <ele>5.4245605</ele>
        <time>2017-01-08T08:43:33Z</time>
      </trkpt>
      <trkpt lat="48.47363" lon="-4.73509">
        <ele>4.9438477</ele>
        <time>2017-01-08T08:43:40Z</time>
      </trkpt>
      <trkpt lat="48.47362" lon="-4.73512">
        <ele>4.9438477</ele>
        <time>2017-01-08T08:43:41Z</time>
      </trkpt>
      <trkpt lat="48.47359" lon="-4.73525">
        <ele>5.4245605</ele>
        <time>2017-01-08T08:43:47Z</time>
      </trkpt>
      <trkpt lat="48.47354" lon="-4.73536">
        <ele>4.9438477</ele>
        <time>2017-01-08T08:43:54Z</time>
      </trkpt>
      <trkpt lat="48.47353" lon="-4.73545">
        <ele>3.982666</ele>
        <time>2017-01-08T08:44:00Z</time>
      </trkpt>
      <trkpt lat="48.4735" lon="-4.73559">
        <ele>2.5406494</ele>
        <time>2017-01-08T08:44:07Z</time>
      </trkpt>
      <trkpt lat="48.47351" lon="-4.73565">
        <ele>3.0212402</ele>
        <time>2017-01-08T08:44:10Z</time>
      </trkpt>
      <trkpt lat="48.47352" lon="-4.7357">
        <ele>3.982666</ele>
        <time>2017-01-08T08:44:12Z</time>
      </trkpt>
      <trkpt lat="48.47354" lon="-4.73576">
        <ele>3.982666</ele>
        <time>2017-01-08T08:44:15Z</time>
      </trkpt>
      <trkpt lat="48.47357" lon="-4.73588">
        <ele>4.9438477</ele>
        <time>2017-01-08T08:44:21Z</time>
      </trkpt>
      <trkpt lat="48.47356" lon="-4.736">
        <ele>5.9052734</ele>
        <time>2017-01-08T08:44:26Z</time>
      </trkpt>
      <trkpt lat="48.47355" lon="-4.73603">
        <ele>6.3858643</ele>
        <time>2017-01-08T08:44:28Z</time>
      </trkpt>
      <trkpt lat="48.47357" lon="-4.73616">
        <ele>4.9438477</ele>
        <time>2017-01-08T08:44:34Z</time>
      </trkpt>
      <trkpt lat="48.47354" lon="-4.73625">
        <ele>4.9438477</ele>
        <time>2017-01-08T08:44:39Z</time>
      </trkpt>
      <trkpt lat="48.47343" lon="-4.73637">
        <ele>5.4245605</ele>
        <time>2017-01-08T08:44:48Z</time>
      </trkpt>
      <trkpt lat="48.47337" lon="-4.73645">
        <ele>3.982666</ele>
        <time>2017-01-08T08:44:53Z</time>
      </trkpt>
      <trkpt lat="48.47331" lon="-4.73652">
        <ele>2.0600586</ele>
        <time>2017-01-08T08:44:58Z</time>
      </trkpt>
      <trkpt lat="48.4733" lon="-4.73654">
        <ele>2.0600586</ele>
        <time>2017-01-08T08:44:59Z</time>
      </trkpt>
      <trkpt lat="48.47327" lon="-4.73662">
        <ele>3.0212402</ele>
        <time>2017-01-08T08:45:03Z</time>
      </trkpt>
      <trkpt lat="48.47328" lon="-4.73673">
        <ele>3.0212402</ele>
        <time>2017-01-08T08:45:09Z</time>
      </trkpt>
      <trkpt lat="48.47333" lon="-4.73675">
        <ele>2.0600586</ele>
        <time>2017-01-08T08:45:13Z</time>
      </trkpt>
      <trkpt lat="48.47336" lon="-4.73672">
        <ele>2.5406494</ele>
        <time>2017-01-08T08:45:19Z</time>
      </trkpt>
      <trkpt lat="48.4734" lon="-4.73671">
        <ele>2.0600586</ele>
        <time>2017-01-08T08:45:23Z</time>
      </trkpt>
      <trkpt lat="48.47344" lon="-4.73673">
        <ele>1.5793457</ele>
        <time>2017-01-08T08:45:26Z</time>
      </trkpt>
      <trkpt lat="48.47353" lon="-4.73674">
        <ele>1.0986328</ele>
        <time>2017-01-08T08:45:32Z</time>
      </trkpt>
      <trkpt lat="48.47364" lon="-4.73672">
        <ele>1.0986328</ele>
        <time>2017-01-08T08:45:39Z</time>
      </trkpt>
      <trkpt lat="48.47369" lon="-4.7367">
        <ele>2.0600586</ele>
        <time>2017-01-08T08:45:43Z</time>
      </trkpt>
      <trkpt lat="48.47376" lon="-4.73666">
        <ele>3.5019531</ele>
        <time>2017-01-08T08:45:48Z</time>
      </trkpt>
      <trkpt lat="48.47382" lon="-4.73661">
        <ele>3.0212402</ele>
        <time>2017-01-08T08:45:52Z</time>
      </trkpt>
      <trkpt lat="48.47385" lon="-4.73661">
        <ele>3.0212402</ele>
        <time>2017-01-08T08:45:54Z</time>
      </trkpt>
      <trkpt lat="48.47393" lon="-4.73661">
        <ele>4.9438477</ele>
        <time>2017-01-08T08:46:01Z</time>
      </trkpt>
      <trkpt lat="48.47396" lon="-4.73661">
        <ele>5.9052734</ele>
        <time>2017-01-08T08:46:03Z</time>
      </trkpt>
      <trkpt lat="48.47405" lon="-4.73662">
        <ele>4.9438477</ele>
        <time>2017-01-08T08:46:09Z</time>
      </trkpt>
      <trkpt lat="48.47413" lon="-4.73663">
        <ele>4.9438477</ele>
        <time>2017-01-08T08:46:14Z</time>
      </trkpt>
      <trkpt lat="48.47422" lon="-4.73662">
        <ele>6.3858643</ele>
        <time>2017-01-08T08:46:20Z</time>
      </trkpt>
      <trkpt lat="48.47424" lon="-4.73667">
        <ele>7.347168</ele>
        <time>2017-01-08T08:46:24Z</time>
      </trkpt>
      <trkpt lat="48.47426" lon="-4.73675">
        <ele>8.3085938</ele>
        <time>2017-01-08T08:46:27Z</time>
      </trkpt>
      <trkpt lat="48.47429" lon="-4.73684">
        <ele>6.8664551</ele>
        <time>2017-01-08T08:46:31Z</time>
      </trkpt>
      <trkpt lat="48.47432" lon="-4.73692">
        <ele>2.5406494</ele>
        <time>2017-01-08T08:46:37Z</time>
      </trkpt>
      <trkpt lat="48.47428" lon="-4.737">
        <ele>3.5019531</ele>
        <time>2017-01-08T08:46:42Z</time>
      </trkpt>
      <trkpt lat="48.47422" lon="-4.73703">
        <ele>4.9438477</ele>
        <time>2017-01-08T08:46:47Z</time>
      </trkpt>
      <trkpt lat="48.47414" lon="-4.73707">
        <ele>4.9438477</ele>
        <time>2017-01-08T08:46:53Z</time>
      </trkpt>
      <trkpt lat="48.47408" lon="-4.73714">
        <ele>7.8278809</ele>
        <time>2017-01-08T08:46:59Z</time>
      </trkpt>
      <trkpt lat="48.47401" lon="-4.73719">
        <ele>9.7506104</ele>
        <time>2017-01-08T08:47:03Z</time>
      </trkpt>
      <trkpt lat="48.47395" lon="-4.73723">
        <ele>11.6732178</ele>
        <time>2017-01-08T08:47:07Z</time>
      </trkpt>
      <trkpt lat="48.47387" lon="-4.73729">
        <ele>12.1538086</ele>
        <time>2017-01-08T08:47:13Z</time>
      </trkpt>
      <trkpt lat="48.4738" lon="-4.73733">
        <ele>12.1538086</ele>
        <time>2017-01-08T08:47:19Z</time>
      </trkpt>
      <trkpt lat="48.47373" lon="-4.73734">
        <ele>12.6343994</ele>
        <time>2017-01-08T08:47:24Z</time>
      </trkpt>
      <trkpt lat="48.47368" lon="-4.73736">
        <ele>12.6343994</ele>
        <time>2017-01-08T08:47:28Z</time>
      </trkpt>
      <trkpt lat="48.47362" lon="-4.73743">
        <ele>13.1151123</ele>
        <time>2017-01-08T08:47:33Z</time>
      </trkpt>
      <trkpt lat="48.4736" lon="-4.73744">
        <ele>12.6343994</ele>
        <time>2017-01-08T08:47:34Z</time>
      </trkpt>
      <trkpt lat="48.47353" lon="-4.73749">
        <ele>8.7891846</ele>
        <time>2017-01-08T08:47:38Z</time>
      </trkpt>
      <trkpt lat="48.4735" lon="-4.73749">
        <ele>7.8278809</ele>
        <time>2017-01-08T08:47:41Z</time>
      </trkpt>
      <trkpt lat="48.4734" lon="-4.73752">
        <ele>5.4245605</ele>
        <time>2017-01-08T08:47:47Z</time>
      </trkpt>
      <trkpt lat="48.47334" lon="-4.73754">
        <ele>4.4632568</ele>
        <time>2017-01-08T08:47:50Z</time>
      </trkpt>
      <trkpt lat="48.47328" lon="-4.73754">
        <ele>3.0212402</ele>
        <time>2017-01-08T08:47:54Z</time>
      </trkpt>
      <trkpt lat="48.47323" lon="-4.73757">
        <ele>2.0600586</ele>
        <time>2017-01-08T08:47:59Z</time>
      </trkpt>
      <trkpt lat="48.4732" lon="-4.73761">
        <ele>2.0600586</ele>
        <time>2017-01-08T08:48:02Z</time>
      </trkpt>
      <trkpt lat="48.47317" lon="-4.73774">
        <ele>3.0212402</ele>
        <time>2017-01-08T08:48:07Z</time>
      </trkpt>
      <trkpt lat="48.47319" lon="-4.73778">
        <ele>4.4632568</ele>
        <time>2017-01-08T08:48:09Z</time>
      </trkpt>
      <trkpt lat="48.47326" lon="-4.73792">
        <ele>5.9052734</ele>
        <time>2017-01-08T08:48:17Z</time>
      </trkpt>
      <trkpt lat="48.47327" lon="-4.73796">
        <ele>6.3858643</ele>
        <time>2017-01-08T08:48:19Z</time>
      </trkpt>
      <trkpt lat="48.47325" lon="-4.73811">
        <ele>7.347168</ele>
        <time>2017-01-08T08:48:26Z</time>
      </trkpt>
      <trkpt lat="48.47324" lon="-4.73813">
        <ele>6.8664551</ele>
        <time>2017-01-08T08:48:27Z</time>
      </trkpt>
      <trkpt lat="48.47324" lon="-4.73822">
        <ele>7.347168</ele>
        <time>2017-01-08T08:48:31Z</time>
      </trkpt>
      <trkpt lat="48.47322" lon="-4.73829">
        <ele>7.8278809</ele>
        <time>2017-01-08T08:48:34Z</time>
      </trkpt>
      <trkpt lat="48.4732" lon="-4.73838">
        <ele>7.8278809</ele>
        <time>2017-01-08T08:48:38Z</time>
      </trkpt>
      <trkpt lat="48.4732" lon="-4.73846">
        <ele>7.8278809</ele>
        <time>2017-01-08T08:48:41Z</time>
      </trkpt>
      <trkpt lat="48.47325" lon="-4.73862">
        <ele>7.8278809</ele>
        <time>2017-01-08T08:48:48Z</time>
      </trkpt>
      <trkpt lat="48.47327" lon="-4.7387">
        <ele>6.8664551</ele>
        <time>2017-01-08T08:48:52Z</time>
      </trkpt>
      <trkpt lat="48.47329" lon="-4.73875">
        <ele>6.3858643</ele>
        <time>2017-01-08T08:48:55Z</time>
      </trkpt>
      <trkpt lat="48.47332" lon="-4.73888">
        <ele>4.4632568</ele>
        <time>2017-01-08T08:49:01Z</time>
      </trkpt>
      <trkpt lat="48.47334" lon="-4.73896">
        <ele>1.5793457</ele>
        <time>2017-01-08T08:49:05Z</time>
      </trkpt>
      <trkpt lat="48.47335" lon="-4.73898">
        <ele>1.0986328</ele>
        <time>2017-01-08T08:49:06Z</time>
      </trkpt>
      <trkpt lat="48.47338" lon="-4.73912">
        <ele>-1.3046875</ele>
        <time>2017-01-08T08:49:12Z</time>
      </trkpt>
      <trkpt lat="48.47339" lon="-4.73918">
        <ele>-2.2659912</ele>
        <time>2017-01-08T08:49:15Z</time>
      </trkpt>
      <trkpt lat="48.47339" lon="-4.73925">
        <ele>-1.7852783</ele>
        <time>2017-01-08T08:49:18Z</time>
      </trkpt>
      <trkpt lat="48.47337" lon="-4.73938">
        <ele>-2.2659912</ele>
        <time>2017-01-08T08:49:24Z</time>
      </trkpt>
      <trkpt lat="48.47337" lon="-4.73949">
        <ele>-2.7467041</ele>
        <time>2017-01-08T08:49:29Z</time>
      </trkpt>
      <trkpt lat="48.47341" lon="-4.73959">
        <ele>-3.7078857</ele>
        <time>2017-01-08T08:49:33Z</time>
      </trkpt>
      <trkpt lat="48.47344" lon="-4.73965">
        <ele>-4.1885986</ele>
        <time>2017-01-08T08:49:36Z</time>
      </trkpt>
      <trkpt lat="48.47348" lon="-4.7397">
        <ele>-4.6693115</ele>
        <time>2017-01-08T08:49:38Z</time>
      </trkpt>
      <trkpt lat="48.47347" lon="-4.7398">
        <ele>-4.1885986</ele>
        <time>2017-01-08T08:49:42Z</time>
      </trkpt>
      <trkpt lat="48.47348" lon="-4.73985">
        <ele>-4.1885986</ele>
        <time>2017-01-08T08:49:44Z</time>
      </trkpt>
      <trkpt lat="48.47349" lon="-4.73997">
        <ele>-4.6693115</ele>
        <time>2017-01-08T08:49:49Z</time>
      </trkpt>
      <trkpt lat="48.47349" lon="-4.73999">
        <ele>-4.6693115</ele>
        <time>2017-01-08T08:49:50Z</time>
      </trkpt>
      <trkpt lat="48.47351" lon="-4.74011">
        <ele>-2.7467041</ele>
        <time>2017-01-08T08:49:56Z</time>
      </trkpt>
      <trkpt lat="48.47353" lon="-4.74022">
        <ele>-2.2659912</ele>
        <time>2017-01-08T08:50:01Z</time>
      </trkpt>
      <trkpt lat="48.47354" lon="-4.74027">
        <ele>-3.2272949</ele>
        <time>2017-01-08T08:50:03Z</time>
      </trkpt>
      <trkpt lat="48.47358" lon="-4.74039">
        <ele>-4.1885986</ele>
        <time>2017-01-08T08:50:09Z</time>
      </trkpt>
      <trkpt lat="48.47361" lon="-4.74046">
        <ele>-5.6304932</ele>
        <time>2017-01-08T08:50:13Z</time>
      </trkpt>
      <trkpt lat="48.47366" lon="-4.74053">
        <ele>-4.1885986</ele>
        <time>2017-01-08T08:50:18Z</time>
      </trkpt>
      <trkpt lat="48.47368" lon="-4.74056">
        <ele>-2.7467041</ele>
        <time>2017-01-08T08:50:20Z</time>
      </trkpt>
      <trkpt lat="48.47367" lon="-4.74066">
        <ele>-2.2659912</ele>
        <time>2017-01-08T08:50:25Z</time>
      </trkpt>
      <trkpt lat="48.47366" lon="-4.74078">
        <ele>-2.7467041</ele>
        <time>2017-01-08T08:50:30Z</time>
      </trkpt>
      <trkpt lat="48.47364" lon="-4.74083">
        <ele>-3.2272949</ele>
        <time>2017-01-08T08:50:34Z</time>
      </trkpt>
      <trkpt lat="48.47355" lon="-4.74084">
        <ele>-3.2272949</ele>
        <time>2017-01-08T08:50:40Z</time>
      </trkpt>
      <trkpt lat="48.47354" lon="-4.74084">
        <ele>-2.7467041</ele>
        <time>2017-01-08T08:50:41Z</time>
      </trkpt>
      <trkpt lat="48.47347" lon="-4.74079">
        <ele>-3.2272949</ele>
        <time>2017-01-08T08:50:47Z</time>
      </trkpt>
      <trkpt lat="48.4734" lon="-4.74071">
        <ele>-6.5919189</ele>
        <time>2017-01-08T08:50:53Z</time>
      </trkpt>
      <trkpt lat="48.47334" lon="-4.74066">
        <ele>-6.5919189</ele>
        <time>2017-01-08T08:50:59Z</time>
      </trkpt>
      <trkpt lat="48.47328" lon="-4.74061">
        <ele>-6.1112061</ele>
        <time>2017-01-08T08:51:04Z</time>
      </trkpt>
      <trkpt lat="48.47324" lon="-4.74056">
        <ele>-6.5919189</ele>
        <time>2017-01-08T08:51:08Z</time>
      </trkpt>
      <trkpt lat="48.47319" lon="-4.74052">
        <ele>-8.0339355</ele>
        <time>2017-01-08T08:51:12Z</time>
      </trkpt>
      <trkpt lat="48.47314" lon="-4.74047">
        <ele>-6.5919189</ele>
        <time>2017-01-08T08:51:17Z</time>
      </trkpt>
      <trkpt lat="48.47308" lon="-4.74044">
        <ele>-8.5146484</ele>
        <time>2017-01-08T08:51:22Z</time>
      </trkpt>
      <trkpt lat="48.47304" lon="-4.7405">
        <ele>-7.0725098</ele>
        <time>2017-01-08T08:51:26Z</time>
      </trkpt>
      <trkpt lat="48.47302" lon="-4.74059">
        <ele>-6.5919189</ele>
        <time>2017-01-08T08:51:31Z</time>
      </trkpt>
      <trkpt lat="48.47302" lon="-4.74063">
        <ele>-6.5919189</ele>
        <time>2017-01-08T08:51:33Z</time>
      </trkpt>
      <trkpt lat="48.47297" lon="-4.74067">
        <ele>-6.1112061</ele>
        <time>2017-01-08T08:51:37Z</time>
      </trkpt>
      <trkpt lat="48.47291" lon="-4.74066">
        <ele>-6.5919189</ele>
        <time>2017-01-08T08:51:40Z</time>
      </trkpt>
      <trkpt lat="48.47285" lon="-4.74077">
        <ele>-7.0725098</ele>
        <time>2017-01-08T08:51:45Z</time>
      </trkpt>
      <trkpt lat="48.4728" lon="-4.74088">
        <ele>-6.5919189</ele>
        <time>2017-01-08T08:51:50Z</time>
      </trkpt>
      <trkpt lat="48.47273" lon="-4.74101">
        <ele>-5.6304932</ele>
        <time>2017-01-08T08:51:56Z</time>
      </trkpt>
      <trkpt lat="48.47275" lon="-4.74111">
        <ele>-3.2272949</ele>
        <time>2017-01-08T08:51:59Z</time>
      </trkpt>
      <trkpt lat="48.47278" lon="-4.74127">
        <ele>-2.2659912</ele>
        <time>2017-01-08T08:52:06Z</time>
      </trkpt>
      <trkpt lat="48.47274" lon="-4.74139">
        <ele>-1.3046875</ele>
        <time>2017-01-08T08:52:11Z</time>
      </trkpt>
      <trkpt lat="48.47274" lon="-4.74144">
        <ele>-1.3046875</ele>
        <time>2017-01-08T08:52:13Z</time>
      </trkpt>
      <trkpt lat="48.47276" lon="-4.74154">
        <ele>0.618042</ele>
        <time>2017-01-08T08:52:18Z</time>
      </trkpt>
      <trkpt lat="48.47278" lon="-4.74167">
        <ele>2.5406494</ele>
        <time>2017-01-08T08:52:23Z</time>
      </trkpt>
      <trkpt lat="48.47282" lon="-4.74178">
        <ele>3.0212402</ele>
        <time>2017-01-08T08:52:28Z</time>
      </trkpt>
      <trkpt lat="48.47287" lon="-4.74186">
        <ele>3.982666</ele>
        <time>2017-01-08T08:52:32Z</time>
      </trkpt>
      <trkpt lat="48.47288" lon="-4.74188">
        <ele>4.4632568</ele>
        <time>2017-01-08T08:52:33Z</time>
      </trkpt>
      <trkpt lat="48.47291" lon="-4.74194">
        <ele>4.9438477</ele>
        <time>2017-01-08T08:52:36Z</time>
      </trkpt>
      <trkpt lat="48.47294" lon="-4.742">
        <ele>6.3858643</ele>
        <time>2017-01-08T08:52:40Z</time>
      </trkpt>
      <trkpt lat="48.473" lon="-4.74213">
        <ele>6.8664551</ele>
        <time>2017-01-08T08:52:45Z</time>
      </trkpt>
      <trkpt lat="48.47299" lon="-4.74229">
        <ele>4.9438477</ele>
        <time>2017-01-08T08:52:52Z</time>
      </trkpt>
      <trkpt lat="48.47301" lon="-4.7424">
        <ele>3.5019531</ele>
        <time>2017-01-08T08:52:56Z</time>
      </trkpt>
      <trkpt lat="48.47302" lon="-4.74247">
        <ele>2.5406494</ele>
        <time>2017-01-08T08:52:59Z</time>
      </trkpt>
      <trkpt lat="48.47303" lon="-4.74252">
        <ele>2.5406494</ele>
        <time>2017-01-08T08:53:01Z</time>
      </trkpt>
      <trkpt lat="48.47306" lon="-4.74267">
        <ele>2.5406494</ele>
        <time>2017-01-08T08:53:07Z</time>
      </trkpt>
      <trkpt lat="48.47306" lon="-4.74269">
        <ele>2.5406494</ele>
        <time>2017-01-08T08:53:08Z</time>
      </trkpt>
      <trkpt lat="48.47307" lon="-4.74277">
        <ele>2.0600586</ele>
        <time>2017-01-08T08:53:12Z</time>
      </trkpt>
      <trkpt lat="48.47311" lon="-4.74283">
        <ele>2.0600586</ele>
        <time>2017-01-08T08:53:15Z</time>
      </trkpt>
      <trkpt lat="48.47314" lon="-4.74296">
        <ele>1.5793457</ele>
        <time>2017-01-08T08:53:21Z</time>
      </trkpt>
      <trkpt lat="48.47313" lon="-4.74307">
        <ele>0.618042</ele>
        <time>2017-01-08T08:53:26Z</time>
      </trkpt>
      <trkpt lat="48.47317" lon="-4.74319">
        <ele>-2.2659912</ele>
        <time>2017-01-08T08:53:33Z</time>
      </trkpt>
      <trkpt lat="48.47317" lon="-4.74321">
        <ele>-2.7467041</ele>
        <time>2017-01-08T08:53:35Z</time>
      </trkpt>
      <trkpt lat="48.47323" lon="-4.74325">
        <ele>-2.2659912</ele>
        <time>2017-01-08T08:53:42Z</time>
      </trkpt>
      <trkpt lat="48.47324" lon="-4.74325">
        <ele>-2.7467041</ele>
        <time>2017-01-08T08:53:43Z</time>
      </trkpt>
      <trkpt lat="48.47329" lon="-4.74326">
        <ele>-3.2272949</ele>
        <time>2017-01-08T08:53:47Z</time>
      </trkpt>
      <trkpt lat="48.47334" lon="-4.74329">
        <ele>-3.7078857</ele>
        <time>2017-01-08T08:53:52Z</time>
      </trkpt>
      <trkpt lat="48.47339" lon="-4.74334">
        <ele>-4.6693115</ele>
        <time>2017-01-08T08:53:57Z</time>
      </trkpt>
      <trkpt lat="48.47341" lon="-4.74336">
        <ele>-4.6693115</ele>
        <time>2017-01-08T08:53:59Z</time>
      </trkpt>
      <trkpt lat="48.4735" lon="-4.74345">
        <ele>-4.6693115</ele>
        <time>2017-01-08T08:54:07Z</time>
      </trkpt>
      <trkpt lat="48.47357" lon="-4.74351">
        <ele>-3.7078857</ele>
        <time>2017-01-08T08:54:12Z</time>
      </trkpt>
      <trkpt lat="48.47359" lon="-4.74353">
        <ele>-3.7078857</ele>
        <time>2017-01-08T08:54:14Z</time>
      </trkpt>
      <trkpt lat="48.47365" lon="-4.74354">
        <ele>-2.7467041</ele>
        <time>2017-01-08T08:54:18Z</time>
      </trkpt>
      <trkpt lat="48.47368" lon="-4.74354">
        <ele>-2.2659912</ele>
        <time>2017-01-08T08:54:20Z</time>
      </trkpt>
      <trkpt lat="48.47373" lon="-4.74352">
        <ele>-0.3433838</ele>
        <time>2017-01-08T08:54:24Z</time>
      </trkpt>
      <trkpt lat="48.47383" lon="-4.7435">
        <ele>5.4245605</ele>
        <time>2017-01-08T08:54:31Z</time>
      </trkpt>
      <trkpt lat="48.47392" lon="-4.74357">
        <ele>6.3858643</ele>
        <time>2017-01-08T08:54:37Z</time>
      </trkpt>
      <trkpt lat="48.47394" lon="-4.74358">
        <ele>7.347168</ele>
        <time>2017-01-08T08:54:38Z</time>
      </trkpt>
      <trkpt lat="48.47401" lon="-4.74361">
        <ele>8.3085938</ele>
        <time>2017-01-08T08:54:43Z</time>
      </trkpt>
      <trkpt lat="48.47402" lon="-4.74371">
        <ele>12.6343994</ele>
        <time>2017-01-08T08:54:48Z</time>
      </trkpt>
      <trkpt lat="48.474" lon="-4.74379">
        <ele>15.5184326</ele>
        <time>2017-01-08T08:54:52Z</time>
      </trkpt>
      <trkpt lat="48.474" lon="-4.74383">
        <ele>15.9990234</ele>
        <time>2017-01-08T08:54:54Z</time>
      </trkpt>
      <trkpt lat="48.47397" lon="-4.74397">
        <ele>17.4411621</ele>
        <time>2017-01-08T08:55:00Z</time>
      </trkpt>
      <trkpt lat="48.47396" lon="-4.74399">
        <ele>17.9217529</ele>
        <time>2017-01-08T08:55:01Z</time>
      </trkpt>
      <trkpt lat="48.47394" lon="-4.74412">
        <ele>17.4411621</ele>
        <time>2017-01-08T08:55:07Z</time>
      </trkpt>
      <trkpt lat="48.4739" lon="-4.74424">
        <ele>16.9604492</ele>
        <time>2017-01-08T08:55:13Z</time>
      </trkpt>
      <trkpt lat="48.47387" lon="-4.74437">
        <ele>16.4797363</ele>
        <time>2017-01-08T08:55:19Z</time>
      </trkpt>
      <trkpt lat="48.47387" lon="-4.74453">
        <ele>13.1151123</ele>
        <time>2017-01-08T08:55:26Z</time>
      </trkpt>
      <trkpt lat="48.47385" lon="-4.7447">
        <ele>10.2312012</ele>
        <time>2017-01-08T08:55:34Z</time>
      </trkpt>
      <trkpt lat="48.47386" lon="-4.74478">
        <ele>9.2698975</ele>
        <time>2017-01-08T08:55:37Z</time>
      </trkpt>
      <trkpt lat="48.47385" lon="-4.74486">
        <ele>8.7891846</ele>
        <time>2017-01-08T08:55:41Z</time>
      </trkpt>
      <trkpt lat="48.47383" lon="-4.745">
        <ele>10.2312012</ele>
        <time>2017-01-08T08:55:47Z</time>
      </trkpt>
      <trkpt lat="48.47384" lon="-4.74512">
        <ele>10.2312012</ele>
        <time>2017-01-08T08:55:52Z</time>
      </trkpt>
      <trkpt lat="48.47381" lon="-4.74526">
        <ele>12.1538086</ele>
        <time>2017-01-08T08:55:58Z</time>
      </trkpt>
      <trkpt lat="48.47377" lon="-4.74538">
        <ele>11.1925049</ele>
        <time>2017-01-08T08:56:04Z</time>
      </trkpt>
      <trkpt lat="48.47377" lon="-4.74539">
        <ele>11.1925049</ele>
        <time>2017-01-08T08:56:05Z</time>
      </trkpt>
      <trkpt lat="48.47374" lon="-4.74552">
        <ele>13.1151123</ele>
        <time>2017-01-08T08:56:13Z</time>
      </trkpt>
      <trkpt lat="48.47372" lon="-4.74561">
        <ele>14.5570068</ele>
        <time>2017-01-08T08:56:19Z</time>
      </trkpt>
      <trkpt lat="48.47372" lon="-4.74562">
        <ele>14.5570068</ele>
        <time>2017-01-08T08:56:20Z</time>
      </trkpt>
      <trkpt lat="48.47373" lon="-4.74566">
        <ele>15.0377197</ele>
        <time>2017-01-08T08:59:41Z</time>
      </trkpt>
      <trkpt lat="48.47375" lon="-4.74572">
        <ele>15.5184326</ele>
        <time>2017-01-08T08:59:47Z</time>
      </trkpt>
      <trkpt lat="48.47376" lon="-4.74574">
        <ele>16.4797363</ele>
        <time>2017-01-08T08:59:50Z</time>
      </trkpt>
      <trkpt lat="48.47387" lon="-4.74581">
        <ele>15.5184326</ele>
        <time>2017-01-08T08:59:59Z</time>
      </trkpt>
      <trkpt lat="48.47393" lon="-4.74589">
        <ele>15.9990234</ele>
        <time>2017-01-08T09:00:04Z</time>
      </trkpt>
      <trkpt lat="48.47396" lon="-4.74598">
        <ele>15.5184326</ele>
        <time>2017-01-08T09:00:09Z</time>
      </trkpt>
      <trkpt lat="48.474" lon="-4.74605">
        <ele>14.5570068</ele>
        <time>2017-01-08T09:00:13Z</time>
      </trkpt>
      <trkpt lat="48.474" lon="-4.7461">
        <ele>13.1151123</ele>
        <time>2017-01-08T09:00:16Z</time>
      </trkpt>
      <trkpt lat="48.47404" lon="-4.74621">
        <ele>12.6343994</ele>
        <time>2017-01-08T09:00:23Z</time>
      </trkpt>
      <trkpt lat="48.47407" lon="-4.74635">
        <ele>11.6732178</ele>
        <time>2017-01-08T09:00:31Z</time>
      </trkpt>
      <trkpt lat="48.47412" lon="-4.74648">
        <ele>13.5958252</ele>
        <time>2017-01-08T09:00:38Z</time>
      </trkpt>
      <trkpt lat="48.47417" lon="-4.74671">
        <ele>14.076416</ele>
        <time>2017-01-08T09:00:48Z</time>
      </trkpt>
      <trkpt lat="48.47422" lon="-4.74691">
        <ele>14.5570068</ele>
        <time>2017-01-08T09:00:57Z</time>
      </trkpt>
      <trkpt lat="48.47426" lon="-4.74709">
        <ele>15.0377197</ele>
        <time>2017-01-08T09:01:06Z</time>
      </trkpt>
      <trkpt lat="48.47428" lon="-4.74712">
        <ele>15.5184326</ele>
        <time>2017-01-08T09:01:08Z</time>
      </trkpt>
      <trkpt lat="48.4743" lon="-4.74718">
        <ele>15.0377197</ele>
        <time>2017-01-08T09:01:11Z</time>
      </trkpt>
      <trkpt lat="48.47431" lon="-4.7473">
        <ele>13.5958252</ele>
        <time>2017-01-08T09:01:17Z</time>
      </trkpt>
      <trkpt lat="48.47437" lon="-4.74748">
        <ele>14.5570068</ele>
        <time>2017-01-08T09:01:26Z</time>
      </trkpt>
      <trkpt lat="48.47446" lon="-4.74753">
        <ele>16.9604492</ele>
        <time>2017-01-08T09:01:32Z</time>
      </trkpt>
      <trkpt lat="48.47454" lon="-4.7476">
        <ele>17.9217529</ele>
        <time>2017-01-08T09:01:39Z</time>
      </trkpt>
      <trkpt lat="48.47461" lon="-4.74772">
        <ele>17.4411621</ele>
        <time>2017-01-08T09:01:46Z</time>
      </trkpt>
      <trkpt lat="48.47467" lon="-4.74785">
        <ele>15.5184326</ele>
        <time>2017-01-08T09:01:53Z</time>
      </trkpt>
      <trkpt lat="48.47471" lon="-4.74793">
        <ele>16.9604492</ele>
        <time>2017-01-08T09:01:57Z</time>
      </trkpt>
      <trkpt lat="48.47479" lon="-4.74803">
        <ele>19.3637695</ele>
        <time>2017-01-08T09:02:04Z</time>
      </trkpt>
      <trkpt lat="48.47485" lon="-4.74811">
        <ele>19.8443604</ele>
        <time>2017-01-08T09:02:09Z</time>
      </trkpt>
      <trkpt lat="48.47495" lon="-4.74824">
        <ele>17.4411621</ele>
        <time>2017-01-08T09:02:17Z</time>
      </trkpt>
      <trkpt lat="48.47504" lon="-4.74835">
        <ele>17.4411621</ele>
        <time>2017-01-08T09:02:24Z</time>
      </trkpt>
      <trkpt lat="48.47514" lon="-4.74848">
        <ele>19.8443604</ele>
        <time>2017-01-08T09:02:32Z</time>
      </trkpt>
      <trkpt lat="48.47524" lon="-4.74865">
        <ele>19.8443604</ele>
        <time>2017-01-08T09:02:41Z</time>
      </trkpt>
      <trkpt lat="48.4753" lon="-4.74877">
        <ele>17.9217529</ele>
        <time>2017-01-08T09:02:48Z</time>
      </trkpt>
      <trkpt lat="48.47539" lon="-4.74891">
        <ele>18.4023438</ele>
        <time>2017-01-08T09:02:56Z</time>
      </trkpt>
      <trkpt lat="48.47549" lon="-4.74903">
        <ele>17.9217529</ele>
        <time>2017-01-08T09:03:04Z</time>
      </trkpt>
      <trkpt lat="48.4756" lon="-4.74918">
        <ele>15.5184326</ele>
        <time>2017-01-08T09:03:14Z</time>
      </trkpt>
      <trkpt lat="48.47564" lon="-4.74925">
        <ele>14.5570068</ele>
        <time>2017-01-08T09:03:18Z</time>
      </trkpt>
      <trkpt lat="48.4757" lon="-4.74935">
        <ele>15.0377197</ele>
        <time>2017-01-08T09:03:24Z</time>
      </trkpt>
      <trkpt lat="48.4758" lon="-4.74947">
        <ele>12.6343994</ele>
        <time>2017-01-08T09:03:31Z</time>
      </trkpt>
      <trkpt lat="48.47582" lon="-4.7495">
        <ele>11.1925049</ele>
        <time>2017-01-08T09:03:33Z</time>
      </trkpt>
      <trkpt lat="48.47594" lon="-4.74966">
        <ele>8.3085938</ele>
        <time>2017-01-08T09:03:43Z</time>
      </trkpt>
      <trkpt lat="48.47605" lon="-4.74979">
        <ele>6.8664551</ele>
        <time>2017-01-08T09:03:52Z</time>
      </trkpt>
      <trkpt lat="48.47615" lon="-4.74992">
        <ele>6.3858643</ele>
        <time>2017-01-08T09:04:01Z</time>
      </trkpt>
      <trkpt lat="48.47624" lon="-4.75005">
        <ele>5.4245605</ele>
        <time>2017-01-08T09:04:09Z</time>
      </trkpt>
      <trkpt lat="48.47631" lon="-4.75015">
        <ele>3.982666</ele>
        <time>2017-01-08T09:04:16Z</time>
      </trkpt>
      <trkpt lat="48.47636" lon="-4.75021">
        <ele>2.5406494</ele>
        <time>2017-01-08T09:04:22Z</time>
      </trkpt>
      <trkpt lat="48.4764" lon="-4.7503">
        <ele>2.0600586</ele>
        <time>2017-01-08T09:04:28Z</time>
      </trkpt>
      <trkpt lat="48.47638" lon="-4.75042">
        <ele>1.5793457</ele>
        <time>2017-01-08T09:04:33Z</time>
      </trkpt>
      <trkpt lat="48.47634" lon="-4.75057">
        <ele>3.982666</ele>
        <time>2017-01-08T09:04:40Z</time>
      </trkpt>
      <trkpt lat="48.47633" lon="-4.75067">
        <ele>2.5406494</ele>
        <time>2017-01-08T09:04:44Z</time>
      </trkpt>
      <trkpt lat="48.47632" lon="-4.75082">
        <ele>-0.3433838</ele>
        <time>2017-01-08T09:04:50Z</time>
      </trkpt>
      <trkpt lat="48.47626" lon="-4.75097">
        <ele>-2.2659912</ele>
        <time>2017-01-08T09:04:57Z</time>
      </trkpt>
      <trkpt lat="48.47624" lon="-4.75103">
        <ele>-3.2272949</ele>
        <time>2017-01-08T09:05:00Z</time>
      </trkpt>
      <trkpt lat="48.47619" lon="-4.75119">
        <ele>-4.6693115</ele>
        <time>2017-01-08T09:05:07Z</time>
      </trkpt>
      <trkpt lat="48.47613" lon="-4.75132">
        <ele>-3.7078857</ele>
        <time>2017-01-08T09:05:14Z</time>
      </trkpt>
      <trkpt lat="48.47612" lon="-4.75134">
        <ele>-2.7467041</ele>
        <time>2017-01-08T09:05:15Z</time>
      </trkpt>
      <trkpt lat="48.47611" lon="-4.75141">
        <ele>-1.7852783</ele>
        <time>2017-01-08T09:05:18Z</time>
      </trkpt>
      <trkpt lat="48.47612" lon="-4.75156">
        <ele>1.5793457</ele>
        <time>2017-01-08T09:05:24Z</time>
      </trkpt>
      <trkpt lat="48.47612" lon="-4.75166">
        <ele>2.5406494</ele>
        <time>2017-01-08T09:05:28Z</time>
      </trkpt>
      <trkpt lat="48.47613" lon="-4.75179">
        <ele>3.982666</ele>
        <time>2017-01-08T09:05:34Z</time>
      </trkpt>
      <trkpt lat="48.47615" lon="-4.7519">
        <ele>3.5019531</ele>
        <time>2017-01-08T09:05:40Z</time>
      </trkpt>
      <trkpt lat="48.47619" lon="-4.752">
        <ele>3.982666</ele>
        <time>2017-01-08T09:05:45Z</time>
      </trkpt>
      <trkpt lat="48.47619" lon="-4.75204">
        <ele>4.4632568</ele>
        <time>2017-01-08T09:05:47Z</time>
      </trkpt>
      <trkpt lat="48.47622" lon="-4.75215">
        <ele>4.9438477</ele>
        <time>2017-01-08T09:05:53Z</time>
      </trkpt>
      <trkpt lat="48.47623" lon="-4.75219">
        <ele>6.8664551</ele>
        <time>2017-01-08T09:05:55Z</time>
      </trkpt>
      <trkpt lat="48.47624" lon="-4.75241">
        <ele>11.1925049</ele>
        <time>2017-01-08T09:06:05Z</time>
      </trkpt>
      <trkpt lat="48.47624" lon="-4.7525">
        <ele>12.6343994</ele>
        <time>2017-01-08T09:06:09Z</time>
      </trkpt>
      <trkpt lat="48.47624" lon="-4.7526">
        <ele>13.1151123</ele>
        <time>2017-01-08T09:06:13Z</time>
      </trkpt>
      <trkpt lat="48.47624" lon="-4.75271">
        <ele>13.5958252</ele>
        <time>2017-01-08T09:06:17Z</time>
      </trkpt>
      <trkpt lat="48.47624" lon="-4.75275">
        <ele>13.5958252</ele>
        <time>2017-01-08T09:06:19Z</time>
      </trkpt>
      <trkpt lat="48.47618" lon="-4.75291">
        <ele>12.6343994</ele>
        <time>2017-01-08T09:06:26Z</time>
      </trkpt>
      <trkpt lat="48.47617" lon="-4.75297">
        <ele>13.5958252</ele>
        <time>2017-01-08T09:06:29Z</time>
      </trkpt>
      <trkpt lat="48.47611" lon="-4.75309">
        <ele>13.5958252</ele>
        <time>2017-01-08T09:06:36Z</time>
      </trkpt>
      <trkpt lat="48.47607" lon="-4.75321">
        <ele>13.5958252</ele>
        <time>2017-01-08T09:06:42Z</time>
      </trkpt>
      <trkpt lat="48.47606" lon="-4.75325">
        <ele>14.076416</ele>
        <time>2017-01-08T09:06:44Z</time>
      </trkpt>
      <trkpt lat="48.47606" lon="-4.75336">
        <ele>13.5958252</ele>
        <time>2017-01-08T09:06:49Z</time>
      </trkpt>
      <trkpt lat="48.47605" lon="-4.75339">
        <ele>13.5958252</ele>
        <time>2017-01-08T09:06:50Z</time>
      </trkpt>
      <trkpt lat="48.47605" lon="-4.75343">
        <ele>12.1538086</ele>
        <time>2017-01-08T09:06:52Z</time>
      </trkpt>
      <trkpt lat="48.47604" lon="-4.75358">
        <ele>8.3085938</ele>
        <time>2017-01-08T09:06:59Z</time>
      </trkpt>
      <trkpt lat="48.47603" lon="-4.75363">
        <ele>7.8278809</ele>
        <time>2017-01-08T09:07:01Z</time>
      </trkpt>
      <trkpt lat="48.47599" lon="-4.75375">
        <ele>8.7891846</ele>
        <time>2017-01-08T09:07:06Z</time>
      </trkpt>
      <trkpt lat="48.47598" lon="-4.75379">
        <ele>9.2698975</ele>
        <time>2017-01-08T09:07:08Z</time>
      </trkpt>
      <trkpt lat="48.47598" lon="-4.75393">
        <ele>11.6732178</ele>
        <time>2017-01-08T09:07:13Z</time>
      </trkpt>
      <trkpt lat="48.476" lon="-4.75399">
        <ele>13.5958252</ele>
        <time>2017-01-08T09:07:17Z</time>
      </trkpt>
      <trkpt lat="48.476" lon="-4.75402">
        <ele>14.5570068</ele>
        <time>2017-01-08T09:07:18Z</time>
      </trkpt>
      <trkpt lat="48.476" lon="-4.75418">
        <ele>16.4797363</ele>
        <time>2017-01-08T09:07:25Z</time>
      </trkpt>
      <trkpt lat="48.476" lon="-4.7542">
        <ele>17.4411621</ele>
        <time>2017-01-08T09:07:26Z</time>
      </trkpt>
      <trkpt lat="48.47598" lon="-4.75431">
        <ele>17.4411621</ele>
        <time>2017-01-08T09:07:31Z</time>
      </trkpt>
      <trkpt lat="48.47597" lon="-4.75433">
        <ele>17.9217529</ele>
        <time>2017-01-08T09:07:32Z</time>
      </trkpt>
      <trkpt lat="48.47595" lon="-4.75441">
        <ele>17.4411621</ele>
        <time>2017-01-08T09:07:35Z</time>
      </trkpt>
      <trkpt lat="48.47592" lon="-4.75449">
        <ele>17.4411621</ele>
        <time>2017-01-08T09:07:39Z</time>
      </trkpt>
      <trkpt lat="48.476" lon="-4.7546">
        <ele>21.7669678</ele>
        <time>2017-01-08T09:07:46Z</time>
      </trkpt>
      <trkpt lat="48.47606" lon="-4.75464">
        <ele>22.2475586</ele>
        <time>2017-01-08T09:07:52Z</time>
      </trkpt>
      <trkpt lat="48.47613" lon="-4.75472">
        <ele>22.2475586</ele>
        <time>2017-01-08T09:07:59Z</time>
      </trkpt>
      <trkpt lat="48.47617" lon="-4.75485">
        <ele>23.6895752</ele>
        <time>2017-01-08T09:08:05Z</time>
      </trkpt>
      <trkpt lat="48.47617" lon="-4.75497">
        <ele>26.5736084</ele>
        <time>2017-01-08T09:08:10Z</time>
      </trkpt>
      <trkpt lat="48.47617" lon="-4.75503">
        <ele>27.0543213</ele>
        <time>2017-01-08T09:08:13Z</time>
      </trkpt>
      <trkpt lat="48.47615" lon="-4.75516">
        <ele>28.4962158</ele>
        <time>2017-01-08T09:08:19Z</time>
      </trkpt>
      <trkpt lat="48.47617" lon="-4.75525">
        <ele>30.4188232</ele>
        <time>2017-01-08T09:08:23Z</time>
      </trkpt>
      <trkpt lat="48.47617" lon="-4.75534">
        <ele>29.4575195</ele>
        <time>2017-01-08T09:08:27Z</time>
      </trkpt>
      <trkpt lat="48.47612" lon="-4.75543">
        <ele>29.4575195</ele>
        <time>2017-01-08T09:08:33Z</time>
      </trkpt>
      <trkpt lat="48.47604" lon="-4.75543">
        <ele>30.4188232</ele>
        <time>2017-01-08T09:08:39Z</time>
      </trkpt>
      <trkpt lat="48.47593" lon="-4.75544">
        <ele>29.9381104</ele>
        <time>2017-01-08T09:08:46Z</time>
      </trkpt>
      <trkpt lat="48.47581" lon="-4.75546">
        <ele>27.0543213</ele>
        <time>2017-01-08T09:08:54Z</time>
      </trkpt>
      <trkpt lat="48.47573" lon="-4.75551">
        <ele>23.6895752</ele>
        <time>2017-01-08T09:08:59Z</time>
      </trkpt>
      <trkpt lat="48.47567" lon="-4.75552">
        <ele>22.2475586</ele>
        <time>2017-01-08T09:09:04Z</time>
      </trkpt>
      <trkpt lat="48.47564" lon="-4.75563">
        <ele>22.2475586</ele>
        <time>2017-01-08T09:09:11Z</time>
      </trkpt>
      <trkpt lat="48.47565" lon="-4.75566">
        <ele>22.7282715</ele>
        <time>2017-01-08T09:09:12Z</time>
      </trkpt>
      <trkpt lat="48.47567" lon="-4.75582">
        <ele>23.2089844</ele>
        <time>2017-01-08T09:09:20Z</time>
      </trkpt>
      <trkpt lat="48.4757" lon="-4.75603">
        <ele>23.2089844</ele>
        <time>2017-01-08T09:09:30Z</time>
      </trkpt>
      <trkpt lat="48.47572" lon="-4.75618">
        <ele>22.7282715</ele>
        <time>2017-01-08T09:09:37Z</time>
      </trkpt>
      <trkpt lat="48.4757" lon="-4.75627">
        <ele>22.7282715</ele>
        <time>2017-01-08T09:09:42Z</time>
      </trkpt>
      <trkpt lat="48.47564" lon="-4.75635">
        <ele>20.8056641</ele>
        <time>2017-01-08T09:09:48Z</time>
      </trkpt>
      <trkpt lat="48.47559" lon="-4.75649">
        <ele>19.3637695</ele>
        <time>2017-01-08T09:09:55Z</time>
      </trkpt>
      <trkpt lat="48.47556" lon="-4.75663">
        <ele>18.4023438</ele>
        <time>2017-01-08T09:10:01Z</time>
      </trkpt>
      <trkpt lat="48.47552" lon="-4.75674">
        <ele>18.8830566</ele>
        <time>2017-01-08T09:10:07Z</time>
      </trkpt>
      <trkpt lat="48.47549" lon="-4.75685">
        <ele>18.4023438</ele>
        <time>2017-01-08T09:10:12Z</time>
      </trkpt>
      <trkpt lat="48.47548" lon="-4.75691">
        <ele>17.4411621</ele>
        <time>2017-01-08T09:10:15Z</time>
      </trkpt>
      <trkpt lat="48.47544" lon="-4.75699">
        <ele>16.4797363</ele>
        <time>2017-01-08T09:10:19Z</time>
      </trkpt>
      <trkpt lat="48.47542" lon="-4.75712">
        <ele>15.5184326</ele>
        <time>2017-01-08T09:10:25Z</time>
      </trkpt>
      <trkpt lat="48.47538" lon="-4.75722">
        <ele>15.5184326</ele>
        <time>2017-01-08T09:10:30Z</time>
      </trkpt>
      <trkpt lat="48.47534" lon="-4.75738">
        <ele>19.3637695</ele>
        <time>2017-01-08T09:10:37Z</time>
      </trkpt>
      <trkpt lat="48.47527" lon="-4.75751">
        <ele>18.4023438</ele>
        <time>2017-01-08T09:10:45Z</time>
      </trkpt>
      <trkpt lat="48.4752" lon="-4.75759">
        <ele>16.9604492</ele>
        <time>2017-01-08T09:10:51Z</time>
      </trkpt>
      <trkpt lat="48.4751" lon="-4.75771">
        <ele>16.9604492</ele>
        <time>2017-01-08T09:10:59Z</time>
      </trkpt>
      <trkpt lat="48.47503" lon="-4.75777">
        <ele>15.9990234</ele>
        <time>2017-01-08T09:11:04Z</time>
      </trkpt>
      <trkpt lat="48.47491" lon="-4.75782">
        <ele>15.9990234</ele>
        <time>2017-01-08T09:11:11Z</time>
      </trkpt>
      <trkpt lat="48.4748" lon="-4.75782">
        <ele>15.9990234</ele>
        <time>2017-01-08T09:11:18Z</time>
      </trkpt>
      <trkpt lat="48.47471" lon="-4.75777">
        <ele>16.4797363</ele>
        <time>2017-01-08T09:11:24Z</time>
      </trkpt>
      <trkpt lat="48.47462" lon="-4.75768">
        <ele>16.9604492</ele>
        <time>2017-01-08T09:11:31Z</time>
      </trkpt>
      <trkpt lat="48.47451" lon="-4.7576">
        <ele>15.9990234</ele>
        <time>2017-01-08T09:11:39Z</time>
      </trkpt>
      <trkpt lat="48.47441" lon="-4.75753">
        <ele>16.9604492</ele>
        <time>2017-01-08T09:11:46Z</time>
      </trkpt>
      <trkpt lat="48.47429" lon="-4.75745">
        <ele>15.9990234</ele>
        <time>2017-01-08T09:11:54Z</time>
      </trkpt>
      <trkpt lat="48.47416" lon="-4.75736">
        <ele>15.5184326</ele>
        <time>2017-01-08T09:12:03Z</time>
      </trkpt>
      <trkpt lat="48.47408" lon="-4.7573">
        <ele>15.0377197</ele>
        <time>2017-01-08T09:12:09Z</time>
      </trkpt>
      <trkpt lat="48.47398" lon="-4.75722">
        <ele>14.5570068</ele>
        <time>2017-01-08T09:12:16Z</time>
      </trkpt>
      <trkpt lat="48.4739" lon="-4.75718">
        <ele>14.5570068</ele>
        <time>2017-01-08T09:12:21Z</time>
      </trkpt>
      <trkpt lat="48.4738" lon="-4.75709">
        <ele>14.5570068</ele>
        <time>2017-01-08T09:12:28Z</time>
      </trkpt>
      <trkpt lat="48.47371" lon="-4.75704">
        <ele>14.5570068</ele>
        <time>2017-01-08T09:12:34Z</time>
      </trkpt>
      <trkpt lat="48.47361" lon="-4.75696">
        <ele>14.076416</ele>
        <time>2017-01-08T09:12:41Z</time>
      </trkpt>
      <trkpt lat="48.47351" lon="-4.75689">
        <ele>14.076416</ele>
        <time>2017-01-08T09:12:47Z</time>
      </trkpt>
      <trkpt lat="48.47342" lon="-4.75686">
        <ele>15.0377197</ele>
        <time>2017-01-08T09:12:53Z</time>
      </trkpt>
      <trkpt lat="48.47335" lon="-4.75683">
        <ele>14.076416</ele>
        <time>2017-01-08T09:12:57Z</time>
      </trkpt>
      <trkpt lat="48.47328" lon="-4.7568">
        <ele>13.5958252</ele>
        <time>2017-01-08T09:13:03Z</time>
      </trkpt>
      <trkpt lat="48.47315" lon="-4.75677">
        <ele>14.076416</ele>
        <time>2017-01-08T09:13:11Z</time>
      </trkpt>
      <trkpt lat="48.47297" lon="-4.75676">
        <ele>14.5570068</ele>
        <time>2017-01-08T09:13:22Z</time>
      </trkpt>
      <trkpt lat="48.47283" lon="-4.75676">
        <ele>15.0377197</ele>
        <time>2017-01-08T09:13:31Z</time>
      </trkpt>
      <trkpt lat="48.47271" lon="-4.75678">
        <ele>14.5570068</ele>
        <time>2017-01-08T09:13:39Z</time>
      </trkpt>
      <trkpt lat="48.4726" lon="-4.7568">
        <ele>14.076416</ele>
        <time>2017-01-08T09:13:46Z</time>
      </trkpt>
      <trkpt lat="48.47251" lon="-4.75681">
        <ele>13.5958252</ele>
        <time>2017-01-08T09:13:52Z</time>
      </trkpt>
      <trkpt lat="48.47239" lon="-4.75684">
        <ele>13.5958252</ele>
        <time>2017-01-08T09:14:00Z</time>
      </trkpt>
      <trkpt lat="48.47224" lon="-4.75686">
        <ele>12.1538086</ele>
        <time>2017-01-08T09:14:10Z</time>
      </trkpt>
      <trkpt lat="48.47215" lon="-4.75689">
        <ele>11.1925049</ele>
        <time>2017-01-08T09:14:16Z</time>
      </trkpt>
      <trkpt lat="48.47205" lon="-4.75691">
        <ele>10.711792</ele>
        <time>2017-01-08T09:14:22Z</time>
      </trkpt>
      <trkpt lat="48.47194" lon="-4.75692">
        <ele>9.7506104</ele>
        <time>2017-01-08T09:14:29Z</time>
      </trkpt>
      <trkpt lat="48.47184" lon="-4.75694">
        <ele>10.2312012</ele>
        <time>2017-01-08T09:14:36Z</time>
      </trkpt>
      <trkpt lat="48.4717" lon="-4.75696">
        <ele>10.711792</ele>
        <time>2017-01-08T09:14:45Z</time>
      </trkpt>
      <trkpt lat="48.47162" lon="-4.75697">
        <ele>9.7506104</ele>
        <time>2017-01-08T09:14:51Z</time>
      </trkpt>
      <trkpt lat="48.47149" lon="-4.75701">
        <ele>9.7506104</ele>
        <time>2017-01-08T09:14:59Z</time>
      </trkpt>
      <trkpt lat="48.4714" lon="-4.75707">
        <ele>9.7506104</ele>
        <time>2017-01-08T09:15:05Z</time>
      </trkpt>
      <trkpt lat="48.47129" lon="-4.75715">
        <ele>10.2312012</ele>
        <time>2017-01-08T09:15:13Z</time>
      </trkpt>
      <trkpt lat="48.47122" lon="-4.75722">
        <ele>9.7506104</ele>
        <time>2017-01-08T09:15:18Z</time>
      </trkpt>
      <trkpt lat="48.47113" lon="-4.75732">
        <ele>10.2312012</ele>
        <time>2017-01-08T09:15:25Z</time>
      </trkpt>
      <trkpt lat="48.47104" lon="-4.75745">
        <ele>11.1925049</ele>
        <time>2017-01-08T09:15:33Z</time>
      </trkpt>
      <trkpt lat="48.471" lon="-4.75752">
        <ele>10.711792</ele>
        <time>2017-01-08T09:15:37Z</time>
      </trkpt>
      <trkpt lat="48.4709" lon="-4.75763">
        <ele>10.2312012</ele>
        <time>2017-01-08T09:15:45Z</time>
      </trkpt>
      <trkpt lat="48.47084" lon="-4.75768">
        <ele>9.2698975</ele>
        <time>2017-01-08T09:15:50Z</time>
      </trkpt>
      <trkpt lat="48.47077" lon="-4.75768">
        <ele>7.8278809</ele>
        <time>2017-01-08T09:15:55Z</time>
      </trkpt>
      <trkpt lat="48.47068" lon="-4.75764">
        <ele>6.3858643</ele>
        <time>2017-01-08T09:16:02Z</time>
      </trkpt>
      <trkpt lat="48.47062" lon="-4.75769">
        <ele>6.8664551</ele>
        <time>2017-01-08T09:16:08Z</time>
      </trkpt>
      <trkpt lat="48.47063" lon="-4.75788">
        <ele>8.3085938</ele>
        <time>2017-01-08T09:16:16Z</time>
      </trkpt>
      <trkpt lat="48.47065" lon="-4.758">
        <ele>9.2698975</ele>
        <time>2017-01-08T09:16:21Z</time>
      </trkpt>
      <trkpt lat="48.47067" lon="-4.75816">
        <ele>9.7506104</ele>
        <time>2017-01-08T09:16:27Z</time>
      </trkpt>
      <trkpt lat="48.47068" lon="-4.75828">
        <ele>9.7506104</ele>
        <time>2017-01-08T09:16:32Z</time>
      </trkpt>
      <trkpt lat="48.47069" lon="-4.75837">
        <ele>10.711792</ele>
        <time>2017-01-08T09:16:36Z</time>
      </trkpt>
      <trkpt lat="48.4707" lon="-4.75846">
        <ele>11.6732178</ele>
        <time>2017-01-08T09:16:40Z</time>
      </trkpt>
      <trkpt lat="48.4707" lon="-4.75858">
        <ele>12.1538086</ele>
        <time>2017-01-08T09:16:45Z</time>
      </trkpt>
      <trkpt lat="48.4707" lon="-4.75871">
        <ele>12.1538086</ele>
        <time>2017-01-08T09:16:51Z</time>
      </trkpt>
      <trkpt lat="48.47065" lon="-4.75891">
        <ele>10.711792</ele>
        <time>2017-01-08T09:17:01Z</time>
      </trkpt>
      <trkpt lat="48.47064" lon="-4.75901">
        <ele>11.1925049</ele>
        <time>2017-01-08T09:17:06Z</time>
      </trkpt>
      <trkpt lat="48.47058" lon="-4.75913">
        <ele>11.1925049</ele>
        <time>2017-01-08T09:17:14Z</time>
      </trkpt>
      <trkpt lat="48.47059" lon="-4.75919">
        <ele>11.1925049</ele>
        <time>2017-01-08T09:17:17Z</time>
      </trkpt>
      <trkpt lat="48.47062" lon="-4.75934">
        <ele>10.2312012</ele>
        <time>2017-01-08T09:17:23Z</time>
      </trkpt>
      <trkpt lat="48.47066" lon="-4.75944">
        <ele>10.711792</ele>
        <time>2017-01-08T09:17:29Z</time>
      </trkpt>
      <trkpt lat="48.47069" lon="-4.75958">
        <ele>11.1925049</ele>
        <time>2017-01-08T09:17:37Z</time>
      </trkpt>
      <trkpt lat="48.47074" lon="-4.75969">
        <ele>11.6732178</ele>
        <time>2017-01-08T09:17:45Z</time>
      </trkpt>
      <trkpt lat="48.47075" lon="-4.75971">
        <ele>11.6732178</ele>
        <time>2017-01-08T09:17:47Z</time>
      </trkpt>
      <trkpt lat="48.47075" lon="-4.75973">
        <ele>11.1925049</ele>
        <time>2017-01-08T09:17:54Z</time>
      </trkpt>
      <trkpt lat="48.47073" lon="-4.75975">
        <ele>9.2698975</ele>
        <time>2017-01-08T09:19:23Z</time>
      </trkpt>
      <trkpt lat="48.47075" lon="-4.75979">
        <ele>8.7891846</ele>
        <time>2017-01-08T09:19:29Z</time>
      </trkpt>
      <trkpt lat="48.47077" lon="-4.75981">
        <ele>8.3085938</ele>
        <time>2017-01-08T09:19:34Z</time>
      </trkpt>
      <trkpt lat="48.4708" lon="-4.75985">
        <ele>7.8278809</ele>
        <time>2017-01-08T09:19:42Z</time>
      </trkpt>
      <trkpt lat="48.47084" lon="-4.75989">
        <ele>7.347168</ele>
        <time>2017-01-08T09:19:47Z</time>
      </trkpt>
      <trkpt lat="48.47091" lon="-4.75999">
        <ele>7.347168</ele>
        <time>2017-01-08T09:19:53Z</time>
      </trkpt>
      <trkpt lat="48.47098" lon="-4.76011">
        <ele>8.3085938</ele>
        <time>2017-01-08T09:20:00Z</time>
      </trkpt>
      <trkpt lat="48.47104" lon="-4.76021">
        <ele>9.2698975</ele>
        <time>2017-01-08T09:20:06Z</time>
      </trkpt>
      <trkpt lat="48.47111" lon="-4.76031">
        <ele>9.2698975</ele>
        <time>2017-01-08T09:20:13Z</time>
      </trkpt>
      <trkpt lat="48.4712" lon="-4.7604">
        <ele>9.2698975</ele>
        <time>2017-01-08T09:20:19Z</time>
      </trkpt>
      <trkpt lat="48.47123" lon="-4.76048">
        <ele>9.7506104</ele>
        <time>2017-01-08T09:20:23Z</time>
      </trkpt>
      <trkpt lat="48.47132" lon="-4.76059">
        <ele>10.711792</ele>
        <time>2017-01-08T09:20:31Z</time>
      </trkpt>
      <trkpt lat="48.47139" lon="-4.76066">
        <ele>11.1925049</ele>
        <time>2017-01-08T09:20:36Z</time>
      </trkpt>
      <trkpt lat="48.47148" lon="-4.76077">
        <ele>11.1925049</ele>
        <time>2017-01-08T09:20:43Z</time>
      </trkpt>
      <trkpt lat="48.47158" lon="-4.76093">
        <ele>11.1925049</ele>
        <time>2017-01-08T09:20:51Z</time>
      </trkpt>
      <trkpt lat="48.47165" lon="-4.76106">
        <ele>11.6732178</ele>
        <time>2017-01-08T09:20:58Z</time>
      </trkpt>
      <trkpt lat="48.47172" lon="-4.76118">
        <ele>10.711792</ele>
        <time>2017-01-08T09:21:05Z</time>
      </trkpt>
      <trkpt lat="48.47178" lon="-4.76135">
        <ele>10.2312012</ele>
        <time>2017-01-08T09:21:12Z</time>
      </trkpt>
      <trkpt lat="48.47183" lon="-4.76149">
        <ele>10.711792</ele>
        <time>2017-01-08T09:21:18Z</time>
      </trkpt>
      <trkpt lat="48.47183" lon="-4.76151">
        <ele>10.2312012</ele>
        <time>2017-01-08T09:21:19Z</time>
      </trkpt>
      <trkpt lat="48.47186" lon="-4.7616">
        <ele>10.2312012</ele>
        <time>2017-01-08T09:21:23Z</time>
      </trkpt>
      <trkpt lat="48.47192" lon="-4.76172">
        <ele>10.711792</ele>
        <time>2017-01-08T09:21:29Z</time>
      </trkpt>
      <trkpt lat="48.47198" lon="-4.76184">
        <ele>10.711792</ele>
        <time>2017-01-08T09:21:35Z</time>
      </trkpt>
      <trkpt lat="48.47205" lon="-4.76199">
        <ele>11.6732178</ele>
        <time>2017-01-08T09:21:42Z</time>
      </trkpt>
      <trkpt lat="48.47211" lon="-4.76214">
        <ele>11.1925049</ele>
        <time>2017-01-08T09:21:49Z</time>
      </trkpt>
      <trkpt lat="48.47213" lon="-4.76225">
        <ele>12.1538086</ele>
        <time>2017-01-08T09:21:54Z</time>
      </trkpt>
      <trkpt lat="48.47213" lon="-4.7623">
        <ele>12.6343994</ele>
        <time>2017-01-08T09:21:56Z</time>
      </trkpt>
      <trkpt lat="48.47213" lon="-4.76246">
        <ele>14.076416</ele>
        <time>2017-01-08T09:22:02Z</time>
      </trkpt>
      <trkpt lat="48.47215" lon="-4.7625">
        <ele>14.076416</ele>
        <time>2017-01-08T09:22:04Z</time>
      </trkpt>
      <trkpt lat="48.47219" lon="-4.7626">
        <ele>14.076416</ele>
        <time>2017-01-08T09:22:09Z</time>
      </trkpt>
      <trkpt lat="48.47227" lon="-4.76276">
        <ele>10.711792</ele>
        <time>2017-01-08T09:22:19Z</time>
      </trkpt>
      <trkpt lat="48.47227" lon="-4.76278">
        <ele>10.711792</ele>
        <time>2017-01-08T09:22:20Z</time>
      </trkpt>
      <trkpt lat="48.47229" lon="-4.76287">
        <ele>9.7506104</ele>
        <time>2017-01-08T09:22:24Z</time>
      </trkpt>
      <trkpt lat="48.47235" lon="-4.76303">
        <ele>7.8278809</ele>
        <time>2017-01-08T09:22:31Z</time>
      </trkpt>
      <trkpt lat="48.47236" lon="-4.76309">
        <ele>7.347168</ele>
        <time>2017-01-08T09:22:34Z</time>
      </trkpt>
      <trkpt lat="48.47241" lon="-4.76322">
        <ele>7.8278809</ele>
        <time>2017-01-08T09:22:40Z</time>
      </trkpt>
      <trkpt lat="48.4725" lon="-4.76337">
        <ele>8.3085938</ele>
        <time>2017-01-08T09:22:49Z</time>
      </trkpt>
      <trkpt lat="48.47259" lon="-4.76341">
        <ele>7.8278809</ele>
        <time>2017-01-08T09:22:55Z</time>
      </trkpt>
      <trkpt lat="48.47272" lon="-4.76345">
        <ele>7.8278809</ele>
        <time>2017-01-08T09:23:03Z</time>
      </trkpt>
      <trkpt lat="48.47282" lon="-4.76342">
        <ele>8.7891846</ele>
        <time>2017-01-08T09:23:10Z</time>
      </trkpt>
      <trkpt lat="48.47292" lon="-4.76338">
        <ele>9.2698975</ele>
        <time>2017-01-08T09:23:16Z</time>
      </trkpt>
      <trkpt lat="48.47302" lon="-4.76336">
        <ele>8.7891846</ele>
        <time>2017-01-08T09:23:23Z</time>
      </trkpt>
      <trkpt lat="48.47312" lon="-4.76333">
        <ele>7.347168</ele>
        <time>2017-01-08T09:23:29Z</time>
      </trkpt>
      <trkpt lat="48.47322" lon="-4.76328">
        <ele>5.4245605</ele>
        <time>2017-01-08T09:23:35Z</time>
      </trkpt>
      <trkpt lat="48.47332" lon="-4.76323">
        <ele>6.8664551</ele>
        <time>2017-01-08T09:23:41Z</time>
      </trkpt>
      <trkpt lat="48.4734" lon="-4.76319">
        <ele>8.3085938</ele>
        <time>2017-01-08T09:23:46Z</time>
      </trkpt>
      <trkpt lat="48.47347" lon="-4.76314">
        <ele>7.347168</ele>
        <time>2017-01-08T09:23:51Z</time>
      </trkpt>
      <trkpt lat="48.47357" lon="-4.76313">
        <ele>7.8278809</ele>
        <time>2017-01-08T09:23:57Z</time>
      </trkpt>
      <trkpt lat="48.47364" lon="-4.76314">
        <ele>7.347168</ele>
        <time>2017-01-08T09:24:01Z</time>
      </trkpt>
      <trkpt lat="48.47369" lon="-4.76314">
        <ele>6.8664551</ele>
        <time>2017-01-08T09:24:05Z</time>
      </trkpt>
      <trkpt lat="48.47374" lon="-4.76301">
        <ele>6.8664551</ele>
        <time>2017-01-08T09:24:11Z</time>
      </trkpt>
      <trkpt lat="48.47378" lon="-4.76288">
        <ele>7.8278809</ele>
        <time>2017-01-08T09:24:17Z</time>
      </trkpt>
      <trkpt lat="48.47378" lon="-4.76285">
        <ele>7.8278809</ele>
        <time>2017-01-08T09:24:18Z</time>
      </trkpt>
      <trkpt lat="48.47381" lon="-4.76267">
        <ele>7.8278809</ele>
        <time>2017-01-08T09:24:25Z</time>
      </trkpt>
      <trkpt lat="48.47383" lon="-4.76254">
        <ele>8.3085938</ele>
        <time>2017-01-08T09:24:30Z</time>
      </trkpt>
      <trkpt lat="48.47385" lon="-4.76238">
        <ele>7.8278809</ele>
        <time>2017-01-08T09:24:35Z</time>
      </trkpt>
      <trkpt lat="48.47386" lon="-4.76231">
        <ele>6.8664551</ele>
        <time>2017-01-08T09:24:39Z</time>
      </trkpt>
      <trkpt lat="48.4739" lon="-4.76226">
        <ele>6.3858643</ele>
        <time>2017-01-08T09:24:43Z</time>
      </trkpt>
      <trkpt lat="48.47391" lon="-4.76222">
        <ele>6.3858643</ele>
        <time>2017-01-08T09:24:46Z</time>
      </trkpt>
      <trkpt lat="48.47393" lon="-4.76211">
        <ele>6.3858643</ele>
        <time>2017-01-08T09:24:50Z</time>
      </trkpt>
      <trkpt lat="48.47394" lon="-4.76201">
        <ele>6.8664551</ele>
        <time>2017-01-08T09:24:54Z</time>
      </trkpt>
      <trkpt lat="48.47396" lon="-4.76186">
        <ele>7.8278809</ele>
        <time>2017-01-08T09:25:00Z</time>
      </trkpt>
      <trkpt lat="48.47397" lon="-4.76171">
        <ele>9.7506104</ele>
        <time>2017-01-08T09:25:06Z</time>
      </trkpt>
      <trkpt lat="48.47399" lon="-4.76159">
        <ele>10.711792</ele>
        <time>2017-01-08T09:25:11Z</time>
      </trkpt>
      <trkpt lat="48.47401" lon="-4.76143">
        <ele>11.1925049</ele>
        <time>2017-01-08T09:25:17Z</time>
      </trkpt>
      <trkpt lat="48.47404" lon="-4.76124">
        <ele>14.076416</ele>
        <time>2017-01-08T09:25:24Z</time>
      </trkpt>
      <trkpt lat="48.47408" lon="-4.76102">
        <ele>15.0377197</ele>
        <time>2017-01-08T09:25:31Z</time>
      </trkpt>
      <trkpt lat="48.47411" lon="-4.76094">
        <ele>15.9990234</ele>
        <time>2017-01-08T09:25:35Z</time>
      </trkpt>
      <trkpt lat="48.47412" lon="-4.76083">
        <ele>15.5184326</ele>
        <time>2017-01-08T09:25:40Z</time>
      </trkpt>
      <trkpt lat="48.47414" lon="-4.76072">
        <ele>15.9990234</ele>
        <time>2017-01-08T09:25:44Z</time>
      </trkpt>
      <trkpt lat="48.47419" lon="-4.76057">
        <ele>16.4797363</ele>
        <time>2017-01-08T09:25:51Z</time>
      </trkpt>
      <trkpt lat="48.47422" lon="-4.76044">
        <ele>15.9990234</ele>
        <time>2017-01-08T09:25:56Z</time>
      </trkpt>
      <trkpt lat="48.47425" lon="-4.76036">
        <ele>15.5184326</ele>
        <time>2017-01-08T09:25:59Z</time>
      </trkpt>
      <trkpt lat="48.47427" lon="-4.76029">
        <ele>15.9990234</ele>
        <time>2017-01-08T09:26:02Z</time>
      </trkpt>
      <trkpt lat="48.4743" lon="-4.76024">
        <ele>15.9990234</ele>
        <time>2017-01-08T09:26:05Z</time>
      </trkpt>
      <trkpt lat="48.47435" lon="-4.76018">
        <ele>15.9990234</ele>
        <time>2017-01-08T09:26:09Z</time>
      </trkpt>
      <trkpt lat="48.47438" lon="-4.76011">
        <ele>15.5184326</ele>
        <time>2017-01-08T09:26:13Z</time>
      </trkpt>
      <trkpt lat="48.47447" lon="-4.75996">
        <ele>15.9990234</ele>
        <time>2017-01-08T09:26:22Z</time>
      </trkpt>
      <trkpt lat="48.47456" lon="-4.75983">
        <ele>15.0377197</ele>
        <time>2017-01-08T09:26:30Z</time>
      </trkpt>
      <trkpt lat="48.4746" lon="-4.75975">
        <ele>14.076416</ele>
        <time>2017-01-08T09:26:34Z</time>
      </trkpt>
      <trkpt lat="48.47464" lon="-4.75967">
        <ele>14.5570068</ele>
        <time>2017-01-08T09:26:39Z</time>
      </trkpt>
      <trkpt lat="48.47471" lon="-4.75959">
        <ele>15.5184326</ele>
        <time>2017-01-08T09:26:44Z</time>
      </trkpt>
      <trkpt lat="48.47477" lon="-4.75954">
        <ele>16.9604492</ele>
        <time>2017-01-08T09:26:48Z</time>
      </trkpt>
      <trkpt lat="48.47481" lon="-4.75941">
        <ele>17.4411621</ele>
        <time>2017-01-08T09:26:53Z</time>
      </trkpt>
      <trkpt lat="48.47486" lon="-4.75931">
        <ele>16.9604492</ele>
        <time>2017-01-08T09:26:58Z</time>
      </trkpt>
      <trkpt lat="48.47491" lon="-4.75925">
        <ele>17.9217529</ele>
        <time>2017-01-08T09:27:03Z</time>
      </trkpt>
      <trkpt lat="48.47493" lon="-4.75923">
        <ele>17.9217529</ele>
        <time>2017-01-08T09:27:05Z</time>
      </trkpt>
      <trkpt lat="48.47496" lon="-4.75919">
        <ele>17.9217529</ele>
        <time>2017-01-08T09:27:07Z</time>
      </trkpt>
      <trkpt lat="48.47501" lon="-4.75915">
        <ele>17.4411621</ele>
        <time>2017-01-08T09:27:11Z</time>
      </trkpt>
      <trkpt lat="48.47504" lon="-4.75907">
        <ele>17.9217529</ele>
        <time>2017-01-08T09:27:15Z</time>
      </trkpt>
      <trkpt lat="48.47507" lon="-4.75897">
        <ele>18.4023438</ele>
        <time>2017-01-08T09:27:19Z</time>
      </trkpt>
      <trkpt lat="48.4751" lon="-4.75893">
        <ele>18.8830566</ele>
        <time>2017-01-08T09:27:22Z</time>
      </trkpt>
      <trkpt lat="48.47511" lon="-4.7589">
        <ele>19.3637695</ele>
        <time>2017-01-08T09:27:24Z</time>
      </trkpt>
      <trkpt lat="48.47511" lon="-4.75885">
        <ele>19.3637695</ele>
        <time>2017-01-08T09:27:26Z</time>
      </trkpt>
      <trkpt lat="48.47509" lon="-4.75871">
        <ele>20.3249512</ele>
        <time>2017-01-08T09:27:33Z</time>
      </trkpt>
      <trkpt lat="48.47505" lon="-4.75852">
        <ele>19.8443604</ele>
        <time>2017-01-08T09:27:41Z</time>
      </trkpt>
      <trkpt lat="48.47502" lon="-4.7584">
        <ele>20.3249512</ele>
        <time>2017-01-08T09:27:46Z</time>
      </trkpt>
      <trkpt lat="48.475" lon="-4.75828">
        <ele>20.8056641</ele>
        <time>2017-01-08T09:27:51Z</time>
      </trkpt>
      <trkpt lat="48.47498" lon="-4.75812">
        <ele>20.8056641</ele>
        <time>2017-01-08T09:27:58Z</time>
      </trkpt>
      <trkpt lat="48.47498" lon="-4.758">
        <ele>19.8443604</ele>
        <time>2017-01-08T09:28:03Z</time>
      </trkpt>
      <trkpt lat="48.475" lon="-4.75786">
        <ele>20.3249512</ele>
        <time>2017-01-08T09:28:09Z</time>
      </trkpt>
      <trkpt lat="48.47504" lon="-4.75775">
        <ele>20.8056641</ele>
        <time>2017-01-08T09:28:14Z</time>
      </trkpt>
      <trkpt lat="48.47509" lon="-4.75766">
        <ele>20.8056641</ele>
        <time>2017-01-08T09:28:19Z</time>
      </trkpt>
      <trkpt lat="48.4751" lon="-4.75751">
        <ele>21.7669678</ele>
        <time>2017-01-08T09:28:25Z</time>
      </trkpt>
      <trkpt lat="48.47504" lon="-4.75735">
        <ele>21.286377</ele>
        <time>2017-01-08T09:28:30Z</time>
      </trkpt>
      <trkpt lat="48.47499" lon="-4.75731">
        <ele>18.4023438</ele>
        <time>2017-01-08T09:28:35Z</time>
      </trkpt>
      <trkpt lat="48.47493" lon="-4.75725">
        <ele>15.0377197</ele>
        <time>2017-01-08T09:28:41Z</time>
      </trkpt>
      <trkpt lat="48.47488" lon="-4.7572">
        <ele>14.076416</ele>
        <time>2017-01-08T09:28:45Z</time>
      </trkpt>
      <trkpt lat="48.47487" lon="-4.75718">
        <ele>14.076416</ele>
        <time>2017-01-08T09:28:46Z</time>
      </trkpt>
      <trkpt lat="48.4748" lon="-4.75707">
        <ele>15.0377197</ele>
        <time>2017-01-08T09:28:53Z</time>
      </trkpt>
      <trkpt lat="48.4747" lon="-4.75693">
        <ele>14.076416</ele>
        <time>2017-01-08T09:29:01Z</time>
      </trkpt>
      <trkpt lat="48.47465" lon="-4.75683">
        <ele>12.6343994</ele>
        <time>2017-01-08T09:29:06Z</time>
      </trkpt>
      <trkpt lat="48.4746" lon="-4.75673">
        <ele>12.6343994</ele>
        <time>2017-01-08T09:29:13Z</time>
      </trkpt>
      <trkpt lat="48.47456" lon="-4.75668">
        <ele>12.6343994</ele>
        <time>2017-01-08T09:29:17Z</time>
      </trkpt>
      <trkpt lat="48.47446" lon="-4.75655">
        <ele>13.5958252</ele>
        <time>2017-01-08T09:29:26Z</time>
      </trkpt>
      <trkpt lat="48.4744" lon="-4.75646">
        <ele>14.5570068</ele>
        <time>2017-01-08T09:29:32Z</time>
      </trkpt>
      <trkpt lat="48.4743" lon="-4.75632">
        <ele>15.0377197</ele>
        <time>2017-01-08T09:29:41Z</time>
      </trkpt>
      <trkpt lat="48.47422" lon="-4.75622">
        <ele>15.0377197</ele>
        <time>2017-01-08T09:29:48Z</time>
      </trkpt>
      <trkpt lat="48.47412" lon="-4.75609">
        <ele>14.5570068</ele>
        <time>2017-01-08T09:29:57Z</time>
      </trkpt>
      <trkpt lat="48.47402" lon="-4.75594">
        <ele>13.1151123</ele>
        <time>2017-01-08T09:30:06Z</time>
      </trkpt>
      <trkpt lat="48.47394" lon="-4.75583">
        <ele>12.6343994</ele>
        <time>2017-01-08T09:30:13Z</time>
      </trkpt>
      <trkpt lat="48.47383" lon="-4.75569">
        <ele>12.6343994</ele>
        <time>2017-01-08T09:30:22Z</time>
      </trkpt>
      <trkpt lat="48.47375" lon="-4.75557">
        <ele>12.6343994</ele>
        <time>2017-01-08T09:30:29Z</time>
      </trkpt>
      <trkpt lat="48.47365" lon="-4.75545">
        <ele>11.6732178</ele>
        <time>2017-01-08T09:30:37Z</time>
      </trkpt>
      <trkpt lat="48.47361" lon="-4.75538">
        <ele>11.6732178</ele>
        <time>2017-01-08T09:30:41Z</time>
      </trkpt>
      <trkpt lat="48.47351" lon="-4.75523">
        <ele>10.711792</ele>
        <time>2017-01-08T09:30:50Z</time>
      </trkpt>
      <trkpt lat="48.47338" lon="-4.75504">
        <ele>12.1538086</ele>
        <time>2017-01-08T09:31:01Z</time>
      </trkpt>
      <trkpt lat="48.47329" lon="-4.75488">
        <ele>11.1925049</ele>
        <time>2017-01-08T09:31:10Z</time>
      </trkpt>
      <trkpt lat="48.47325" lon="-4.75482">
        <ele>9.7506104</ele>
        <time>2017-01-08T09:31:13Z</time>
      </trkpt>
      <trkpt lat="48.47322" lon="-4.75468">
        <ele>9.2698975</ele>
        <time>2017-01-08T09:31:19Z</time>
      </trkpt>
      <trkpt lat="48.47318" lon="-4.75451">
        <ele>7.8278809</ele>
        <time>2017-01-08T09:31:26Z</time>
      </trkpt>
      <trkpt lat="48.47319" lon="-4.75431">
        <ele>7.8278809</ele>
        <time>2017-01-08T09:31:35Z</time>
      </trkpt>
      <trkpt lat="48.47323" lon="-4.7541">
        <ele>8.3085938</ele>
        <time>2017-01-08T09:31:45Z</time>
      </trkpt>
      <trkpt lat="48.47327" lon="-4.75393">
        <ele>7.8278809</ele>
        <time>2017-01-08T09:31:53Z</time>
      </trkpt>
      <trkpt lat="48.47331" lon="-4.75369">
        <ele>7.8278809</ele>
        <time>2017-01-08T09:32:04Z</time>
      </trkpt>
      <trkpt lat="48.47333" lon="-4.75344">
        <ele>7.8278809</ele>
        <time>2017-01-08T09:32:16Z</time>
      </trkpt>
      <trkpt lat="48.47335" lon="-4.75324">
        <ele>7.8278809</ele>
        <time>2017-01-08T09:32:25Z</time>
      </trkpt>
      <trkpt lat="48.47334" lon="-4.75317">
        <ele>7.8278809</ele>
        <time>2017-01-08T09:32:29Z</time>
      </trkpt>
      <trkpt lat="48.47334" lon="-4.75313">
        <ele>7.347168</ele>
        <time>2017-01-08T09:32:33Z</time>
      </trkpt>
      <trkpt lat="48.47336" lon="-4.75303">
        <ele>7.347168</ele>
        <time>2017-01-08T09:32:37Z</time>
      </trkpt>
      <trkpt lat="48.47338" lon="-4.75292">
        <ele>6.3858643</ele>
        <time>2017-01-08T09:32:44Z</time>
      </trkpt>
      <trkpt lat="48.47342" lon="-4.75279">
        <ele>7.8278809</ele>
        <time>2017-01-08T09:32:51Z</time>
      </trkpt>
      <trkpt lat="48.47345" lon="-4.75271">
        <ele>8.7891846</ele>
        <time>2017-01-08T09:32:55Z</time>
      </trkpt>
      <trkpt lat="48.47349" lon="-4.75261">
        <ele>8.7891846</ele>
        <time>2017-01-08T09:33:00Z</time>
      </trkpt>
      <trkpt lat="48.4735" lon="-4.75254">
        <ele>8.3085938</ele>
        <time>2017-01-08T09:33:03Z</time>
      </trkpt>
      <trkpt lat="48.47353" lon="-4.75239">
        <ele>6.8664551</ele>
        <time>2017-01-08T09:33:10Z</time>
      </trkpt>
      <trkpt lat="48.47355" lon="-4.75221">
        <ele>5.9052734</ele>
        <time>2017-01-08T09:33:18Z</time>
      </trkpt>
      <trkpt lat="48.47358" lon="-4.75204">
        <ele>6.3858643</ele>
        <time>2017-01-08T09:33:27Z</time>
      </trkpt>
      <trkpt lat="48.47363" lon="-4.75189">
        <ele>5.4245605</ele>
        <time>2017-01-08T09:33:35Z</time>
      </trkpt>
      <trkpt lat="48.47371" lon="-4.75186">
        <ele>4.4632568</ele>
        <time>2017-01-08T09:33:41Z</time>
      </trkpt>
      <trkpt lat="48.47376" lon="-4.75179">
        <ele>4.9438477</ele>
        <time>2017-01-08T09:33:45Z</time>
      </trkpt>
      <trkpt lat="48.47378" lon="-4.75168">
        <ele>4.9438477</ele>
        <time>2017-01-08T09:33:49Z</time>
      </trkpt>
      <trkpt lat="48.47379" lon="-4.75167">
        <ele>4.4632568</ele>
        <time>2017-01-08T09:33:50Z</time>
      </trkpt>
      <trkpt lat="48.47386" lon="-4.75158">
        <ele>4.4632568</ele>
        <time>2017-01-08T09:33:56Z</time>
      </trkpt>
      <trkpt lat="48.47388" lon="-4.75155">
        <ele>4.4632568</ele>
        <time>2017-01-08T09:33:58Z</time>
      </trkpt>
      <trkpt lat="48.47389" lon="-4.75151">
        <ele>4.9438477</ele>
        <time>2017-01-08T09:34:00Z</time>
      </trkpt>
      <trkpt lat="48.47397" lon="-4.75142">
        <ele>5.9052734</ele>
        <time>2017-01-08T09:34:06Z</time>
      </trkpt>
      <trkpt lat="48.474" lon="-4.75137">
        <ele>5.9052734</ele>
        <time>2017-01-08T09:34:09Z</time>
      </trkpt>
      <trkpt lat="48.47412" lon="-4.75122">
        <ele>5.4245605</ele>
        <time>2017-01-08T09:34:19Z</time>
      </trkpt>
      <trkpt lat="48.47423" lon="-4.75112">
        <ele>4.9438477</ele>
        <time>2017-01-08T09:34:27Z</time>
      </trkpt>
      <trkpt lat="48.47425" lon="-4.7511">
        <ele>4.9438477</ele>
        <time>2017-01-08T09:34:29Z</time>
      </trkpt>
      <trkpt lat="48.47429" lon="-4.75104">
        <ele>4.9438477</ele>
        <time>2017-01-08T09:34:33Z</time>
      </trkpt>
      <trkpt lat="48.47436" lon="-4.75086">
        <ele>4.4632568</ele>
        <time>2017-01-08T09:34:42Z</time>
      </trkpt>
      <trkpt lat="48.47439" lon="-4.75064">
        <ele>4.9438477</ele>
        <time>2017-01-08T09:34:51Z</time>
      </trkpt>
      <trkpt lat="48.47437" lon="-4.75041">
        <ele>4.4632568</ele>
        <time>2017-01-08T09:35:01Z</time>
      </trkpt>
      <trkpt lat="48.47431" lon="-4.7502">
        <ele>5.4245605</ele>
        <time>2017-01-08T09:35:11Z</time>
      </trkpt>
      <trkpt lat="48.47423" lon="-4.7501">
        <ele>6.3858643</ele>
        <time>2017-01-08T09:35:18Z</time>
      </trkpt>
      <trkpt lat="48.4741" lon="-4.74999">
        <ele>6.8664551</ele>
        <time>2017-01-08T09:35:27Z</time>
      </trkpt>
      <trkpt lat="48.47403" lon="-4.74994">
        <ele>8.3085938</ele>
        <time>2017-01-08T09:35:32Z</time>
      </trkpt>
      <trkpt lat="48.47394" lon="-4.74986">
        <ele>7.8278809</ele>
        <time>2017-01-08T09:35:38Z</time>
      </trkpt>
      <trkpt lat="48.47387" lon="-4.74979">
        <ele>6.8664551</ele>
        <time>2017-01-08T09:35:43Z</time>
      </trkpt>
      <trkpt lat="48.47386" lon="-4.74978">
        <ele>7.347168</ele>
        <time>2017-01-08T09:35:44Z</time>
      </trkpt>
      <trkpt lat="48.4738" lon="-4.74973">
        <ele>7.8278809</ele>
        <time>2017-01-08T09:35:48Z</time>
      </trkpt>
      <trkpt lat="48.47373" lon="-4.74968">
        <ele>7.347168</ele>
        <time>2017-01-08T09:35:53Z</time>
      </trkpt>
      <trkpt lat="48.47368" lon="-4.74964">
        <ele>7.347168</ele>
        <time>2017-01-08T09:35:57Z</time>
      </trkpt>
      <trkpt lat="48.47356" lon="-4.74955">
        <ele>5.9052734</ele>
        <time>2017-01-08T09:36:05Z</time>
      </trkpt>
      <trkpt lat="48.47346" lon="-4.74943">
        <ele>7.8278809</ele>
        <time>2017-01-08T09:36:12Z</time>
      </trkpt>
      <trkpt lat="48.47336" lon="-4.7493">
        <ele>7.8278809</ele>
        <time>2017-01-08T09:36:19Z</time>
      </trkpt>
      <trkpt lat="48.47329" lon="-4.74918">
        <ele>8.7891846</ele>
        <time>2017-01-08T09:36:25Z</time>
      </trkpt>
      <trkpt lat="48.4732" lon="-4.74902">
        <ele>9.7506104</ele>
        <time>2017-01-08T09:36:33Z</time>
      </trkpt>
      <trkpt lat="48.47313" lon="-4.7488">
        <ele>10.2312012</ele>
        <time>2017-01-08T09:36:44Z</time>
      </trkpt>
      <trkpt lat="48.47312" lon="-4.74877">
        <ele>10.2312012</ele>
        <time>2017-01-08T09:36:46Z</time>
      </trkpt>
      <trkpt lat="48.47308" lon="-4.74865">
        <ele>10.2312012</ele>
        <time>2017-01-08T09:36:52Z</time>
      </trkpt>
      <trkpt lat="48.47306" lon="-4.74845">
        <ele>11.6732178</ele>
        <time>2017-01-08T09:37:00Z</time>
      </trkpt>
      <trkpt lat="48.47303" lon="-4.74831">
        <ele>10.711792</ele>
        <time>2017-01-08T09:37:06Z</time>
      </trkpt>
      <trkpt lat="48.47302" lon="-4.74826">
        <ele>10.711792</ele>
        <time>2017-01-08T09:37:08Z</time>
      </trkpt>
      <trkpt lat="48.473" lon="-4.74818">
        <ele>10.2312012</ele>
        <time>2017-01-08T09:37:12Z</time>
      </trkpt>
      <trkpt lat="48.47298" lon="-4.74803">
        <ele>12.1538086</ele>
        <time>2017-01-08T09:37:18Z</time>
      </trkpt>
      <trkpt lat="48.47298" lon="-4.74791">
        <ele>12.1538086</ele>
        <time>2017-01-08T09:37:23Z</time>
      </trkpt>
      <trkpt lat="48.47297" lon="-4.74776">
        <ele>12.6343994</ele>
        <time>2017-01-08T09:37:29Z</time>
      </trkpt>
      <trkpt lat="48.47298" lon="-4.74762">
        <ele>12.6343994</ele>
        <time>2017-01-08T09:37:35Z</time>
      </trkpt>
      <trkpt lat="48.47301" lon="-4.74757">
        <ele>12.6343994</ele>
        <time>2017-01-08T09:37:39Z</time>
      </trkpt>
      <trkpt lat="48.47301" lon="-4.74748">
        <ele>12.6343994</ele>
        <time>2017-01-08T09:37:43Z</time>
      </trkpt>
      <trkpt lat="48.47302" lon="-4.74736">
        <ele>12.6343994</ele>
        <time>2017-01-08T09:37:48Z</time>
      </trkpt>
      <trkpt lat="48.47304" lon="-4.74726">
        <ele>13.5958252</ele>
        <time>2017-01-08T09:37:53Z</time>
      </trkpt>
      <trkpt lat="48.47305" lon="-4.74719">
        <ele>14.076416</ele>
        <time>2017-01-08T09:37:57Z</time>
      </trkpt>
      <trkpt lat="48.47305" lon="-4.7471">
        <ele>15.5184326</ele>
        <time>2017-01-08T09:38:01Z</time>
      </trkpt>
      <trkpt lat="48.47309" lon="-4.74697">
        <ele>17.4411621</ele>
        <time>2017-01-08T09:38:07Z</time>
      </trkpt>
      <trkpt lat="48.4731" lon="-4.74693">
        <ele>17.4411621</ele>
        <time>2017-01-08T09:38:09Z</time>
      </trkpt>
      <trkpt lat="48.47312" lon="-4.74683">
        <ele>17.9217529</ele>
        <time>2017-01-08T09:38:14Z</time>
      </trkpt>
      <trkpt lat="48.47315" lon="-4.74675">
        <ele>17.9217529</ele>
        <time>2017-01-08T09:38:18Z</time>
      </trkpt>
      <trkpt lat="48.47318" lon="-4.74664">
        <ele>17.4411621</ele>
        <time>2017-01-08T09:38:23Z</time>
      </trkpt>
      <trkpt lat="48.4732" lon="-4.74654">
        <ele>16.4797363</ele>
        <time>2017-01-08T09:38:27Z</time>
      </trkpt>
      <trkpt lat="48.47324" lon="-4.74641">
        <ele>16.4797363</ele>
        <time>2017-01-08T09:38:34Z</time>
      </trkpt>
      <trkpt lat="48.47331" lon="-4.74622">
        <ele>15.9990234</ele>
        <time>2017-01-08T09:38:44Z</time>
      </trkpt>
      <trkpt lat="48.47335" lon="-4.74614">
        <ele>15.9990234</ele>
        <time>2017-01-08T09:38:48Z</time>
      </trkpt>
      <trkpt lat="48.47342" lon="-4.74606">
        <ele>16.4797363</ele>
        <time>2017-01-08T09:38:53Z</time>
      </trkpt>
      <trkpt lat="48.47345" lon="-4.74602">
        <ele>15.9990234</ele>
        <time>2017-01-08T09:38:56Z</time>
      </trkpt>
      <trkpt lat="48.47354" lon="-4.74593">
        <ele>15.0377197</ele>
        <time>2017-01-08T09:39:04Z</time>
      </trkpt>
      <trkpt lat="48.47361" lon="-4.74587">
        <ele>14.5570068</ele>
        <time>2017-01-08T09:39:11Z</time>
      </trkpt>
      <trkpt lat="48.47364" lon="-4.74584">
        <ele>15.0377197</ele>
        <time>2017-01-08T09:39:13Z</time>
      </trkpt>
      <trkpt lat="48.47368" lon="-4.74576">
        <ele>15.0377197</ele>
        <time>2017-01-08T09:39:19Z</time>
      </trkpt>
      <trkpt lat="48.47371" lon="-4.74576">
        <ele>15.5184326</ele>
        <time>2017-01-08T09:39:23Z</time>
      </trkpt>
      <trkpt lat="48.47371" lon="-4.74576">
        <ele>15.9990234</ele>
        <time>2017-01-08T09:39:37Z</time>
      </trkpt>
      <trkpt lat="48.47373" lon="-4.74573">
        <ele>17.4411621</ele>
        <time>2017-01-08T09:41:24Z</time>
      </trkpt>
      <trkpt lat="48.47372" lon="-4.74571">
        <ele>18.4023438</ele>
        <time>2017-01-08T09:42:38Z</time>
      </trkpt>
      <trkpt lat="48.47372" lon="-4.74571">
        <ele>19.3637695</ele>
        <time>2017-01-08T09:43:02Z</time>
      </trkpt>
      <trkpt lat="48.47373" lon="-4.7457">
        <ele>17.9217529</ele>
        <time>2017-01-08T09:44:07Z</time>
      </trkpt>
      <trkpt lat="48.47374" lon="-4.74562">
        <ele>16.9604492</ele>
        <time>2017-01-08T09:44:28Z</time>
      </trkpt>
      <trkpt lat="48.47375" lon="-4.74553">
        <ele>15.9990234</ele>
        <time>2017-01-08T09:44:34Z</time>
      </trkpt>
      <trkpt lat="48.47377" lon="-4.74541">
        <ele>15.0377197</ele>
        <time>2017-01-08T09:44:40Z</time>
      </trkpt>
      <trkpt lat="48.47378" lon="-4.74526">
        <ele>15.5184326</ele>
        <time>2017-01-08T09:44:46Z</time>
      </trkpt>
      <trkpt lat="48.47378" lon="-4.74515">
        <ele>15.5184326</ele>
        <time>2017-01-08T09:44:51Z</time>
      </trkpt>
      <trkpt lat="48.47382" lon="-4.74497">
        <ele>14.076416</ele>
        <time>2017-01-08T09:44:58Z</time>
      </trkpt>
      <trkpt lat="48.47385" lon="-4.74481">
        <ele>11.1925049</ele>
        <time>2017-01-08T09:45:05Z</time>
      </trkpt>
      <trkpt lat="48.47386" lon="-4.74467">
        <ele>10.2312012</ele>
        <time>2017-01-08T09:45:11Z</time>
      </trkpt>
      <trkpt lat="48.47387" lon="-4.74453">
        <ele>9.2698975</ele>
        <time>2017-01-08T09:45:17Z</time>
      </trkpt>
      <trkpt lat="48.47389" lon="-4.7445">
        <ele>8.7891846</ele>
        <time>2017-01-08T09:45:19Z</time>
      </trkpt>
      <trkpt lat="48.47392" lon="-4.74437">
        <ele>8.3085938</ele>
        <time>2017-01-08T09:45:26Z</time>
      </trkpt>
      <trkpt lat="48.47394" lon="-4.74427">
        <ele>8.3085938</ele>
        <time>2017-01-08T09:45:31Z</time>
      </trkpt>
      <trkpt lat="48.47397" lon="-4.74415">
        <ele>8.7891846</ele>
        <time>2017-01-08T09:45:37Z</time>
      </trkpt>
      <trkpt lat="48.47399" lon="-4.74406">
        <ele>11.1925049</ele>
        <time>2017-01-08T09:45:41Z</time>
      </trkpt>
      <trkpt lat="48.47403" lon="-4.74396">
        <ele>13.1151123</ele>
        <time>2017-01-08T09:45:46Z</time>
      </trkpt>
      <trkpt lat="48.47403" lon="-4.74388">
        <ele>14.5570068</ele>
        <time>2017-01-08T09:45:49Z</time>
      </trkpt>
      <trkpt lat="48.47405" lon="-4.7438">
        <ele>15.0377197</ele>
        <time>2017-01-08T09:45:52Z</time>
      </trkpt>
      <trkpt lat="48.47406" lon="-4.74373">
        <ele>14.5570068</ele>
        <time>2017-01-08T09:45:55Z</time>
      </trkpt>
      <trkpt lat="48.47405" lon="-4.74368">
        <ele>14.076416</ele>
        <time>2017-01-08T09:45:57Z</time>
      </trkpt>
      <trkpt lat="48.47402" lon="-4.74363">
        <ele>13.5958252</ele>
        <time>2017-01-08T09:46:00Z</time>
      </trkpt>
      <trkpt lat="48.47394" lon="-4.7436">
        <ele>13.5958252</ele>
        <time>2017-01-08T09:46:06Z</time>
      </trkpt>
      <trkpt lat="48.4738" lon="-4.74358">
        <ele>12.6343994</ele>
        <time>2017-01-08T09:46:12Z</time>
      </trkpt>
      <trkpt lat="48.47375" lon="-4.74359">
        <ele>11.1925049</ele>
        <time>2017-01-08T09:46:16Z</time>
      </trkpt>
      <trkpt lat="48.47365" lon="-4.7436">
        <ele>9.2698975</ele>
        <time>2017-01-08T09:46:22Z</time>
      </trkpt>
      <trkpt lat="48.47364" lon="-4.7436">
        <ele>9.7506104</ele>
        <time>2017-01-08T09:46:23Z</time>
      </trkpt>
      <trkpt lat="48.47357" lon="-4.74352">
        <ele>9.7506104</ele>
        <time>2017-01-08T09:46:28Z</time>
      </trkpt>
      <trkpt lat="48.47352" lon="-4.74343">
        <ele>9.2698975</ele>
        <time>2017-01-08T09:46:33Z</time>
      </trkpt>
      <trkpt lat="48.47347" lon="-4.74338">
        <ele>9.2698975</ele>
        <time>2017-01-08T09:46:38Z</time>
      </trkpt>
      <trkpt lat="48.47344" lon="-4.74336">
        <ele>10.711792</ele>
        <time>2017-01-08T09:46:40Z</time>
      </trkpt>
      <trkpt lat="48.47331" lon="-4.7433">
        <ele>8.7891846</ele>
        <time>2017-01-08T09:46:48Z</time>
      </trkpt>
      <trkpt lat="48.47319" lon="-4.74325">
        <ele>3.982666</ele>
        <time>2017-01-08T09:46:56Z</time>
      </trkpt>
      <trkpt lat="48.47314" lon="-4.74315">
        <ele>3.0212402</ele>
        <time>2017-01-08T09:47:02Z</time>
      </trkpt>
      <trkpt lat="48.47312" lon="-4.74304">
        <ele>3.0212402</ele>
        <time>2017-01-08T09:47:07Z</time>
      </trkpt>
      <trkpt lat="48.47312" lon="-4.74302">
        <ele>3.0212402</ele>
        <time>2017-01-08T09:47:08Z</time>
      </trkpt>
      <trkpt lat="48.47308" lon="-4.74295">
        <ele>3.982666</ele>
        <time>2017-01-08T09:47:12Z</time>
      </trkpt>
      <trkpt lat="48.47306" lon="-4.74285">
        <ele>5.4245605</ele>
        <time>2017-01-08T09:47:17Z</time>
      </trkpt>
      <trkpt lat="48.47305" lon="-4.74268">
        <ele>5.4245605</ele>
        <time>2017-01-08T09:47:24Z</time>
      </trkpt>
      <trkpt lat="48.47302" lon="-4.7425">
        <ele>4.9438477</ele>
        <time>2017-01-08T09:47:32Z</time>
      </trkpt>
      <trkpt lat="48.47301" lon="-4.74243">
        <ele>3.982666</ele>
        <time>2017-01-08T09:47:35Z</time>
      </trkpt>
      <trkpt lat="48.473" lon="-4.74236">
        <ele>4.4632568</ele>
        <time>2017-01-08T09:47:38Z</time>
      </trkpt>
      <trkpt lat="48.473" lon="-4.74226">
        <ele>4.9438477</ele>
        <time>2017-01-08T09:47:42Z</time>
      </trkpt>
      <trkpt lat="48.47301" lon="-4.74218">
        <ele>4.9438477</ele>
        <time>2017-01-08T09:47:46Z</time>
      </trkpt>
      <trkpt lat="48.47296" lon="-4.74204">
        <ele>4.9438477</ele>
        <time>2017-01-08T09:47:53Z</time>
      </trkpt>
      <trkpt lat="48.47294" lon="-4.74201">
        <ele>4.9438477</ele>
        <time>2017-01-08T09:47:55Z</time>
      </trkpt>
      <trkpt lat="48.47287" lon="-4.74188">
        <ele>5.4245605</ele>
        <time>2017-01-08T09:48:02Z</time>
      </trkpt>
      <trkpt lat="48.47281" lon="-4.74179">
        <ele>5.9052734</ele>
        <time>2017-01-08T09:48:07Z</time>
      </trkpt>
      <trkpt lat="48.47273" lon="-4.74168">
        <ele>4.9438477</ele>
        <time>2017-01-08T09:48:13Z</time>
      </trkpt>
      <trkpt lat="48.47273" lon="-4.74166">
        <ele>4.4632568</ele>
        <time>2017-01-08T09:48:14Z</time>
      </trkpt>
      <trkpt lat="48.47269" lon="-4.74155">
        <ele>4.4632568</ele>
        <time>2017-01-08T09:48:18Z</time>
      </trkpt>
      <trkpt lat="48.47269" lon="-4.74141">
        <ele>3.5019531</ele>
        <time>2017-01-08T09:48:24Z</time>
      </trkpt>
      <trkpt lat="48.47271" lon="-4.74133">
        <ele>3.0212402</ele>
        <time>2017-01-08T09:48:28Z</time>
      </trkpt>
      <trkpt lat="48.47272" lon="-4.74128">
        <ele>3.0212402</ele>
        <time>2017-01-08T09:48:30Z</time>
      </trkpt>
      <trkpt lat="48.47268" lon="-4.74119">
        <ele>5.9052734</ele>
        <time>2017-01-08T09:48:37Z</time>
      </trkpt>
      <trkpt lat="48.47268" lon="-4.74116">
        <ele>6.3858643</ele>
        <time>2017-01-08T09:48:38Z</time>
      </trkpt>
      <trkpt lat="48.47266" lon="-4.74108">
        <ele>6.8664551</ele>
        <time>2017-01-08T09:48:42Z</time>
      </trkpt>
      <trkpt lat="48.47269" lon="-4.74097">
        <ele>6.3858643</ele>
        <time>2017-01-08T09:48:47Z</time>
      </trkpt>
      <trkpt lat="48.47277" lon="-4.74087">
        <ele>5.9052734</ele>
        <time>2017-01-08T09:48:55Z</time>
      </trkpt>
      <trkpt lat="48.47282" lon="-4.74075">
        <ele>6.8664551</ele>
        <time>2017-01-08T09:49:01Z</time>
      </trkpt>
      <trkpt lat="48.47284" lon="-4.74071">
        <ele>6.8664551</ele>
        <time>2017-01-08T09:49:04Z</time>
      </trkpt>
      <trkpt lat="48.47291" lon="-4.74068">
        <ele>7.347168</ele>
        <time>2017-01-08T09:49:10Z</time>
      </trkpt>
      <trkpt lat="48.47297" lon="-4.74056">
        <ele>7.8278809</ele>
        <time>2017-01-08T09:49:16Z</time>
      </trkpt>
      <trkpt lat="48.47297" lon="-4.74043">
        <ele>8.7891846</ele>
        <time>2017-01-08T09:49:20Z</time>
      </trkpt>
      <trkpt lat="48.47305" lon="-4.74038">
        <ele>7.347168</ele>
        <time>2017-01-08T09:49:25Z</time>
      </trkpt>
      <trkpt lat="48.47315" lon="-4.74048">
        <ele>3.5019531</ele>
        <time>2017-01-08T09:49:32Z</time>
      </trkpt>
      <trkpt lat="48.47321" lon="-4.74053">
        <ele>2.5406494</ele>
        <time>2017-01-08T09:49:37Z</time>
      </trkpt>
      <trkpt lat="48.47326" lon="-4.7406">
        <ele>1.0986328</ele>
        <time>2017-01-08T09:49:44Z</time>
      </trkpt>
      <trkpt lat="48.47332" lon="-4.74064">
        <ele>0.618042</ele>
        <time>2017-01-08T09:49:49Z</time>
      </trkpt>
      <trkpt lat="48.47332" lon="-4.74065">
        <ele>0.1374512</ele>
        <time>2017-01-08T09:49:50Z</time>
      </trkpt>
      <trkpt lat="48.47333" lon="-4.74071">
        <ele>-2.2659912</ele>
        <time>2017-01-08T09:49:54Z</time>
      </trkpt>
      <trkpt lat="48.47341" lon="-4.7408">
        <ele>-0.3433838</ele>
        <time>2017-01-08T09:50:00Z</time>
      </trkpt>
      <trkpt lat="48.47346" lon="-4.74079">
        <ele>1.5793457</ele>
        <time>2017-01-08T09:50:03Z</time>
      </trkpt>
      <trkpt lat="48.47362" lon="-4.74084">
        <ele>4.9438477</ele>
        <time>2017-01-08T09:50:10Z</time>
      </trkpt>
      <trkpt lat="48.47363" lon="-4.74084">
        <ele>4.4632568</ele>
        <time>2017-01-08T09:50:11Z</time>
      </trkpt>
      <trkpt lat="48.47366" lon="-4.74075">
        <ele>4.4632568</ele>
        <time>2017-01-08T09:50:15Z</time>
      </trkpt>
      <trkpt lat="48.47366" lon="-4.74061">
        <ele>3.982666</ele>
        <time>2017-01-08T09:50:21Z</time>
      </trkpt>
      <trkpt lat="48.47367" lon="-4.74055">
        <ele>4.4632568</ele>
        <time>2017-01-08T09:50:25Z</time>
      </trkpt>
      <trkpt lat="48.47361" lon="-4.74047">
        <ele>5.9052734</ele>
        <time>2017-01-08T09:50:31Z</time>
      </trkpt>
      <trkpt lat="48.4736" lon="-4.74046">
        <ele>5.9052734</ele>
        <time>2017-01-08T09:50:32Z</time>
      </trkpt>
      <trkpt lat="48.47355" lon="-4.7404">
        <ele>6.3858643</ele>
        <time>2017-01-08T09:50:37Z</time>
      </trkpt>
      <trkpt lat="48.4735" lon="-4.74026">
        <ele>4.9438477</ele>
        <time>2017-01-08T09:50:44Z</time>
      </trkpt>
      <trkpt lat="48.47348" lon="-4.74017">
        <ele>4.4632568</ele>
        <time>2017-01-08T09:50:48Z</time>
      </trkpt>
      <trkpt lat="48.47348" lon="-4.74006">
        <ele>3.982666</ele>
        <time>2017-01-08T09:50:53Z</time>
      </trkpt>
      <trkpt lat="48.47348" lon="-4.73995">
        <ele>3.982666</ele>
        <time>2017-01-08T09:50:58Z</time>
      </trkpt>
      <trkpt lat="48.47348" lon="-4.73985">
        <ele>3.982666</ele>
        <time>2017-01-08T09:51:03Z</time>
      </trkpt>
      <trkpt lat="48.47346" lon="-4.73975">
        <ele>2.5406494</ele>
        <time>2017-01-08T09:51:08Z</time>
      </trkpt>
      <trkpt lat="48.47346" lon="-4.73966">
        <ele>3.0212402</ele>
        <time>2017-01-08T09:51:12Z</time>
      </trkpt>
      <trkpt lat="48.47346" lon="-4.73964">
        <ele>3.0212402</ele>
        <time>2017-01-08T09:51:13Z</time>
      </trkpt>
      <trkpt lat="48.47345" lon="-4.73959">
        <ele>3.5019531</ele>
        <time>2017-01-08T09:51:15Z</time>
      </trkpt>
      <trkpt lat="48.47338" lon="-4.73946">
        <ele>3.5019531</ele>
        <time>2017-01-08T09:51:19Z</time>
      </trkpt>
      <trkpt lat="48.47338" lon="-4.73933">
        <ele>3.982666</ele>
        <time>2017-01-08T09:51:23Z</time>
      </trkpt>
      <trkpt lat="48.47337" lon="-4.73922">
        <ele>3.0212402</ele>
        <time>2017-01-08T09:51:27Z</time>
      </trkpt>
      <trkpt lat="48.47338" lon="-4.7391">
        <ele>2.5406494</ele>
        <time>2017-01-08T09:51:34Z</time>
      </trkpt>
      <trkpt lat="48.47337" lon="-4.73904">
        <ele>2.5406494</ele>
        <time>2017-01-08T09:51:37Z</time>
      </trkpt>
      <trkpt lat="48.47333" lon="-4.7389">
        <ele>3.0212402</ele>
        <time>2017-01-08T09:51:43Z</time>
      </trkpt>
      <trkpt lat="48.4733" lon="-4.73882">
        <ele>2.5406494</ele>
        <time>2017-01-08T09:51:47Z</time>
      </trkpt>
      <trkpt lat="48.47326" lon="-4.73871">
        <ele>2.5406494</ele>
        <time>2017-01-08T09:51:54Z</time>
      </trkpt>
      <trkpt lat="48.47321" lon="-4.73859">
        <ele>2.5406494</ele>
        <time>2017-01-08T09:51:59Z</time>
      </trkpt>
      <trkpt lat="48.47316" lon="-4.73843">
        <ele>3.982666</ele>
        <time>2017-01-08T09:52:06Z</time>
      </trkpt>
      <trkpt lat="48.47318" lon="-4.73829">
        <ele>4.4632568</ele>
        <time>2017-01-08T09:52:12Z</time>
      </trkpt>
      <trkpt lat="48.47322" lon="-4.73816">
        <ele>5.4245605</ele>
        <time>2017-01-08T09:52:18Z</time>
      </trkpt>
      <trkpt lat="48.47325" lon="-4.73803">
        <ele>6.3858643</ele>
        <time>2017-01-08T09:52:24Z</time>
      </trkpt>
      <trkpt lat="48.47325" lon="-4.73791">
        <ele>6.8664551</ele>
        <time>2017-01-08T09:52:30Z</time>
      </trkpt>
      <trkpt lat="48.47325" lon="-4.7379">
        <ele>6.8664551</ele>
        <time>2017-01-08T09:52:31Z</time>
      </trkpt>
      <trkpt lat="48.47322" lon="-4.73784">
        <ele>5.9052734</ele>
        <time>2017-01-08T09:52:34Z</time>
      </trkpt>
      <trkpt lat="48.47315" lon="-4.73775">
        <ele>5.4245605</ele>
        <time>2017-01-08T09:52:39Z</time>
      </trkpt>
      <trkpt lat="48.47314" lon="-4.7377">
        <ele>4.9438477</ele>
        <time>2017-01-08T09:52:41Z</time>
      </trkpt>
      <trkpt lat="48.47319" lon="-4.73757">
        <ele>6.3858643</ele>
        <time>2017-01-08T09:52:48Z</time>
      </trkpt>
      <trkpt lat="48.47321" lon="-4.73755">
        <ele>6.8664551</ele>
        <time>2017-01-08T09:52:50Z</time>
      </trkpt>
      <trkpt lat="48.47324" lon="-4.73754">
        <ele>6.3858643</ele>
        <time>2017-01-08T09:52:52Z</time>
      </trkpt>
      <trkpt lat="48.4733" lon="-4.73755">
        <ele>5.9052734</ele>
        <time>2017-01-08T09:52:57Z</time>
      </trkpt>
      <trkpt lat="48.47334" lon="-4.73755">
        <ele>4.9438477</ele>
        <time>2017-01-08T09:53:01Z</time>
      </trkpt>
      <trkpt lat="48.47342" lon="-4.73753">
        <ele>4.9438477</ele>
        <time>2017-01-08T09:53:07Z</time>
      </trkpt>
      <trkpt lat="48.47344" lon="-4.73753">
        <ele>5.4245605</ele>
        <time>2017-01-08T09:53:08Z</time>
      </trkpt>
      <trkpt lat="48.47352" lon="-4.73747">
        <ele>9.2698975</ele>
        <time>2017-01-08T09:53:14Z</time>
      </trkpt>
      <trkpt lat="48.47355" lon="-4.73744">
        <ele>11.6732178</ele>
        <time>2017-01-08T09:53:16Z</time>
      </trkpt>
      <trkpt lat="48.47367" lon="-4.73738">
        <ele>12.1538086</ele>
        <time>2017-01-08T09:53:23Z</time>
      </trkpt>
      <trkpt lat="48.47373" lon="-4.73737">
        <ele>11.6732178</ele>
        <time>2017-01-08T09:53:26Z</time>
      </trkpt>
      <trkpt lat="48.4738" lon="-4.73731">
        <ele>10.711792</ele>
        <time>2017-01-08T09:53:31Z</time>
      </trkpt>
      <trkpt lat="48.4739" lon="-4.73721">
        <ele>12.1538086</ele>
        <time>2017-01-08T09:53:38Z</time>
      </trkpt>
      <trkpt lat="48.47399" lon="-4.73715">
        <ele>12.6343994</ele>
        <time>2017-01-08T09:53:44Z</time>
      </trkpt>
      <trkpt lat="48.47406" lon="-4.73709">
        <ele>15.0377197</ele>
        <time>2017-01-08T09:53:49Z</time>
      </trkpt>
      <trkpt lat="48.47414" lon="-4.73703">
        <ele>15.5184326</ele>
        <time>2017-01-08T09:53:54Z</time>
      </trkpt>
      <trkpt lat="48.47421" lon="-4.737">
        <ele>13.1151123</ele>
        <time>2017-01-08T09:53:58Z</time>
      </trkpt>
      <trkpt lat="48.47426" lon="-4.73697">
        <ele>10.711792</ele>
        <time>2017-01-08T09:54:03Z</time>
      </trkpt>
      <trkpt lat="48.47434" lon="-4.73686">
        <ele>9.2698975</ele>
        <time>2017-01-08T09:54:09Z</time>
      </trkpt>
      <trkpt lat="48.47432" lon="-4.73674">
        <ele>8.3085938</ele>
        <time>2017-01-08T09:54:15Z</time>
      </trkpt>
      <trkpt lat="48.4743" lon="-4.73665">
        <ele>6.3858643</ele>
        <time>2017-01-08T09:54:20Z</time>
      </trkpt>
      <trkpt lat="48.47423" lon="-4.73664">
        <ele>4.4632568</ele>
        <time>2017-01-08T09:54:25Z</time>
      </trkpt>
      <trkpt lat="48.47419" lon="-4.73664">
        <ele>3.982666</ele>
        <time>2017-01-08T09:54:28Z</time>
      </trkpt>
      <trkpt lat="48.47411" lon="-4.73661">
        <ele>5.9052734</ele>
        <time>2017-01-08T09:54:34Z</time>
      </trkpt>
      <trkpt lat="48.47404" lon="-4.73659">
        <ele>8.7891846</ele>
        <time>2017-01-08T09:54:39Z</time>
      </trkpt>
      <trkpt lat="48.47397" lon="-4.7366">
        <ele>9.2698975</ele>
        <time>2017-01-08T09:54:44Z</time>
      </trkpt>
      <trkpt lat="48.47387" lon="-4.73666">
        <ele>8.3085938</ele>
        <time>2017-01-08T09:54:51Z</time>
      </trkpt>
      <trkpt lat="48.47379" lon="-4.7367">
        <ele>7.347168</ele>
        <time>2017-01-08T09:54:55Z</time>
      </trkpt>
      <trkpt lat="48.47377" lon="-4.73671">
        <ele>6.8664551</ele>
        <time>2017-01-08T09:54:56Z</time>
      </trkpt>
      <trkpt lat="48.47372" lon="-4.73673">
        <ele>4.9438477</ele>
        <time>2017-01-08T09:54:59Z</time>
      </trkpt>
      <trkpt lat="48.47364" lon="-4.73673">
        <ele>3.0212402</ele>
        <time>2017-01-08T09:55:04Z</time>
      </trkpt>
      <trkpt lat="48.47361" lon="-4.73674">
        <ele>2.0600586</ele>
        <time>2017-01-08T09:55:06Z</time>
      </trkpt>
      <trkpt lat="48.47352" lon="-4.73673">
        <ele>1.0986328</ele>
        <time>2017-01-08T09:55:11Z</time>
      </trkpt>
      <trkpt lat="48.47344" lon="-4.73671">
        <ele>-0.8240967</ele>
        <time>2017-01-08T09:55:16Z</time>
      </trkpt>
      <trkpt lat="48.47341" lon="-4.73672">
        <ele>-0.3433838</ele>
        <time>2017-01-08T09:55:18Z</time>
      </trkpt>
      <trkpt lat="48.47339" lon="-4.73675">
        <ele>0.618042</ele>
        <time>2017-01-08T09:55:20Z</time>
      </trkpt>
      <trkpt lat="48.47332" lon="-4.73676">
        <ele>-0.3433838</ele>
        <time>2017-01-08T09:55:25Z</time>
      </trkpt>
      <trkpt lat="48.47325" lon="-4.73669">
        <ele>1.0986328</ele>
        <time>2017-01-08T09:55:30Z</time>
      </trkpt>
      <trkpt lat="48.47326" lon="-4.7366">
        <ele>1.0986328</ele>
        <time>2017-01-08T09:55:34Z</time>
      </trkpt>
      <trkpt lat="48.47328" lon="-4.73656">
        <ele>2.0600586</ele>
        <time>2017-01-08T09:55:36Z</time>
      </trkpt>
      <trkpt lat="48.47335" lon="-4.7365">
        <ele>3.5019531</ele>
        <time>2017-01-08T09:55:42Z</time>
      </trkpt>
      <trkpt lat="48.4734" lon="-4.73645">
        <ele>4.9438477</ele>
        <time>2017-01-08T09:55:46Z</time>
      </trkpt>
      <trkpt lat="48.47345" lon="-4.73641">
        <ele>4.9438477</ele>
        <time>2017-01-08T09:55:50Z</time>
      </trkpt>
      <trkpt lat="48.47351" lon="-4.73636">
        <ele>5.9052734</ele>
        <time>2017-01-08T09:55:56Z</time>
      </trkpt>
      <trkpt lat="48.47353" lon="-4.73621">
        <ele>5.4245605</ele>
        <time>2017-01-08T09:56:02Z</time>
      </trkpt>
      <trkpt lat="48.47352" lon="-4.73607">
        <ele>6.8664551</ele>
        <time>2017-01-08T09:56:07Z</time>
      </trkpt>
      <trkpt lat="48.47353" lon="-4.73595">
        <ele>7.8278809</ele>
        <time>2017-01-08T09:56:12Z</time>
      </trkpt>
      <trkpt lat="48.4735" lon="-4.73583">
        <ele>8.3085938</ele>
        <time>2017-01-08T09:56:17Z</time>
      </trkpt>
      <trkpt lat="48.47348" lon="-4.73577">
        <ele>7.347168</ele>
        <time>2017-01-08T09:56:19Z</time>
      </trkpt>
      <trkpt lat="48.47344" lon="-4.73568">
        <ele>4.9438477</ele>
        <time>2017-01-08T09:56:24Z</time>
      </trkpt>
      <trkpt lat="48.47348" lon="-4.73551">
        <ele>4.4632568</ele>
        <time>2017-01-08T09:56:31Z</time>
      </trkpt>
      <trkpt lat="48.47351" lon="-4.73539">
        <ele>4.4632568</ele>
        <time>2017-01-08T09:56:38Z</time>
      </trkpt>
      <trkpt lat="48.47355" lon="-4.73529">
        <ele>4.4632568</ele>
        <time>2017-01-08T09:56:43Z</time>
      </trkpt>
      <trkpt lat="48.47356" lon="-4.73524">
        <ele>5.4245605</ele>
        <time>2017-01-08T09:56:45Z</time>
      </trkpt>
      <trkpt lat="48.47359" lon="-4.73516">
        <ele>4.4632568</ele>
        <time>2017-01-08T09:56:49Z</time>
      </trkpt>
      <trkpt lat="48.47361" lon="-4.73509">
        <ele>5.4245605</ele>
        <time>2017-01-08T09:56:53Z</time>
      </trkpt>
      <trkpt lat="48.47369" lon="-4.735">
        <ele>6.3858643</ele>
        <time>2017-01-08T09:56:59Z</time>
      </trkpt>
      <trkpt lat="48.47371" lon="-4.73498">
        <ele>6.3858643</ele>
        <time>2017-01-08T09:57:00Z</time>
      </trkpt>
      <trkpt lat="48.47376" lon="-4.73499">
        <ele>6.8664551</ele>
        <time>2017-01-08T09:57:05Z</time>
      </trkpt>
      <trkpt lat="48.47384" lon="-4.73487">
        <ele>8.3085938</ele>
        <time>2017-01-08T09:57:12Z</time>
      </trkpt>
      <trkpt lat="48.47387" lon="-4.73474">
        <ele>8.3085938</ele>
        <time>2017-01-08T09:57:17Z</time>
      </trkpt>
      <trkpt lat="48.47394" lon="-4.73466">
        <ele>8.3085938</ele>
        <time>2017-01-08T09:57:22Z</time>
      </trkpt>
      <trkpt lat="48.47399" lon="-4.73467">
        <ele>8.7891846</ele>
        <time>2017-01-08T09:57:27Z</time>
      </trkpt>
      <trkpt lat="48.47402" lon="-4.73467">
        <ele>8.7891846</ele>
        <time>2017-01-08T09:57:30Z</time>
      </trkpt>
      <trkpt lat="48.4741" lon="-4.73465">
        <ele>10.2312012</ele>
        <time>2017-01-08T09:57:36Z</time>
      </trkpt>
      <trkpt lat="48.4741" lon="-4.73464">
        <ele>10.711792</ele>
        <time>2017-01-08T09:57:37Z</time>
      </trkpt>
      <trkpt lat="48.47412" lon="-4.73455">
        <ele>11.1925049</ele>
        <time>2017-01-08T09:57:41Z</time>
      </trkpt>
      <trkpt lat="48.4741" lon="-4.73444">
        <ele>11.1925049</ele>
        <time>2017-01-08T09:57:47Z</time>
      </trkpt>
      <trkpt lat="48.47409" lon="-4.73435">
        <ele>10.711792</ele>
        <time>2017-01-08T09:57:51Z</time>
      </trkpt>
      <trkpt lat="48.47409" lon="-4.73431">
        <ele>10.2312012</ele>
        <time>2017-01-08T09:57:53Z</time>
      </trkpt>
      <trkpt lat="48.47413" lon="-4.73426">
        <ele>7.347168</ele>
        <time>2017-01-08T09:57:59Z</time>
      </trkpt>
      <trkpt lat="48.47415" lon="-4.73423">
        <ele>5.9052734</ele>
        <time>2017-01-08T09:58:01Z</time>
      </trkpt>
      <trkpt lat="48.47421" lon="-4.73415">
        <ele>4.4632568</ele>
        <time>2017-01-08T09:58:05Z</time>
      </trkpt>
      <trkpt lat="48.47426" lon="-4.73407">
        <ele>3.0212402</ele>
        <time>2017-01-08T09:58:09Z</time>
      </trkpt>
      <trkpt lat="48.47428" lon="-4.73406">
        <ele>2.5406494</ele>
        <time>2017-01-08T09:58:10Z</time>
      </trkpt>
      <trkpt lat="48.47433" lon="-4.73395">
        <ele>3.5019531</ele>
        <time>2017-01-08T09:58:15Z</time>
      </trkpt>
      <trkpt lat="48.47437" lon="-4.73385">
        <ele>3.982666</ele>
        <time>2017-01-08T09:58:20Z</time>
      </trkpt>
      <trkpt lat="48.47444" lon="-4.7338">
        <ele>4.4632568</ele>
        <time>2017-01-08T09:58:25Z</time>
      </trkpt>
      <trkpt lat="48.47445" lon="-4.73379">
        <ele>4.4632568</ele>
        <time>2017-01-08T09:58:26Z</time>
      </trkpt>
      <trkpt lat="48.47454" lon="-4.73372">
        <ele>4.4632568</ele>
        <time>2017-01-08T09:58:32Z</time>
      </trkpt>
      <trkpt lat="48.4746" lon="-4.7336">
        <ele>3.982666</ele>
        <time>2017-01-08T09:58:37Z</time>
      </trkpt>
      <trkpt lat="48.47465" lon="-4.73348">
        <ele>3.982666</ele>
        <time>2017-01-08T09:58:43Z</time>
      </trkpt>
      <trkpt lat="48.47467" lon="-4.73342">
        <ele>4.4632568</ele>
        <time>2017-01-08T09:58:46Z</time>
      </trkpt>
      <trkpt lat="48.47471" lon="-4.73336">
        <ele>4.9438477</ele>
        <time>2017-01-08T09:58:49Z</time>
      </trkpt>
      <trkpt lat="48.47475" lon="-4.73327">
        <ele>5.9052734</ele>
        <time>2017-01-08T09:58:54Z</time>
      </trkpt>
      <trkpt lat="48.47476" lon="-4.73325">
        <ele>5.9052734</ele>
        <time>2017-01-08T09:58:55Z</time>
      </trkpt>
      <trkpt lat="48.47476" lon="-4.73311">
        <ele>6.3858643</ele>
        <time>2017-01-08T09:59:01Z</time>
      </trkpt>
      <trkpt lat="48.47474" lon="-4.73297">
        <ele>6.3858643</ele>
        <time>2017-01-08T09:59:06Z</time>
      </trkpt>
      <trkpt lat="48.47474" lon="-4.73289">
        <ele>4.9438477</ele>
        <time>2017-01-08T09:59:09Z</time>
      </trkpt>
      <trkpt lat="48.47474" lon="-4.73278">
        <ele>4.9438477</ele>
        <time>2017-01-08T09:59:14Z</time>
      </trkpt>
      <trkpt lat="48.47476" lon="-4.73263">
        <ele>3.0212402</ele>
        <time>2017-01-08T09:59:21Z</time>
      </trkpt>
      <trkpt lat="48.47473" lon="-4.73254">
        <ele>3.5019531</ele>
        <time>2017-01-08T09:59:25Z</time>
      </trkpt>
      <trkpt lat="48.47473" lon="-4.73246">
        <ele>4.9438477</ele>
        <time>2017-01-08T09:59:29Z</time>
      </trkpt>
      <trkpt lat="48.47475" lon="-4.73238">
        <ele>5.9052734</ele>
        <time>2017-01-08T09:59:35Z</time>
      </trkpt>
      <trkpt lat="48.47473" lon="-4.73229">
        <ele>4.9438477</ele>
        <time>2017-01-08T09:59:39Z</time>
      </trkpt>
      <trkpt lat="48.47472" lon="-4.73221">
        <ele>4.9438477</ele>
        <time>2017-01-08T09:59:42Z</time>
      </trkpt>
      <trkpt lat="48.47469" lon="-4.73211">
        <ele>4.4632568</ele>
        <time>2017-01-08T09:59:47Z</time>
      </trkpt>
      <trkpt lat="48.47465" lon="-4.73199">
        <ele>3.0212402</ele>
        <time>2017-01-08T09:59:52Z</time>
      </trkpt>
      <trkpt lat="48.47465" lon="-4.73197">
        <ele>3.0212402</ele>
        <time>2017-01-08T09:59:53Z</time>
      </trkpt>
      <trkpt lat="48.47466" lon="-4.73183">
        <ele>3.982666</ele>
        <time>2017-01-08T09:59:59Z</time>
      </trkpt>
      <trkpt lat="48.47471" lon="-4.73174">
        <ele>4.9438477</ele>
        <time>2017-01-08T10:00:04Z</time>
      </trkpt>
      <trkpt lat="48.47478" lon="-4.73167">
        <ele>4.4632568</ele>
        <time>2017-01-08T10:00:09Z</time>
      </trkpt>
      <trkpt lat="48.47485" lon="-4.73156">
        <ele>5.4245605</ele>
        <time>2017-01-08T10:00:15Z</time>
      </trkpt>
      <trkpt lat="48.47494" lon="-4.73149">
        <ele>4.4632568</ele>
        <time>2017-01-08T10:00:20Z</time>
      </trkpt>
      <trkpt lat="48.47499" lon="-4.73141">
        <ele>3.982666</ele>
        <time>2017-01-08T10:00:25Z</time>
      </trkpt>
      <trkpt lat="48.47503" lon="-4.73129">
        <ele>4.4632568</ele>
        <time>2017-01-08T10:00:30Z</time>
      </trkpt>
      <trkpt lat="48.47504" lon="-4.73124">
        <ele>5.4245605</ele>
        <time>2017-01-08T10:00:32Z</time>
      </trkpt>
      <trkpt lat="48.47505" lon="-4.73105">
        <ele>5.9052734</ele>
        <time>2017-01-08T10:00:40Z</time>
      </trkpt>
      <trkpt lat="48.47508" lon="-4.73097">
        <ele>5.4245605</ele>
        <time>2017-01-08T10:00:44Z</time>
      </trkpt>
      <trkpt lat="48.47507" lon="-4.73086">
        <ele>4.9438477</ele>
        <time>2017-01-08T10:00:49Z</time>
      </trkpt>
      <trkpt lat="48.47505" lon="-4.73077">
        <ele>4.4632568</ele>
        <time>2017-01-08T10:00:53Z</time>
      </trkpt>
      <trkpt lat="48.47503" lon="-4.73066">
        <ele>3.982666</ele>
        <time>2017-01-08T10:00:58Z</time>
      </trkpt>
      <trkpt lat="48.47504" lon="-4.73058">
        <ele>4.4632568</ele>
        <time>2017-01-08T10:01:02Z</time>
      </trkpt>
      <trkpt lat="48.475" lon="-4.73046">
        <ele>5.4245605</ele>
        <time>2017-01-08T10:01:07Z</time>
      </trkpt>
      <trkpt lat="48.475" lon="-4.73035">
        <ele>6.8664551</ele>
        <time>2017-01-08T10:01:12Z</time>
      </trkpt>
      <trkpt lat="48.47501" lon="-4.73032">
        <ele>5.4245605</ele>
        <time>2017-01-08T10:01:14Z</time>
      </trkpt>
      <trkpt lat="48.47512" lon="-4.73021">
        <ele>3.982666</ele>
        <time>2017-01-08T10:01:21Z</time>
      </trkpt>
      <trkpt lat="48.47514" lon="-4.73017">
        <ele>3.5019531</ele>
        <time>2017-01-08T10:01:24Z</time>
      </trkpt>
      <trkpt lat="48.47519" lon="-4.73005">
        <ele>2.5406494</ele>
        <time>2017-01-08T10:01:30Z</time>
      </trkpt>
      <trkpt lat="48.4752" lon="-4.73003">
        <ele>2.0600586</ele>
        <time>2017-01-08T10:01:31Z</time>
      </trkpt>
      <trkpt lat="48.47522" lon="-4.72986">
        <ele>3.982666</ele>
        <time>2017-01-08T10:01:38Z</time>
      </trkpt>
      <trkpt lat="48.47521" lon="-4.72978">
        <ele>6.8664551</ele>
        <time>2017-01-08T10:01:42Z</time>
      </trkpt>
      <trkpt lat="48.47518" lon="-4.72969">
        <ele>8.3085938</ele>
        <time>2017-01-08T10:01:47Z</time>
      </trkpt>
      <trkpt lat="48.47515" lon="-4.72964">
        <ele>8.3085938</ele>
        <time>2017-01-08T10:01:51Z</time>
      </trkpt>
      <trkpt lat="48.47512" lon="-4.72963">
        <ele>7.8278809</ele>
        <time>2017-01-08T10:01:53Z</time>
      </trkpt>
      <trkpt lat="48.47509" lon="-4.72963">
        <ele>7.8278809</ele>
        <time>2017-01-08T10:01:55Z</time>
      </trkpt>
      <trkpt lat="48.47501" lon="-4.72964">
        <ele>7.347168</ele>
        <time>2017-01-08T10:02:00Z</time>
      </trkpt>
      <trkpt lat="48.47495" lon="-4.7296">
        <ele>5.9052734</ele>
        <time>2017-01-08T10:02:04Z</time>
      </trkpt>
      <trkpt lat="48.4749" lon="-4.72954">
        <ele>5.4245605</ele>
        <time>2017-01-08T10:02:09Z</time>
      </trkpt>
      <trkpt lat="48.47486" lon="-4.72954">
        <ele>4.9438477</ele>
        <time>2017-01-08T10:02:12Z</time>
      </trkpt>
      <trkpt lat="48.4748" lon="-4.72945">
        <ele>3.5019531</ele>
        <time>2017-01-08T10:02:18Z</time>
      </trkpt>
      <trkpt lat="48.47481" lon="-4.72927">
        <ele>4.4632568</ele>
        <time>2017-01-08T10:02:25Z</time>
      </trkpt>
      <trkpt lat="48.47485" lon="-4.72919">
        <ele>4.9438477</ele>
        <time>2017-01-08T10:02:29Z</time>
      </trkpt>
      <trkpt lat="48.47488" lon="-4.72914">
        <ele>5.4245605</ele>
        <time>2017-01-08T10:02:32Z</time>
      </trkpt>
      <trkpt lat="48.47494" lon="-4.729">
        <ele>4.9438477</ele>
        <time>2017-01-08T10:02:40Z</time>
      </trkpt>
      <trkpt lat="48.47498" lon="-4.72886">
        <ele>6.3858643</ele>
        <time>2017-01-08T10:02:47Z</time>
      </trkpt>
      <trkpt lat="48.475" lon="-4.72879">
        <ele>6.8664551</ele>
        <time>2017-01-08T10:02:50Z</time>
      </trkpt>
      <trkpt lat="48.47501" lon="-4.72869">
        <ele>7.8278809</ele>
        <time>2017-01-08T10:02:54Z</time>
      </trkpt>
      <trkpt lat="48.47501" lon="-4.72855">
        <ele>10.2312012</ele>
        <time>2017-01-08T10:03:00Z</time>
      </trkpt>
      <trkpt lat="48.47502" lon="-4.72849">
        <ele>10.2312012</ele>
        <time>2017-01-08T10:03:03Z</time>
      </trkpt>
      <trkpt lat="48.47502" lon="-4.72837">
        <ele>10.2312012</ele>
        <time>2017-01-08T10:03:09Z</time>
      </trkpt>
      <trkpt lat="48.47505" lon="-4.7283">
        <ele>10.711792</ele>
        <time>2017-01-08T10:03:13Z</time>
      </trkpt>
      <trkpt lat="48.47507" lon="-4.72826">
        <ele>10.711792</ele>
        <time>2017-01-08T10:03:15Z</time>
      </trkpt>
      <trkpt lat="48.47511" lon="-4.72819">
        <ele>10.711792</ele>
        <time>2017-01-08T10:03:20Z</time>
      </trkpt>
      <trkpt lat="48.4751" lon="-4.72809">
        <ele>11.6732178</ele>
        <time>2017-01-08T10:03:25Z</time>
      </trkpt>
      <trkpt lat="48.47509" lon="-4.72807">
        <ele>11.6732178</ele>
        <time>2017-01-08T10:03:26Z</time>
      </trkpt>
      <trkpt lat="48.47506" lon="-4.72803">
        <ele>10.711792</ele>
        <time>2017-01-08T10:03:29Z</time>
      </trkpt>
      <trkpt lat="48.47502" lon="-4.72796">
        <ele>8.7891846</ele>
        <time>2017-01-08T10:03:34Z</time>
      </trkpt>
      <trkpt lat="48.47502" lon="-4.72789">
        <ele>7.8278809</ele>
        <time>2017-01-08T10:03:38Z</time>
      </trkpt>
      <trkpt lat="48.47504" lon="-4.72781">
        <ele>6.8664551</ele>
        <time>2017-01-08T10:03:42Z</time>
      </trkpt>
      <trkpt lat="48.47505" lon="-4.72768">
        <ele>6.8664551</ele>
        <time>2017-01-08T10:03:46Z</time>
      </trkpt>
      <trkpt lat="48.47503" lon="-4.72756">
        <ele>7.347168</ele>
        <time>2017-01-08T10:03:51Z</time>
      </trkpt>
      <trkpt lat="48.47503" lon="-4.72751">
        <ele>6.8664551</ele>
        <time>2017-01-08T10:03:53Z</time>
      </trkpt>
      <trkpt lat="48.47505" lon="-4.72737">
        <ele>4.9438477</ele>
        <time>2017-01-08T10:04:00Z</time>
      </trkpt>
      <trkpt lat="48.47508" lon="-4.72735">
        <ele>5.4245605</ele>
        <time>2017-01-08T10:04:03Z</time>
      </trkpt>
      <trkpt lat="48.47509" lon="-4.72733">
        <ele>6.3858643</ele>
        <time>2017-01-08T10:04:05Z</time>
      </trkpt>
      <trkpt lat="48.47513" lon="-4.72726">
        <ele>6.3858643</ele>
        <time>2017-01-08T10:04:09Z</time>
      </trkpt>
      <trkpt lat="48.47517" lon="-4.72708">
        <ele>8.3085938</ele>
        <time>2017-01-08T10:04:16Z</time>
      </trkpt>
      <trkpt lat="48.47519" lon="-4.72698">
        <ele>9.7506104</ele>
        <time>2017-01-08T10:04:21Z</time>
      </trkpt>
      <trkpt lat="48.47524" lon="-4.72692">
        <ele>12.1538086</ele>
        <time>2017-01-08T10:04:25Z</time>
      </trkpt>
      <trkpt lat="48.47518" lon="-4.72681">
        <ele>10.711792</ele>
        <time>2017-01-08T10:04:30Z</time>
      </trkpt>
      <trkpt lat="48.47519" lon="-4.72669">
        <ele>10.2312012</ele>
        <time>2017-01-08T10:04:34Z</time>
      </trkpt>
      <trkpt lat="48.47518" lon="-4.72664">
        <ele>9.7506104</ele>
        <time>2017-01-08T10:04:36Z</time>
      </trkpt>
      <trkpt lat="48.47519" lon="-4.72653">
        <ele>10.711792</ele>
        <time>2017-01-08T10:04:41Z</time>
      </trkpt>
      <trkpt lat="48.4752" lon="-4.7265">
        <ele>10.2312012</ele>
        <time>2017-01-08T10:04:43Z</time>
      </trkpt>
      <trkpt lat="48.47526" lon="-4.72634">
        <ele>9.2698975</ele>
        <time>2017-01-08T10:04:50Z</time>
      </trkpt>
      <trkpt lat="48.47526" lon="-4.72631">
        <ele>9.7506104</ele>
        <time>2017-01-08T10:04:51Z</time>
      </trkpt>
      <trkpt lat="48.4753" lon="-4.72614">
        <ele>9.7506104</ele>
        <time>2017-01-08T10:04:59Z</time>
      </trkpt>
      <trkpt lat="48.47535" lon="-4.72606">
        <ele>10.2312012</ele>
        <time>2017-01-08T10:05:03Z</time>
      </trkpt>
      <trkpt lat="48.47543" lon="-4.72593">
        <ele>12.1538086</ele>
        <time>2017-01-08T10:05:10Z</time>
      </trkpt>
      <trkpt lat="48.47548" lon="-4.72588">
        <ele>12.1538086</ele>
        <time>2017-01-08T10:05:14Z</time>
      </trkpt>
      <trkpt lat="48.47548" lon="-4.72584">
        <ele>12.1538086</ele>
        <time>2017-01-08T10:05:16Z</time>
      </trkpt>
      <trkpt lat="48.47552" lon="-4.72577">
        <ele>12.6343994</ele>
        <time>2017-01-08T10:05:20Z</time>
      </trkpt>
      <trkpt lat="48.47555" lon="-4.72568">
        <ele>12.1538086</ele>
        <time>2017-01-08T10:05:25Z</time>
      </trkpt>
      <trkpt lat="48.47557" lon="-4.72557">
        <ele>11.1925049</ele>
        <time>2017-01-08T10:05:30Z</time>
      </trkpt>
      <trkpt lat="48.47561" lon="-4.72548">
        <ele>10.2312012</ele>
        <time>2017-01-08T10:05:35Z</time>
      </trkpt>
      <trkpt lat="48.47562" lon="-4.72543">
        <ele>10.711792</ele>
        <time>2017-01-08T10:05:38Z</time>
      </trkpt>
      <trkpt lat="48.47568" lon="-4.72539">
        <ele>8.7891846</ele>
        <time>2017-01-08T10:05:44Z</time>
      </trkpt>
      <trkpt lat="48.47572" lon="-4.72537">
        <ele>7.8278809</ele>
        <time>2017-01-08T10:05:50Z</time>
      </trkpt>
      <trkpt lat="48.47576" lon="-4.72532">
        <ele>5.9052734</ele>
        <time>2017-01-08T10:05:55Z</time>
      </trkpt>
      <trkpt lat="48.47581" lon="-4.72529">
        <ele>4.9438477</ele>
        <time>2017-01-08T10:06:00Z</time>
      </trkpt>
      <trkpt lat="48.47586" lon="-4.72525">
        <ele>5.4245605</ele>
        <time>2017-01-08T10:06:07Z</time>
      </trkpt>
      <trkpt lat="48.4759" lon="-4.72522">
        <ele>3.982666</ele>
        <time>2017-01-08T10:06:11Z</time>
      </trkpt>
      <trkpt lat="48.476" lon="-4.72517">
        <ele>3.0212402</ele>
        <time>2017-01-08T10:06:19Z</time>
      </trkpt>
      <trkpt lat="48.476" lon="-4.72504">
        <ele>3.0212402</ele>
        <time>2017-01-08T10:06:24Z</time>
      </trkpt>
      <trkpt lat="48.47598" lon="-4.72491">
        <ele>2.0600586</ele>
        <time>2017-01-08T10:06:29Z</time>
      </trkpt>
      <trkpt lat="48.476" lon="-4.72478">
        <ele>3.0212402</ele>
        <time>2017-01-08T10:06:35Z</time>
      </trkpt>
      <trkpt lat="48.47599" lon="-4.72474">
        <ele>3.982666</ele>
        <time>2017-01-08T10:06:37Z</time>
      </trkpt>
      <trkpt lat="48.47595" lon="-4.72467">
        <ele>2.5406494</ele>
        <time>2017-01-08T10:06:42Z</time>
      </trkpt>
      <trkpt lat="48.47587" lon="-4.72465">
        <ele>3.0212402</ele>
        <time>2017-01-08T10:06:49Z</time>
      </trkpt>
      <trkpt lat="48.47583" lon="-4.72466">
        <ele>3.0212402</ele>
        <time>2017-01-08T10:06:52Z</time>
      </trkpt>
      <trkpt lat="48.47576" lon="-4.72466">
        <ele>3.0212402</ele>
        <time>2017-01-08T10:06:57Z</time>
      </trkpt>
      <trkpt lat="48.47568" lon="-4.72468">
        <ele>3.5019531</ele>
        <time>2017-01-08T10:07:02Z</time>
      </trkpt>
      <trkpt lat="48.47556" lon="-4.72464">
        <ele>2.0600586</ele>
        <time>2017-01-08T10:07:09Z</time>
      </trkpt>
      <trkpt lat="48.47554" lon="-4.72464">
        <ele>2.0600586</ele>
        <time>2017-01-08T10:07:10Z</time>
      </trkpt>
      <trkpt lat="48.47551" lon="-4.72463">
        <ele>2.0600586</ele>
        <time>2017-01-08T10:07:12Z</time>
      </trkpt>
      <trkpt lat="48.47545" lon="-4.72458">
        <ele>2.0600586</ele>
        <time>2017-01-08T10:07:16Z</time>
      </trkpt>
      <trkpt lat="48.47544" lon="-4.72448">
        <ele>3.5019531</ele>
        <time>2017-01-08T10:07:21Z</time>
      </trkpt>
      <trkpt lat="48.47543" lon="-4.72445">
        <ele>3.982666</ele>
        <time>2017-01-08T10:07:22Z</time>
      </trkpt>
      <trkpt lat="48.47547" lon="-4.72431">
        <ele>4.9438477</ele>
        <time>2017-01-08T10:07:29Z</time>
      </trkpt>
      <trkpt lat="48.47552" lon="-4.7242">
        <ele>4.9438477</ele>
        <time>2017-01-08T10:07:34Z</time>
      </trkpt>
      <trkpt lat="48.47552" lon="-4.72417">
        <ele>4.9438477</ele>
        <time>2017-01-08T10:07:35Z</time>
      </trkpt>
      <trkpt lat="48.47552" lon="-4.72403">
        <ele>7.347168</ele>
        <time>2017-01-08T10:07:40Z</time>
      </trkpt>
      <trkpt lat="48.47551" lon="-4.724">
        <ele>7.347168</ele>
        <time>2017-01-08T10:07:41Z</time>
      </trkpt>
      <trkpt lat="48.47551" lon="-4.72397">
        <ele>8.7891846</ele>
        <time>2017-01-08T10:07:43Z</time>
      </trkpt>
      <trkpt lat="48.47556" lon="-4.72385">
        <ele>9.7506104</ele>
        <time>2017-01-08T10:07:49Z</time>
      </trkpt>
      <trkpt lat="48.47556" lon="-4.72381">
        <ele>8.3085938</ele>
        <time>2017-01-08T10:07:53Z</time>
      </trkpt>
      <trkpt lat="48.47559" lon="-4.72371">
        <ele>7.347168</ele>
        <time>2017-01-08T10:07:58Z</time>
      </trkpt>
      <trkpt lat="48.47564" lon="-4.72367">
        <ele>8.7891846</ele>
        <time>2017-01-08T10:08:02Z</time>
      </trkpt>
      <trkpt lat="48.47566" lon="-4.72364">
        <ele>11.1925049</ele>
        <time>2017-01-08T10:08:05Z</time>
      </trkpt>
      <trkpt lat="48.47571" lon="-4.7236">
        <ele>13.1151123</ele>
        <time>2017-01-08T10:08:10Z</time>
      </trkpt>
      <trkpt lat="48.4758" lon="-4.72357">
        <ele>13.1151123</ele>
        <time>2017-01-08T10:08:17Z</time>
      </trkpt>
      <trkpt lat="48.47588" lon="-4.72355">
        <ele>14.076416</ele>
        <time>2017-01-08T10:08:23Z</time>
      </trkpt>
      <trkpt lat="48.47593" lon="-4.72352">
        <ele>13.1151123</ele>
        <time>2017-01-08T10:08:28Z</time>
      </trkpt>
      <trkpt lat="48.47599" lon="-4.72351">
        <ele>12.1538086</ele>
        <time>2017-01-08T10:08:32Z</time>
      </trkpt>
      <trkpt lat="48.47606" lon="-4.72348">
        <ele>11.6732178</ele>
        <time>2017-01-08T10:08:38Z</time>
      </trkpt>
      <trkpt lat="48.47615" lon="-4.72348">
        <ele>9.7506104</ele>
        <time>2017-01-08T10:08:44Z</time>
      </trkpt>
      <trkpt lat="48.47617" lon="-4.72347">
        <ele>9.2698975</ele>
        <time>2017-01-08T10:08:46Z</time>
      </trkpt>
      <trkpt lat="48.4762" lon="-4.72345">
        <ele>8.3085938</ele>
        <time>2017-01-08T10:08:50Z</time>
      </trkpt>
      <trkpt lat="48.47626" lon="-4.72341">
        <ele>10.711792</ele>
        <time>2017-01-08T10:08:54Z</time>
      </trkpt>
      <trkpt lat="48.47632" lon="-4.72338">
        <ele>10.2312012</ele>
        <time>2017-01-08T10:09:01Z</time>
      </trkpt>
      <trkpt lat="48.47636" lon="-4.72337">
        <ele>8.7891846</ele>
        <time>2017-01-08T10:09:04Z</time>
      </trkpt>
      <trkpt lat="48.47646" lon="-4.72332">
        <ele>10.2312012</ele>
        <time>2017-01-08T10:09:11Z</time>
      </trkpt>
      <trkpt lat="48.47649" lon="-4.7233">
        <ele>9.7506104</ele>
        <time>2017-01-08T10:09:14Z</time>
      </trkpt>
      <trkpt lat="48.4766" lon="-4.72327">
        <ele>10.711792</ele>
        <time>2017-01-08T10:09:21Z</time>
      </trkpt>
      <trkpt lat="48.47665" lon="-4.72328">
        <ele>10.711792</ele>
        <time>2017-01-08T10:09:24Z</time>
      </trkpt>
      <trkpt lat="48.47676" lon="-4.72324">
        <ele>11.1925049</ele>
        <time>2017-01-08T10:09:30Z</time>
      </trkpt>
      <trkpt lat="48.47686" lon="-4.72321">
        <ele>12.6343994</ele>
        <time>2017-01-08T10:09:37Z</time>
      </trkpt>
      <trkpt lat="48.47696" lon="-4.72318">
        <ele>15.5184326</ele>
        <time>2017-01-08T10:09:42Z</time>
      </trkpt>
      <trkpt lat="48.47703" lon="-4.72311">
        <ele>16.4797363</ele>
        <time>2017-01-08T10:09:48Z</time>
      </trkpt>
      <trkpt lat="48.47705" lon="-4.72306">
        <ele>17.9217529</ele>
        <time>2017-01-08T10:09:53Z</time>
      </trkpt>
      <trkpt lat="48.47705" lon="-4.723">
        <ele>17.4411621</ele>
        <time>2017-01-08T10:09:56Z</time>
      </trkpt>
      <trkpt lat="48.47706" lon="-4.72287">
        <ele>16.9604492</ele>
        <time>2017-01-08T10:10:02Z</time>
      </trkpt>
      <trkpt lat="48.47707" lon="-4.72274">
        <ele>16.4797363</ele>
        <time>2017-01-08T10:10:08Z</time>
      </trkpt>
      <trkpt lat="48.47708" lon="-4.7227">
        <ele>15.5184326</ele>
        <time>2017-01-08T10:10:10Z</time>
      </trkpt>
      <trkpt lat="48.47703" lon="-4.72258">
        <ele>14.076416</ele>
        <time>2017-01-08T10:10:16Z</time>
      </trkpt>
      <trkpt lat="48.47701" lon="-4.72246">
        <ele>13.5958252</ele>
        <time>2017-01-08T10:10:20Z</time>
      </trkpt>
      <trkpt lat="48.47699" lon="-4.72236">
        <ele>12.6343994</ele>
        <time>2017-01-08T10:10:23Z</time>
      </trkpt>
      <trkpt lat="48.477" lon="-4.72224">
        <ele>11.1925049</ele>
        <time>2017-01-08T10:10:28Z</time>
      </trkpt>
      <trkpt lat="48.47696" lon="-4.7221">
        <ele>11.6732178</ele>
        <time>2017-01-08T10:10:30Z</time>
      </trkpt>
      <trkpt lat="48.47696" lon="-4.72206">
        <ele>11.1925049</ele>
        <time>2017-01-08T10:10:33Z</time>
      </trkpt>
      <trkpt lat="48.47696" lon="-4.72201">
        <ele>10.2312012</ele>
        <time>2017-01-08T10:10:38Z</time>
      </trkpt>
      <trkpt lat="48.47695" lon="-4.72193">
        <ele>9.7506104</ele>
        <time>2017-01-08T10:10:41Z</time>
      </trkpt>
      <trkpt lat="48.47696" lon="-4.72187">
        <ele>11.6732178</ele>
        <time>2017-01-08T10:10:47Z</time>
      </trkpt>
      <trkpt lat="48.47696" lon="-4.72182">
        <ele>12.6343994</ele>
        <time>2017-01-08T10:10:50Z</time>
      </trkpt>
      <trkpt lat="48.47695" lon="-4.72173">
        <ele>14.076416</ele>
        <time>2017-01-08T10:10:55Z</time>
      </trkpt>
      <trkpt lat="48.47694" lon="-4.72169">
        <ele>14.5570068</ele>
        <time>2017-01-08T10:10:56Z</time>
      </trkpt>
      <trkpt lat="48.47693" lon="-4.72165">
        <ele>14.076416</ele>
        <time>2017-01-08T10:11:03Z</time>
      </trkpt>
      <trkpt lat="48.47695" lon="-4.72142">
        <ele>15.5184326</ele>
        <time>2017-01-08T10:11:05Z</time>
      </trkpt>
      <trkpt lat="48.47694" lon="-4.72133">
        <ele>16.9604492</ele>
        <time>2017-01-08T10:11:10Z</time>
      </trkpt>
      <trkpt lat="48.47694" lon="-4.72124">
        <ele>16.9604492</ele>
        <time>2017-01-08T10:11:15Z</time>
      </trkpt>
      <trkpt lat="48.47695" lon="-4.72117">
        <ele>16.9604492</ele>
        <time>2017-01-08T10:11:16Z</time>
      </trkpt>
      <trkpt lat="48.47695" lon="-4.721">
        <ele>18.8830566</ele>
        <time>2017-01-08T10:11:24Z</time>
      </trkpt>
      <trkpt lat="48.47693" lon="-4.72088">
        <ele>19.3637695</ele>
        <time>2017-01-08T10:11:30Z</time>
      </trkpt>
      <trkpt lat="48.47694" lon="-4.72081">
        <ele>19.3637695</ele>
        <time>2017-01-08T10:11:33Z</time>
      </trkpt>
      <trkpt lat="48.47693" lon="-4.72068">
        <ele>19.8443604</ele>
        <time>2017-01-08T10:11:39Z</time>
      </trkpt>
      <trkpt lat="48.47691" lon="-4.72065">
        <ele>20.3249512</ele>
        <time>2017-01-08T10:11:41Z</time>
      </trkpt>
      <trkpt lat="48.47684" lon="-4.72063">
        <ele>21.286377</ele>
        <time>2017-01-08T10:11:45Z</time>
      </trkpt>
      <trkpt lat="48.4768" lon="-4.72063">
        <ele>20.8056641</ele>
        <time>2017-01-08T10:11:47Z</time>
      </trkpt>
      <trkpt lat="48.47674" lon="-4.72059">
        <ele>20.3249512</ele>
        <time>2017-01-08T10:11:51Z</time>
      </trkpt>
      <trkpt lat="48.47675" lon="-4.72053">
        <ele>17.4411621</ele>
        <time>2017-01-08T10:11:55Z</time>
      </trkpt>
      <trkpt lat="48.47672" lon="-4.72043">
        <ele>15.9990234</ele>
        <time>2017-01-08T10:12:02Z</time>
      </trkpt>
      <trkpt lat="48.47664" lon="-4.72041">
        <ele>16.9604492</ele>
        <time>2017-01-08T10:12:06Z</time>
      </trkpt>
      <trkpt lat="48.47651" lon="-4.72036">
        <ele>18.4023438</ele>
        <time>2017-01-08T10:12:11Z</time>
      </trkpt>
      <trkpt lat="48.47649" lon="-4.72035">
        <ele>18.4023438</ele>
        <time>2017-01-08T10:12:12Z</time>
      </trkpt>
      <trkpt lat="48.4764" lon="-4.7203">
        <ele>17.4411621</ele>
        <time>2017-01-08T10:12:18Z</time>
      </trkpt>
      <trkpt lat="48.47631" lon="-4.72027">
        <ele>17.4411621</ele>
        <time>2017-01-08T10:12:23Z</time>
      </trkpt>
      <trkpt lat="48.47623" lon="-4.72022">
        <ele>16.4797363</ele>
        <time>2017-01-08T10:12:28Z</time>
      </trkpt>
      <trkpt lat="48.47613" lon="-4.72016">
        <ele>14.5570068</ele>
        <time>2017-01-08T10:12:34Z</time>
      </trkpt>
      <trkpt lat="48.47601" lon="-4.72013">
        <ele>12.6343994</ele>
        <time>2017-01-08T10:12:41Z</time>
      </trkpt>
      <trkpt lat="48.4759" lon="-4.72018">
        <ele>11.6732178</ele>
        <time>2017-01-08T10:12:46Z</time>
      </trkpt>
      <trkpt lat="48.47583" lon="-4.72024">
        <ele>9.7506104</ele>
        <time>2017-01-08T10:12:51Z</time>
      </trkpt>
      <trkpt lat="48.47582" lon="-4.72018">
        <ele>7.347168</ele>
        <time>2017-01-08T10:12:56Z</time>
      </trkpt>
      <trkpt lat="48.47581" lon="-4.72017">
        <ele>7.347168</ele>
        <time>2017-01-08T10:12:57Z</time>
      </trkpt>
      <trkpt lat="48.47579" lon="-4.72006">
        <ele>5.4245605</ele>
        <time>2017-01-08T10:13:03Z</time>
      </trkpt>
      <trkpt lat="48.47578" lon="-4.71996">
        <ele>6.8664551</ele>
        <time>2017-01-08T10:13:08Z</time>
      </trkpt>
      <trkpt lat="48.4758" lon="-4.71987">
        <ele>6.3858643</ele>
        <time>2017-01-08T10:13:14Z</time>
      </trkpt>
      <trkpt lat="48.4758" lon="-4.71984">
        <ele>6.8664551</ele>
        <time>2017-01-08T10:13:15Z</time>
      </trkpt>
      <trkpt lat="48.47581" lon="-4.71967">
        <ele>8.3085938</ele>
        <time>2017-01-08T10:13:21Z</time>
      </trkpt>
      <trkpt lat="48.4758" lon="-4.71956">
        <ele>9.2698975</ele>
        <time>2017-01-08T10:13:25Z</time>
      </trkpt>
      <trkpt lat="48.47581" lon="-4.71939">
        <ele>9.2698975</ele>
        <time>2017-01-08T10:13:32Z</time>
      </trkpt>
      <trkpt lat="48.47583" lon="-4.71927">
        <ele>8.7891846</ele>
        <time>2017-01-08T10:13:37Z</time>
      </trkpt>
      <trkpt lat="48.47584" lon="-4.71923">
        <ele>8.7891846</ele>
        <time>2017-01-08T10:13:39Z</time>
      </trkpt>
      <trkpt lat="48.47581" lon="-4.7191">
        <ele>10.2312012</ele>
        <time>2017-01-08T10:13:45Z</time>
      </trkpt>
      <trkpt lat="48.4758" lon="-4.71906">
        <ele>10.2312012</ele>
        <time>2017-01-08T10:13:47Z</time>
      </trkpt>
      <trkpt lat="48.47573" lon="-4.71893">
        <ele>11.1925049</ele>
        <time>2017-01-08T10:13:54Z</time>
      </trkpt>
      <trkpt lat="48.4757" lon="-4.71887">
        <ele>11.6732178</ele>
        <time>2017-01-08T10:13:58Z</time>
      </trkpt>
      <trkpt lat="48.47568" lon="-4.71879">
        <ele>12.1538086</ele>
        <time>2017-01-08T10:14:03Z</time>
      </trkpt>
      <trkpt lat="48.47564" lon="-4.71875">
        <ele>11.6732178</ele>
        <time>2017-01-08T10:14:07Z</time>
      </trkpt>
      <trkpt lat="48.47562" lon="-4.71872">
        <ele>9.2698975</ele>
        <time>2017-01-08T10:14:11Z</time>
      </trkpt>
      <trkpt lat="48.47562" lon="-4.71865">
        <ele>7.347168</ele>
        <time>2017-01-08T10:14:17Z</time>
      </trkpt>
      <trkpt lat="48.47561" lon="-4.71855">
        <ele>6.8664551</ele>
        <time>2017-01-08T10:14:22Z</time>
      </trkpt>
      <trkpt lat="48.47559" lon="-4.71844">
        <ele>5.4245605</ele>
        <time>2017-01-08T10:14:29Z</time>
      </trkpt>
      <trkpt lat="48.47558" lon="-4.71842">
        <ele>5.9052734</ele>
        <time>2017-01-08T10:14:30Z</time>
      </trkpt>
      <trkpt lat="48.47556" lon="-4.7183">
        <ele>6.3858643</ele>
        <time>2017-01-08T10:14:37Z</time>
      </trkpt>
      <trkpt lat="48.47555" lon="-4.71829">
        <ele>7.8278809</ele>
        <time>2017-01-08T10:14:45Z</time>
      </trkpt>
      <trkpt lat="48.47554" lon="-4.71828">
        <ele>7.347168</ele>
        <time>2017-01-08T10:14:59Z</time>
      </trkpt>
      <trkpt lat="48.47551" lon="-4.71825">
        <ele>6.3858643</ele>
        <time>2017-01-08T10:15:03Z</time>
      </trkpt>
      <trkpt lat="48.47551" lon="-4.71824">
        <ele>5.9052734</ele>
        <time>2017-01-08T10:15:09Z</time>
      </trkpt>
      <trkpt lat="48.47553" lon="-4.71823">
        <ele>2.5406494</ele>
        <time>2017-01-08T10:15:28Z</time>
      </trkpt>
      <trkpt lat="48.47552" lon="-4.71823">
        <ele>5.9052734</ele>
        <time>2017-01-08T10:19:02Z</time>
      </trkpt>
      <trkpt lat="48.47555" lon="-4.7182">
        <ele>4.9438477</ele>
        <time>2017-01-08T10:19:06Z</time>
      </trkpt>
      <trkpt lat="48.47557" lon="-4.71816">
        <ele>4.9438477</ele>
        <time>2017-01-08T10:19:10Z</time>
      </trkpt>
      <trkpt lat="48.47562" lon="-4.71813">
        <ele>5.9052734</ele>
        <time>2017-01-08T10:19:16Z</time>
      </trkpt>
      <trkpt lat="48.47567" lon="-4.71812">
        <ele>6.8664551</ele>
        <time>2017-01-08T10:19:20Z</time>
      </trkpt>
      <trkpt lat="48.47574" lon="-4.71809">
        <ele>12.1538086</ele>
        <time>2017-01-08T10:19:29Z</time>
      </trkpt>
      <trkpt lat="48.47582" lon="-4.71805">
        <ele>10.711792</ele>
        <time>2017-01-08T10:19:36Z</time>
      </trkpt>
      <trkpt lat="48.4759" lon="-4.71806">
        <ele>8.3085938</ele>
        <time>2017-01-08T10:19:42Z</time>
      </trkpt>
      <trkpt lat="48.47596" lon="-4.71807">
        <ele>8.7891846</ele>
        <time>2017-01-08T10:19:47Z</time>
      </trkpt>
      <trkpt lat="48.47599" lon="-4.71806">
        <ele>9.2698975</ele>
        <time>2017-01-08T10:19:49Z</time>
      </trkpt>
      <trkpt lat="48.47606" lon="-4.71807">
        <ele>11.1925049</ele>
        <time>2017-01-08T10:19:54Z</time>
      </trkpt>
      <trkpt lat="48.47617" lon="-4.71808">
        <ele>13.5958252</ele>
        <time>2017-01-08T10:20:02Z</time>
      </trkpt>
      <trkpt lat="48.47623" lon="-4.71807">
        <ele>14.5570068</ele>
        <time>2017-01-08T10:20:07Z</time>
      </trkpt>
      <trkpt lat="48.47629" lon="-4.71803">
        <ele>15.9990234</ele>
        <time>2017-01-08T10:20:12Z</time>
      </trkpt>
      <trkpt lat="48.47636" lon="-4.71793">
        <ele>17.4411621</ele>
        <time>2017-01-08T10:20:18Z</time>
      </trkpt>
      <trkpt lat="48.47643" lon="-4.71785">
        <ele>20.3249512</ele>
        <time>2017-01-08T10:20:24Z</time>
      </trkpt>
      <trkpt lat="48.47644" lon="-4.71783">
        <ele>20.8056641</ele>
        <time>2017-01-08T10:20:26Z</time>
      </trkpt>
      <trkpt lat="48.47646" lon="-4.71779">
        <ele>20.8056641</ele>
        <time>2017-01-08T10:20:30Z</time>
      </trkpt>
      <trkpt lat="48.47651" lon="-4.71778">
        <ele>20.3249512</ele>
        <time>2017-01-08T10:20:35Z</time>
      </trkpt>
      <trkpt lat="48.47652" lon="-4.71778">
        <ele>20.8056641</ele>
        <time>2017-01-08T10:20:40Z</time>
      </trkpt>
      <trkpt lat="48.47653" lon="-4.71777">
        <ele>22.2475586</ele>
        <time>2017-01-08T10:20:48Z</time>
      </trkpt>
      <trkpt lat="48.47658" lon="-4.71777">
        <ele>21.286377</ele>
        <time>2017-01-08T10:21:08Z</time>
      </trkpt>
      <trkpt lat="48.47662" lon="-4.71778">
        <ele>26.0928955</ele>
        <time>2017-01-08T10:21:57Z</time>
      </trkpt>
      <trkpt lat="48.47667" lon="-4.71775">
        <ele>23.2089844</ele>
        <time>2017-01-08T10:22:04Z</time>
      </trkpt>
      <trkpt lat="48.47674" lon="-4.71774">
        <ele>12.6343994</ele>
        <time>2017-01-08T10:22:27Z</time>
      </trkpt>
      <trkpt lat="48.47682" lon="-4.71773">
        <ele>14.5570068</ele>
        <time>2017-01-08T10:22:41Z</time>
      </trkpt>
      <trkpt lat="48.47687" lon="-4.71774">
        <ele>14.5570068</ele>
        <time>2017-01-08T10:22:53Z</time>
      </trkpt>
      <trkpt lat="48.47695" lon="-4.71776">
        <ele>15.9990234</ele>
        <time>2017-01-08T10:23:10Z</time>
      </trkpt>
      <trkpt lat="48.47701" lon="-4.71777">
        <ele>19.3637695</ele>
        <time>2017-01-08T10:23:18Z</time>
      </trkpt>
      <trkpt lat="48.47706" lon="-4.71778">
        <ele>18.4023438</ele>
        <time>2017-01-08T10:23:23Z</time>
      </trkpt>
      <trkpt lat="48.47713" lon="-4.71795">
        <ele>16.4797363</ele>
        <time>2017-01-08T10:23:44Z</time>
      </trkpt>
      <trkpt lat="48.47726" lon="-4.71826">
        <ele>18.4023438</ele>
        <time>2017-01-08T10:23:54Z</time>
      </trkpt>
      <trkpt lat="48.47729" lon="-4.7179">
        <ele>19.3637695</ele>
        <time>2017-01-08T10:24:03Z</time>
      </trkpt>
      <trkpt lat="48.4772" lon="-4.71788">
        <ele>20.3249512</ele>
        <time>2017-01-08T10:24:08Z</time>
      </trkpt>
    </trkseg>
  </trk>
</gpx>